<?xml version='1.0' encoding='UTF-8'?><gpx version="1.1" creator="JPX - https://github.com/jenetics/jpx" xmlns="http://www.topografix.com/GPX/1/1"><trk><trkseg><trkpt lat="44.3172183" lon="10.4187533"><ele>1296.0</ele><time>2026-04-26T07:38:05.637Z</time></trkpt><trkpt lat="44.3171833" lon="10.4186783"><ele>1296.0</ele><time>2026-04-26T07:38:12.638Z</time></trkpt><trkpt lat="44.3171683" lon="10.418565"><ele>1296.0</ele><time>2026-04-26T07:38:17.638Z</time></trkpt><trkpt lat="44.31713" lon="10.418485"><ele>1296.0</ele><time>2026-04-26T07:38:23.638Z</time></trkpt><trkpt lat="44.3171067" lon="10.4183983"><ele>1296.0</ele><time>2026-04-26T07:38:29.638Z</time></trkpt><trkpt lat="44.3170567" lon="10.418335"><ele>1296.0</ele><time>2026-04-26T07:38:35.645Z</time></trkpt><trkpt lat="44.3169983" lon="10.4182517"><ele>1296.0</ele><time>2026-04-26T07:38:43.639Z</time></trkpt><trkpt lat="44.316945" lon="10.4181783"><ele>1296.0</ele><time>2026-04-26T07:38:49.639Z</time></trkpt><trkpt lat="44.316905" lon="10.4181033"><ele>1296.0</ele><time>2026-04-26T07:38:55.647Z</time></trkpt><trkpt lat="44.3168567" lon="10.41804"><ele>1296.0</ele><time>2026-04-26T07:39:05.64Z</time></trkpt><trkpt lat="44.3168317" lon="10.4179417"><ele>1296.0</ele><time>2026-04-26T07:39:12.637Z</time></trkpt><trkpt lat="44.3168017" lon="10.4178533"><ele>1296.0</ele><time>2026-04-26T07:39:19.648Z</time></trkpt><trkpt lat="44.3168017" lon="10.417765"><ele>1296.0</ele><time>2026-04-26T07:39:25.639Z</time></trkpt><trkpt lat="44.3168067" lon="10.417665"><ele>1296.0</ele><time>2026-04-26T07:39:31.639Z</time></trkpt><trkpt lat="44.316835" lon="10.4175767"><ele>1297.142857142857</ele><time>2026-04-26T07:39:41.64Z</time></trkpt><trkpt lat="44.31682" lon="10.417475"><ele>1298.2857142857142</ele><time>2026-04-26T07:39:50.638Z</time></trkpt><trkpt lat="44.3168667" lon="10.4173967"><ele>1299.4285714285716</ele><time>2026-04-26T07:39:55.637Z</time></trkpt><trkpt lat="44.3169233" lon="10.4173283"><ele>1300.5714285714284</ele><time>2026-04-26T07:40:00.636Z</time></trkpt><trkpt lat="44.3169183" lon="10.41723"><ele>1301.7142857142856</ele><time>2026-04-26T07:40:07.636Z</time></trkpt><trkpt lat="44.3169517" lon="10.4171517"><ele>1302.857142857143</ele><time>2026-04-26T07:40:13.636Z</time></trkpt><trkpt lat="44.3169467" lon="10.41705"><ele>1304.0</ele><time>2026-04-26T07:40:20.635Z</time></trkpt><trkpt lat="44.3169267" lon="10.416955"><ele>1305.2857142857144</ele><time>2026-04-26T07:40:24.635Z</time></trkpt><trkpt lat="44.3168992" lon="10.4168659"><ele>1306.5714285714284</ele><time>2026-04-26T07:40:30.635Z</time></trkpt><trkpt lat="44.3168595" lon="10.4167902"><ele>1307.857142857143</ele><time>2026-04-26T07:40:38.636Z</time></trkpt><trkpt lat="44.3168305" lon="10.4167107"><ele>1309.1428571428573</ele><time>2026-04-26T07:40:46.64Z</time></trkpt><trkpt lat="44.3168106" lon="10.4166254"><ele>1310.4285714285716</ele><time>2026-04-26T07:40:51.643Z</time></trkpt><trkpt lat="44.3167745" lon="10.416546"><ele>1311.7142857142858</ele><time>2026-04-26T07:40:57.64Z</time></trkpt><trkpt lat="44.3167471" lon="10.4164611"><ele>1313.0</ele><time>2026-04-26T07:41:06.641Z</time></trkpt><trkpt lat="44.3167236" lon="10.4163744"><ele>1316.0000000000002</ele><time>2026-04-26T07:41:16.639Z</time></trkpt><trkpt lat="44.3167276" lon="10.4162772"><ele>1319.0</ele><time>2026-04-26T07:41:23.642Z</time></trkpt><trkpt lat="44.316714" lon="10.4161861"><ele>1322.0</ele><time>2026-04-26T07:41:29.641Z</time></trkpt><trkpt lat="44.3166896" lon="10.4160965"><ele>1325.0</ele><time>2026-04-26T07:41:35.641Z</time></trkpt><trkpt lat="44.3166578" lon="10.4160131"><ele>1328.0</ele><time>2026-04-26T07:41:40.64Z</time></trkpt><trkpt lat="44.3166066" lon="10.4159599"><ele>1331.0000000000002</ele><time>2026-04-26T07:41:50.64Z</time></trkpt><trkpt lat="44.3165466" lon="10.4159041"><ele>1334.0</ele><time>2026-04-26T07:41:58.64Z</time></trkpt><trkpt lat="44.3165063" lon="10.4158249"><ele>1334.0000000000002</ele><time>2026-04-26T07:42:05.639Z</time></trkpt><trkpt lat="44.3164653" lon="10.4157516"><ele>1334.0</ele><time>2026-04-26T07:42:12.641Z</time></trkpt><trkpt lat="44.3164078" lon="10.4157065"><ele>1334.0</ele><time>2026-04-26T07:42:19.64Z</time></trkpt><trkpt lat="44.3163584" lon="10.4156454"><ele>1334.0</ele><time>2026-04-26T07:42:28.66Z</time></trkpt><trkpt lat="44.3163076" lon="10.4155757"><ele>1334.0</ele><time>2026-04-26T07:42:36.639Z</time></trkpt><trkpt lat="44.3162662" lon="10.4154998"><ele>1334.0000000000002</ele><time>2026-04-26T07:42:43.639Z</time></trkpt><trkpt lat="44.3162156" lon="10.4154401"><ele>1334.0</ele><time>2026-04-26T07:42:50.692Z</time></trkpt><trkpt lat="44.316181" lon="10.4153589"><ele>1332.7142857142858</ele><time>2026-04-26T07:42:56.642Z</time></trkpt><trkpt lat="44.3161529" lon="10.4152775"><ele>1331.4285714285716</ele><time>2026-04-26T07:43:02.641Z</time></trkpt><trkpt lat="44.3161194" lon="10.4151913"><ele>1330.1428571428573</ele><time>2026-04-26T07:43:10.647Z</time></trkpt><trkpt lat="44.3160941" lon="10.415109"><ele>1328.857142857143</ele><time>2026-04-26T07:43:17.64Z</time></trkpt><trkpt lat="44.3160969" lon="10.415019"><ele>1327.5714285714284</ele><time>2026-04-26T07:43:24.639Z</time></trkpt><trkpt lat="44.316078" lon="10.4149206"><ele>1326.2857142857144</ele><time>2026-04-26T07:43:30.64Z</time></trkpt><trkpt lat="44.3160761" lon="10.4148267"><ele>1325.0</ele><time>2026-04-26T07:43:37.645Z</time></trkpt><trkpt lat="44.316079" lon="10.4147364"><ele>1326.857142857143</ele><time>2026-04-26T07:43:44.641Z</time></trkpt><trkpt lat="44.3160875" lon="10.4146476"><ele>1328.7142857142856</ele><time>2026-04-26T07:43:50.644Z</time></trkpt><trkpt lat="44.3160751" lon="10.4145557"><ele>1330.5714285714284</ele><time>2026-04-26T07:43:56.688Z</time></trkpt><trkpt lat="44.3160625" lon="10.4144591"><ele>1332.4285714285716</ele><time>2026-04-26T07:44:03.639Z</time></trkpt><trkpt lat="44.3160289" lon="10.4143817"><ele>1334.2857142857142</ele><time>2026-04-26T07:44:12.641Z</time></trkpt><trkpt lat="44.3159991" lon="10.4142996"><ele>1336.142857142857</ele><time>2026-04-26T07:44:20.649Z</time></trkpt><trkpt lat="44.3159347" lon="10.4142512"><ele>1338.0</ele><time>2026-04-26T07:44:26.64Z</time></trkpt><trkpt lat="44.315885" lon="10.4141911"><ele>1338.0</ele><time>2026-04-26T07:44:32.664Z</time></trkpt><trkpt lat="44.3158271" lon="10.4141279"><ele>1338.0</ele><time>2026-04-26T07:44:37.636Z</time></trkpt><trkpt lat="44.31576" lon="10.4141065"><ele>1338.0</ele><time>2026-04-26T07:44:45.635Z</time></trkpt><trkpt lat="44.3157202" lon="10.4140229"><ele>1338.0</ele><time>2026-04-26T07:45:07.637Z</time></trkpt><trkpt lat="44.3157021" lon="10.4139296"><ele>1338.0</ele><time>2026-04-26T07:45:13.635Z</time></trkpt><trkpt lat="44.3156592" lon="10.4138609"><ele>1338.0</ele><time>2026-04-26T07:45:18.634Z</time></trkpt><trkpt lat="44.3156011" lon="10.4138021"><ele>1338.0</ele><time>2026-04-26T07:45:23.635Z</time></trkpt><trkpt lat="44.3155512" lon="10.4137312"><ele>1340.0</ele><time>2026-04-26T07:45:29.636Z</time></trkpt><trkpt lat="44.3155033" lon="10.4136688"><ele>1342.0</ele><time>2026-04-26T07:45:34.638Z</time></trkpt><trkpt lat="44.315454" lon="10.4135983"><ele>1344.0</ele><time>2026-04-26T07:45:41.638Z</time></trkpt><trkpt lat="44.3154158" lon="10.4135179"><ele>1346.0</ele><time>2026-04-26T07:45:47.674Z</time></trkpt><trkpt lat="44.3153713" lon="10.4134516"><ele>1348.0</ele><time>2026-04-26T07:45:54.639Z</time></trkpt><trkpt lat="44.3153168" lon="10.4133878"><ele>1350.0</ele><time>2026-04-26T07:46:05.639Z</time></trkpt><trkpt lat="44.3152544" lon="10.4133359"><ele>1352.0</ele><time>2026-04-26T07:46:13.663Z</time></trkpt><trkpt lat="44.3151934" lon="10.4132836"><ele>1352.0</ele><time>2026-04-26T07:46:21.672Z</time></trkpt><trkpt lat="44.3151201" lon="10.413263"><ele>1352.0</ele><time>2026-04-26T07:46:28.663Z</time></trkpt><trkpt lat="44.3150466" lon="10.4132489"><ele>1352.0</ele><time>2026-04-26T07:46:34.639Z</time></trkpt><trkpt lat="44.3149802" lon="10.4132382"><ele>1352.0</ele><time>2026-04-26T07:46:39.646Z</time></trkpt><trkpt lat="44.3149186" lon="10.4131951"><ele>1352.0</ele><time>2026-04-26T07:46:45.652Z</time></trkpt><trkpt lat="44.3148586" lon="10.4131549"><ele>1352.0</ele><time>2026-04-26T07:46:51.648Z</time></trkpt><trkpt lat="44.3148033" lon="10.4131061"><ele>1352.0</ele><time>2026-04-26T07:46:57.642Z</time></trkpt><trkpt lat="44.3147468" lon="10.413049"><ele>1351.5714285714287</ele><time>2026-04-26T07:47:04.665Z</time></trkpt><trkpt lat="44.3146914" lon="10.4129898"><ele>1351.142857142857</ele><time>2026-04-26T07:47:12.651Z</time></trkpt><trkpt lat="44.314627" lon="10.4129458"><ele>1350.7142857142858</ele><time>2026-04-26T07:47:20.64Z</time></trkpt><trkpt lat="44.3145702" lon="10.4129049"><ele>1350.2857142857142</ele><time>2026-04-26T07:47:26.649Z</time></trkpt><trkpt lat="44.3145222" lon="10.4128309"><ele>1349.857142857143</ele><time>2026-04-26T07:47:33.642Z</time></trkpt><trkpt lat="44.3144818" lon="10.4127568"><ele>1349.4285714285713</ele><time>2026-04-26T07:47:39.642Z</time></trkpt><trkpt lat="44.3144341" lon="10.4126874"><ele>1349.0</ele><time>2026-04-26T07:47:45.642Z</time></trkpt><trkpt lat="44.3144247" lon="10.4125881"><ele>1349.0</ele><time>2026-04-26T07:47:53.64Z</time></trkpt><trkpt lat="44.3144087" lon="10.4124945"><ele>1349.0</ele><time>2026-04-26T07:48:00.641Z</time></trkpt><trkpt lat="44.3144016" lon="10.4123935"><ele>1349.0</ele><time>2026-04-26T07:48:07.64Z</time></trkpt><trkpt lat="44.3144175" lon="10.4122946"><ele>1349.0</ele><time>2026-04-26T07:48:13.64Z</time></trkpt><trkpt lat="44.314459" lon="10.4122216"><ele>1349.0</ele><time>2026-04-26T07:48:19.641Z</time></trkpt><trkpt lat="44.314494" lon="10.4121375"><ele>1349.0</ele><time>2026-04-26T07:48:26.639Z</time></trkpt><trkpt lat="44.314504" lon="10.4120458"><ele>1349.0</ele><time>2026-04-26T07:48:34.642Z</time></trkpt><trkpt lat="44.3144641" lon="10.4119707"><ele>1351.4285714285713</ele><time>2026-04-26T07:48:43.641Z</time></trkpt><trkpt lat="44.3144443" lon="10.411885"><ele>1353.857142857143</ele><time>2026-04-26T07:48:51.651Z</time></trkpt><trkpt lat="44.3144137" lon="10.4117894"><ele>1356.2857142857142</ele><time>2026-04-26T07:48:57.64Z</time></trkpt><trkpt lat="44.3143632" lon="10.4117351"><ele>1358.7142857142858</ele><time>2026-04-26T07:49:04.64Z</time></trkpt><trkpt lat="44.3143085" lon="10.4116911"><ele>1361.142857142857</ele><time>2026-04-26T07:49:11.639Z</time></trkpt><trkpt lat="44.314251" lon="10.4116318"><ele>1363.5714285714287</ele><time>2026-04-26T07:49:18.641Z</time></trkpt><trkpt lat="44.314194" lon="10.4115744"><ele>1366.0</ele><time>2026-04-26T07:49:24.642Z</time></trkpt><trkpt lat="44.3141544" lon="10.4114928"><ele>1366.0</ele><time>2026-04-26T07:49:29.64Z</time></trkpt><trkpt lat="44.3141211" lon="10.4114009"><ele>1366.0</ele><time>2026-04-26T07:49:35.649Z</time></trkpt><trkpt lat="44.3141121" lon="10.4113104"><ele>1366.0</ele><time>2026-04-26T07:49:41.64Z</time></trkpt><trkpt lat="44.3141023" lon="10.4112171"><ele>1366.0</ele><time>2026-04-26T07:49:49.653Z</time></trkpt><trkpt lat="44.3140898" lon="10.41113"><ele>1366.0</ele><time>2026-04-26T07:49:56.639Z</time></trkpt><trkpt lat="44.3140859" lon="10.4110395"><ele>1366.0</ele><time>2026-04-26T07:50:05.639Z</time></trkpt><trkpt lat="44.3141077" lon="10.410944"><ele>1366.0</ele><time>2026-04-26T07:50:11.648Z</time></trkpt><trkpt lat="44.3141218" lon="10.4108568"><ele>1368.5714285714287</ele><time>2026-04-26T07:50:18.639Z</time></trkpt><trkpt lat="44.3141302" lon="10.4107591"><ele>1371.142857142857</ele><time>2026-04-26T07:50:25.64Z</time></trkpt><trkpt lat="44.3141145" lon="10.4106678"><ele>1373.7142857142858</ele><time>2026-04-26T07:50:32.641Z</time></trkpt><trkpt lat="44.3140979" lon="10.410582"><ele>1376.2857142857142</ele><time>2026-04-26T07:50:38.639Z</time></trkpt><trkpt lat="44.3140848" lon="10.4104949"><ele>1378.857142857143</ele><time>2026-04-26T07:50:50.641Z</time></trkpt><trkpt lat="44.3140672" lon="10.4104072"><ele>1381.4285714285713</ele><time>2026-04-26T07:50:56.64Z</time></trkpt><trkpt lat="44.3140491" lon="10.4103103"><ele>1384.0</ele><time>2026-04-26T07:51:01.641Z</time></trkpt><trkpt lat="44.3140128" lon="10.4102362"><ele>1384.0</ele><time>2026-04-26T07:51:09.644Z</time></trkpt><trkpt lat="44.3139707" lon="10.4101689"><ele>1384.0</ele><time>2026-04-26T07:51:16.636Z</time></trkpt><trkpt lat="44.3139368" lon="10.4100715"><ele>1384.0</ele><time>2026-04-26T07:51:22.644Z</time></trkpt><trkpt lat="44.3140186" lon="10.4100481"><ele>1384.0</ele><time>2026-04-26T07:51:26.135Z</time></trkpt><trkpt lat="44.3139603" lon="10.4099494"><ele>1384.0</ele><time>2026-04-26T07:51:29.635Z</time></trkpt><trkpt lat="44.3138941" lon="10.4099131"><ele>1384.0</ele><time>2026-04-26T07:51:31.636Z</time></trkpt><trkpt lat="44.3138437" lon="10.4098517"><ele>1384.0</ele><time>2026-04-26T07:51:34.636Z</time></trkpt><trkpt lat="44.313799" lon="10.4097752"><ele>1384.0</ele><time>2026-04-26T07:51:37.636Z</time></trkpt><trkpt lat="44.313734" lon="10.4097367"><ele>1384.0</ele><time>2026-04-26T07:51:42.634Z</time></trkpt><trkpt lat="44.3136662" lon="10.4097143"><ele>1384.0</ele><time>2026-04-26T07:51:54.635Z</time></trkpt><trkpt lat="44.3136047" lon="10.4096626"><ele>1384.0</ele><time>2026-04-26T07:52:04.636Z</time></trkpt><trkpt lat="44.3135504" lon="10.4096157"><ele>1384.0</ele><time>2026-04-26T07:52:09.634Z</time></trkpt><trkpt lat="44.313493" lon="10.4095693"><ele>1384.0</ele><time>2026-04-26T07:52:16.635Z</time></trkpt><trkpt lat="44.3134295" lon="10.4095368"><ele>1385.4285714285713</ele><time>2026-04-26T07:52:25.635Z</time></trkpt><trkpt lat="44.3133638" lon="10.409512"><ele>1386.857142857143</ele><time>2026-04-26T07:52:31.638Z</time></trkpt><trkpt lat="44.3132935" lon="10.4094902"><ele>1388.2857142857142</ele><time>2026-04-26T07:52:40.636Z</time></trkpt><trkpt lat="44.3132293" lon="10.4094777"><ele>1389.7142857142858</ele><time>2026-04-26T07:52:50.639Z</time></trkpt><trkpt lat="44.3131781" lon="10.4094054"><ele>1391.142857142857</ele><time>2026-04-26T07:52:58.651Z</time></trkpt><trkpt lat="44.3131157" lon="10.4093543"><ele>1392.5714285714287</ele><time>2026-04-26T07:53:10.638Z</time></trkpt><trkpt lat="44.3130532" lon="10.4093184"><ele>1394.0</ele><time>2026-04-26T07:53:18.638Z</time></trkpt><trkpt lat="44.3129823" lon="10.4092971"><ele>1394.0</ele><time>2026-04-26T07:53:24.64Z</time></trkpt><trkpt lat="44.312915" lon="10.4092813"><ele>1394.0</ele><time>2026-04-26T07:53:32.65Z</time></trkpt><trkpt lat="44.3128513" lon="10.4092742"><ele>1394.0</ele><time>2026-04-26T07:53:39.638Z</time></trkpt><trkpt lat="44.312791" lon="10.4092344"><ele>1394.0</ele><time>2026-04-26T07:53:45.641Z</time></trkpt><trkpt lat="44.3127439" lon="10.409176"><ele>1394.0</ele><time>2026-04-26T07:53:51.639Z</time></trkpt><trkpt lat="44.3126879" lon="10.4091131"><ele>1394.0</ele><time>2026-04-26T07:53:58.648Z</time></trkpt><trkpt lat="44.3126293" lon="10.4090758"><ele>1394.0</ele><time>2026-04-26T07:54:05.652Z</time></trkpt><trkpt lat="44.3125725" lon="10.4090271"><ele>1394.0</ele><time>2026-04-26T07:54:12.638Z</time></trkpt><trkpt lat="44.3125603" lon="10.4089362"><ele>1394.0</ele><time>2026-04-26T07:54:19.689Z</time></trkpt><trkpt lat="44.3125137" lon="10.4088711"><ele>1394.0</ele><time>2026-04-26T07:54:28.638Z</time></trkpt><trkpt lat="44.3124874" lon="10.4087865"><ele>1394.0</ele><time>2026-04-26T07:54:36.636Z</time></trkpt><trkpt lat="44.3124786" lon="10.4086934"><ele>1394.0</ele><time>2026-04-26T07:54:44.639Z</time></trkpt><trkpt lat="44.3125695" lon="10.4086125"><ele>1394.0</ele><time>2026-04-26T07:55:08.648Z</time></trkpt><trkpt lat="44.3125955" lon="10.4085201"><ele>1394.0</ele><time>2026-04-26T07:55:22.704Z</time></trkpt><trkpt lat="44.3125863" lon="10.4084068"><ele>1395.2857142857142</ele><time>2026-04-26T07:56:17.637Z</time></trkpt><trkpt lat="44.3126219" lon="10.4083283"><ele>1396.5714285714284</ele><time>2026-04-26T07:56:24.637Z</time></trkpt><trkpt lat="44.3126558" lon="10.4082501"><ele>1397.8571428571427</ele><time>2026-04-26T07:56:33.642Z</time></trkpt><trkpt lat="44.3126484" lon="10.4081556"><ele>1399.142857142857</ele><time>2026-04-26T07:56:42.698Z</time></trkpt><trkpt lat="44.3126345" lon="10.4080663"><ele>1400.4285714285713</ele><time>2026-04-26T07:56:48.656Z</time></trkpt><trkpt lat="44.3126442" lon="10.4079714"><ele>1401.7142857142856</ele><time>2026-04-26T07:56:56.653Z</time></trkpt><trkpt lat="44.312656" lon="10.4078817"><ele>1403.0</ele><time>2026-04-26T07:57:03.634Z</time></trkpt><trkpt lat="44.3126628" lon="10.4077803"><ele>1404.9999999999998</ele><time>2026-04-26T07:57:16.634Z</time></trkpt><trkpt lat="44.3126483" lon="10.4076862"><ele>1407.0</ele><time>2026-04-26T07:57:26.636Z</time></trkpt><trkpt lat="44.3126964" lon="10.4076213"><ele>1409.0</ele><time>2026-04-26T07:57:33.634Z</time></trkpt><trkpt lat="44.3127" lon="10.4075309"><ele>1411.0</ele><time>2026-04-26T07:57:43.637Z</time></trkpt><trkpt lat="44.3126379" lon="10.4074761"><ele>1413.0</ele><time>2026-04-26T07:57:49.636Z</time></trkpt><trkpt lat="44.3125866" lon="10.4074091"><ele>1414.9999999999998</ele><time>2026-04-26T07:57:55.638Z</time></trkpt><trkpt lat="44.3125408" lon="10.4073341"><ele>1417.0</ele><time>2026-04-26T07:58:02.635Z</time></trkpt><trkpt lat="44.3126039" lon="10.4073558"><ele>1416.9999999999998</ele><time>2026-04-26T07:58:27.635Z</time></trkpt><trkpt lat="44.3126672" lon="10.4073834"><ele>1417.0</ele><time>2026-04-26T07:58:34.635Z</time></trkpt><trkpt lat="44.3127233" lon="10.4074358"><ele>1417.0</ele><time>2026-04-26T07:58:42.635Z</time></trkpt><trkpt lat="44.3127736" lon="10.4074939"><ele>1417.0</ele><time>2026-04-26T07:58:51.638Z</time></trkpt><trkpt lat="44.3128321" lon="10.4075401"><ele>1417.0</ele><time>2026-04-26T07:58:57.638Z</time></trkpt><trkpt lat="44.312876" lon="10.4076039"><ele>1416.9999999999998</ele><time>2026-04-26T07:59:04.641Z</time></trkpt><trkpt lat="44.3129111" lon="10.4076903"><ele>1417.0</ele><time>2026-04-26T07:59:13.639Z</time></trkpt><trkpt lat="44.3129783" lon="10.4077222"><ele>1416.9999999999998</ele><time>2026-04-26T07:59:19.639Z</time></trkpt><trkpt lat="44.3130375" lon="10.4077701"><ele>1417.0</ele><time>2026-04-26T07:59:25.652Z</time></trkpt><trkpt lat="44.3130953" lon="10.4078105"><ele>1417.0</ele><time>2026-04-26T07:59:33.639Z</time></trkpt><trkpt lat="44.3131482" lon="10.4078745"><ele>1417.0</ele><time>2026-04-26T07:59:42.639Z</time></trkpt><trkpt lat="44.313206" lon="10.4079238"><ele>1417.0</ele><time>2026-04-26T07:59:48.638Z</time></trkpt><trkpt lat="44.3132693" lon="10.4079366"><ele>1416.9999999999998</ele><time>2026-04-26T07:59:55.673Z</time></trkpt><trkpt lat="44.3133417" lon="10.4079391"><ele>1417.0</ele><time>2026-04-26T08:00:04.639Z</time></trkpt><trkpt lat="44.3134111" lon="10.4079343"><ele>1419.6666666666665</ele><time>2026-04-26T08:00:19.637Z</time></trkpt><trkpt lat="44.3134394" lon="10.4078394"><ele>1422.3333333333333</ele><time>2026-04-26T08:00:35.644Z</time></trkpt><trkpt lat="44.313459" lon="10.407721"><ele>1425.0</ele><time>2026-04-26T08:00:47.639Z</time></trkpt><trkpt lat="44.3135227" lon="10.4076217"><ele>1427.6666666666667</ele><time>2026-04-26T08:00:54.637Z</time></trkpt><trkpt lat="44.3135392" lon="10.4075229"><ele>1430.3333333333335</ele><time>2026-04-26T08:01:02.637Z</time></trkpt><trkpt lat="44.3135663" lon="10.4074268"><ele>1433.0</ele><time>2026-04-26T08:01:09.661Z</time></trkpt><trkpt lat="44.3136016" lon="10.4073292"><ele>1433.0</ele><time>2026-04-26T08:01:16.639Z</time></trkpt><trkpt lat="44.3136581" lon="10.40728"><ele>1433.0</ele><time>2026-04-26T08:01:20.655Z</time></trkpt><trkpt lat="44.313717" lon="10.4072095"><ele>1433.0</ele><time>2026-04-26T08:01:26.638Z</time></trkpt><trkpt lat="44.3136446" lon="10.4071875"><ele>1433.0</ele><time>2026-04-26T08:01:50.647Z</time></trkpt><trkpt lat="44.3135885" lon="10.40723"><ele>1433.0</ele><time>2026-04-26T08:01:57.64Z</time></trkpt><trkpt lat="44.3135334" lon="10.4072745"><ele>1433.0</ele><time>2026-04-26T08:02:08.64Z</time></trkpt><trkpt lat="44.3134674" lon="10.4072616"><ele>1433.0</ele><time>2026-04-26T08:02:14.636Z</time></trkpt><trkpt lat="44.3134291" lon="10.4071841"><ele>1435.5714285714284</ele><time>2026-04-26T08:02:19.639Z</time></trkpt><trkpt lat="44.313388" lon="10.4070966"><ele>1438.1428571428573</ele><time>2026-04-26T08:02:23.639Z</time></trkpt><trkpt lat="44.313359" lon="10.4070078"><ele>1440.7142857142858</ele><time>2026-04-26T08:02:30.639Z</time></trkpt><trkpt lat="44.3133514" lon="10.406917"><ele>1443.2857142857142</ele><time>2026-04-26T08:02:37.697Z</time></trkpt><trkpt lat="44.3133365" lon="10.4068306"><ele>1445.8571428571427</ele><time>2026-04-26T08:02:44.638Z</time></trkpt><trkpt lat="44.3133148" lon="10.406745"><ele>1448.4285714285716</ele><time>2026-04-26T08:02:52.64Z</time></trkpt><trkpt lat="44.313281" lon="10.4066603"><ele>1451.0</ele><time>2026-04-26T08:02:59.638Z</time></trkpt><trkpt lat="44.3132275" lon="10.4066104"><ele>1451.0</ele><time>2026-04-26T08:03:06.671Z</time></trkpt><trkpt lat="44.3131708" lon="10.4065559"><ele>1451.0</ele><time>2026-04-26T08:03:12.675Z</time></trkpt><trkpt lat="44.3131402" lon="10.4064701"><ele>1451.0</ele><time>2026-04-26T08:03:19.64Z</time></trkpt><trkpt lat="44.3131229" lon="10.4063775"><ele>1451.0</ele><time>2026-04-26T08:03:26.64Z</time></trkpt><trkpt lat="44.3130774" lon="10.4063075"><ele>1451.0</ele><time>2026-04-26T08:03:33.639Z</time></trkpt><trkpt lat="44.3130481" lon="10.4062291"><ele>1451.0</ele><time>2026-04-26T08:03:40.64Z</time></trkpt><trkpt lat="44.3130137" lon="10.406146"><ele>1451.0</ele><time>2026-04-26T08:03:48.638Z</time></trkpt><trkpt lat="44.3130119" lon="10.4060546"><ele>1451.0</ele><time>2026-04-26T08:03:55.639Z</time></trkpt><trkpt lat="44.3129807" lon="10.405978"><ele>1451.0</ele><time>2026-04-26T08:04:01.65Z</time></trkpt><trkpt lat="44.312932" lon="10.4059078"><ele>1451.0</ele><time>2026-04-26T08:04:08.663Z</time></trkpt><trkpt lat="44.3128862" lon="10.4058459"><ele>1451.0</ele><time>2026-04-26T08:04:16.666Z</time></trkpt><trkpt lat="44.3128293" lon="10.405797"><ele>1451.0</ele><time>2026-04-26T08:04:23.64Z</time></trkpt><trkpt lat="44.3127861" lon="10.4057302"><ele>1451.0</ele><time>2026-04-26T08:04:30.658Z</time></trkpt><trkpt lat="44.3127288" lon="10.4056643"><ele>1451.0</ele><time>2026-04-26T08:04:35.64Z</time></trkpt><trkpt lat="44.3126807" lon="10.4056044"><ele>1451.0</ele><time>2026-04-26T08:04:40.639Z</time></trkpt><trkpt lat="44.3126455" lon="10.4055297"><ele>1451.0</ele><time>2026-04-26T08:04:47.639Z</time></trkpt><trkpt lat="44.3126196" lon="10.4054348"><ele>1451.0</ele><time>2026-04-26T08:04:56.658Z</time></trkpt><trkpt lat="44.3125709" lon="10.4053615"><ele>1451.0</ele><time>2026-04-26T08:05:02.639Z</time></trkpt><trkpt lat="44.31251" lon="10.4053063"><ele>1451.0</ele><time>2026-04-26T08:05:10.638Z</time></trkpt><trkpt lat="44.3124542" lon="10.4052518"><ele>1451.0</ele><time>2026-04-26T08:05:17.639Z</time></trkpt><trkpt lat="44.3124018" lon="10.4052015"><ele>1451.0</ele><time>2026-04-26T08:05:23.652Z</time></trkpt><trkpt lat="44.3123443" lon="10.4051491"><ele>1454.0</ele><time>2026-04-26T08:05:30.652Z</time></trkpt><trkpt lat="44.3122842" lon="10.4051016"><ele>1457.0</ele><time>2026-04-26T08:05:38.676Z</time></trkpt><trkpt lat="44.3122282" lon="10.4050499"><ele>1460.0</ele><time>2026-04-26T08:05:46.638Z</time></trkpt><trkpt lat="44.3121678" lon="10.4050153"><ele>1463.0</ele><time>2026-04-26T08:05:53.639Z</time></trkpt><trkpt lat="44.3121041" lon="10.4049893"><ele>1466.0</ele><time>2026-04-26T08:06:01.658Z</time></trkpt><trkpt lat="44.3120353" lon="10.404964"><ele>1469.0</ele><time>2026-04-26T08:06:10.638Z</time></trkpt><trkpt lat="44.3119898" lon="10.404892"><ele>1472.0</ele><time>2026-04-26T08:06:18.638Z</time></trkpt><trkpt lat="44.31194" lon="10.4048177"><ele>1472.0</ele><time>2026-04-26T08:06:23.642Z</time></trkpt><trkpt lat="44.3119452" lon="10.4047213"><ele>1472.0</ele><time>2026-04-26T08:06:31.639Z</time></trkpt><trkpt lat="44.3119879" lon="10.4046491"><ele>1472.0</ele><time>2026-04-26T08:06:37.65Z</time></trkpt><trkpt lat="44.3120407" lon="10.4045916"><ele>1472.0</ele><time>2026-04-26T08:06:46.639Z</time></trkpt><trkpt lat="44.3121046" lon="10.4046024"><ele>1472.0</ele><time>2026-04-26T08:06:56.638Z</time></trkpt><trkpt lat="44.3121746" lon="10.4046209"><ele>1472.0</ele><time>2026-04-26T08:07:02.638Z</time></trkpt><trkpt lat="44.3122477" lon="10.4046232"><ele>1472.0</ele><time>2026-04-26T08:07:09.673Z</time></trkpt><trkpt lat="44.3123251" lon="10.4046249"><ele>1472.0</ele><time>2026-04-26T08:07:16.638Z</time></trkpt><trkpt lat="44.3123888" lon="10.4046435"><ele>1472.0</ele><time>2026-04-26T08:07:23.666Z</time></trkpt><trkpt lat="44.3124502" lon="10.4046698"><ele>1472.0</ele><time>2026-04-26T08:07:32.639Z</time></trkpt><trkpt lat="44.3125137" lon="10.4047018"><ele>1472.0</ele><time>2026-04-26T08:07:40.643Z</time></trkpt><trkpt lat="44.3125744" lon="10.4047381"><ele>1472.0</ele><time>2026-04-26T08:07:47.646Z</time></trkpt><trkpt lat="44.3126347" lon="10.4047695"><ele>1472.0</ele><time>2026-04-26T08:07:55.658Z</time></trkpt><trkpt lat="44.3126986" lon="10.4047867"><ele>1472.0</ele><time>2026-04-26T08:08:01.64Z</time></trkpt><trkpt lat="44.3127543" lon="10.404834"><ele>1472.0</ele><time>2026-04-26T08:08:07.638Z</time></trkpt><trkpt lat="44.3128107" lon="10.4048789"><ele>1472.0</ele><time>2026-04-26T08:08:14.644Z</time></trkpt><trkpt lat="44.3128849" lon="10.4049079"><ele>1472.0</ele><time>2026-04-26T08:08:22.638Z</time></trkpt><trkpt lat="44.3129353" lon="10.4048408"><ele>1472.0</ele><time>2026-04-26T08:08:35.649Z</time></trkpt><trkpt lat="44.3129023" lon="10.4047527"><ele>1472.0</ele><time>2026-04-26T08:08:45.637Z</time></trkpt><trkpt lat="44.3128603" lon="10.404686"><ele>1472.0</ele><time>2026-04-26T08:08:52.634Z</time></trkpt><trkpt lat="44.3128276" lon="10.4045945"><ele>1472.0</ele><time>2026-04-26T08:09:03.635Z</time></trkpt><trkpt lat="44.3127753" lon="10.4045328"><ele>1475.142857142857</ele><time>2026-04-26T08:09:10.638Z</time></trkpt><trkpt lat="44.3127759" lon="10.4044374"><ele>1478.2857142857142</ele><time>2026-04-26T08:09:18.637Z</time></trkpt><trkpt lat="44.3127568" lon="10.4043436"><ele>1481.4285714285713</ele><time>2026-04-26T08:09:25.657Z</time></trkpt><trkpt lat="44.3127028" lon="10.4042923"><ele>1484.5714285714284</ele><time>2026-04-26T08:09:35.638Z</time></trkpt><trkpt lat="44.312663" lon="10.4042178"><ele>1487.7142857142858</ele><time>2026-04-26T08:09:42.647Z</time></trkpt><trkpt lat="44.3126185" lon="10.4041436"><ele>1490.8571428571427</ele><time>2026-04-26T08:09:50.638Z</time></trkpt><trkpt lat="44.3125786" lon="10.4040742"><ele>1494.0</ele><time>2026-04-26T08:09:59.639Z</time></trkpt><trkpt lat="44.3125412" lon="10.4040032"><ele>1493.9999999999998</ele><time>2026-04-26T08:10:06.638Z</time></trkpt><trkpt lat="44.3125113" lon="10.4039173"><ele>1494.0</ele><time>2026-04-26T08:10:13.653Z</time></trkpt><trkpt lat="44.3124862" lon="10.403835"><ele>1494.0</ele><time>2026-04-26T08:10:20.639Z</time></trkpt><trkpt lat="44.3124575" lon="10.4037547"><ele>1494.0</ele><time>2026-04-26T08:10:27.657Z</time></trkpt><trkpt lat="44.3124302" lon="10.403675"><ele>1494.0</ele><time>2026-04-26T08:10:33.657Z</time></trkpt><trkpt lat="44.312409" lon="10.4035885"><ele>1493.9999999999998</ele><time>2026-04-26T08:10:41.638Z</time></trkpt><trkpt lat="44.3123569" lon="10.4035338"><ele>1494.0</ele><time>2026-04-26T08:10:48.639Z</time></trkpt><trkpt lat="44.3123129" lon="10.4034672"><ele>1495.4285714285713</ele><time>2026-04-26T08:10:55.645Z</time></trkpt><trkpt lat="44.3122664" lon="10.4033999"><ele>1496.857142857143</ele><time>2026-04-26T08:11:02.641Z</time></trkpt><trkpt lat="44.3122041" lon="10.4033438"><ele>1498.2857142857142</ele><time>2026-04-26T08:11:09.637Z</time></trkpt><trkpt lat="44.3121407" lon="10.4033072"><ele>1499.7142857142858</ele><time>2026-04-26T08:11:16.638Z</time></trkpt><trkpt lat="44.3120703" lon="10.4032851"><ele>1501.142857142857</ele><time>2026-04-26T08:11:25.638Z</time></trkpt><trkpt lat="44.3120029" lon="10.4032778"><ele>1502.5714285714284</ele><time>2026-04-26T08:11:31.641Z</time></trkpt><trkpt lat="44.3119322" lon="10.4032695"><ele>1504.0</ele><time>2026-04-26T08:11:38.639Z</time></trkpt><trkpt lat="44.3118714" lon="10.4032406"><ele>1504.0</ele><time>2026-04-26T08:11:45.638Z</time></trkpt><trkpt lat="44.3118059" lon="10.4032183"><ele>1504.0</ele><time>2026-04-26T08:11:52.64Z</time></trkpt><trkpt lat="44.3117369" lon="10.4032122"><ele>1504.0</ele><time>2026-04-26T08:12:01.639Z</time></trkpt><trkpt lat="44.3116512" lon="10.4031995"><ele>1504.0</ele><time>2026-04-26T08:12:12.639Z</time></trkpt><trkpt lat="44.3115881" lon="10.4031583"><ele>1504.0</ele><time>2026-04-26T08:12:19.678Z</time></trkpt><trkpt lat="44.3115439" lon="10.4030949"><ele>1504.0</ele><time>2026-04-26T08:12:27.649Z</time></trkpt><trkpt lat="44.3114823" lon="10.4030649"><ele>1504.0</ele><time>2026-04-26T08:12:32.644Z</time></trkpt><trkpt lat="44.3114151" lon="10.4030489"><ele>1505.857142857143</ele><time>2026-04-26T08:12:38.639Z</time></trkpt><trkpt lat="44.3113563" lon="10.4030907"><ele>1507.7142857142858</ele><time>2026-04-26T08:12:46.638Z</time></trkpt><trkpt lat="44.3113076" lon="10.4031529"><ele>1509.5714285714284</ele><time>2026-04-26T08:12:52.636Z</time></trkpt><trkpt lat="44.3112456" lon="10.4032087"><ele>1511.4285714285716</ele><time>2026-04-26T08:12:59.638Z</time></trkpt><trkpt lat="44.3111917" lon="10.4032688"><ele>1513.2857142857144</ele><time>2026-04-26T08:13:06.648Z</time></trkpt><trkpt lat="44.3111415" lon="10.403322"><ele>1515.142857142857</ele><time>2026-04-26T08:13:14.637Z</time></trkpt><trkpt lat="44.3110928" lon="10.4033779"><ele>1517.0</ele><time>2026-04-26T08:13:20.639Z</time></trkpt><trkpt lat="44.3110204" lon="10.4033985"><ele>1517.0</ele><time>2026-04-26T08:13:27.639Z</time></trkpt><trkpt lat="44.3109331" lon="10.4033475"><ele>1517.0</ele><time>2026-04-26T08:13:34.062Z</time></trkpt><trkpt lat="44.3109339" lon="10.4034428"><ele>1517.0</ele><time>2026-04-26T08:13:41.636Z</time></trkpt><trkpt lat="44.3108652" lon="10.4034654"><ele>1517.0</ele><time>2026-04-26T08:13:46.635Z</time></trkpt><trkpt lat="44.3108016" lon="10.4034854"><ele>1517.0</ele><time>2026-04-26T08:13:51.636Z</time></trkpt><trkpt lat="44.310731" lon="10.4034876"><ele>1517.0</ele><time>2026-04-26T08:13:58.638Z</time></trkpt><trkpt lat="44.3106632" lon="10.4034777"><ele>1517.0</ele><time>2026-04-26T08:14:06.637Z</time></trkpt><trkpt lat="44.3105979" lon="10.4034524"><ele>1518.142857142857</ele><time>2026-04-26T08:14:13.635Z</time></trkpt><trkpt lat="44.3105373" lon="10.4034102"><ele>1519.2857142857144</ele><time>2026-04-26T08:14:21.635Z</time></trkpt><trkpt lat="44.3104828" lon="10.40334"><ele>1520.4285714285716</ele><time>2026-04-26T08:14:28.636Z</time></trkpt><trkpt lat="44.3104371" lon="10.4032677"><ele>1521.5714285714284</ele><time>2026-04-26T08:14:36.635Z</time></trkpt><trkpt lat="44.3103942" lon="10.403193"><ele>1522.7142857142858</ele><time>2026-04-26T08:14:44.635Z</time></trkpt><trkpt lat="44.3103715" lon="10.4031055"><ele>1523.857142857143</ele><time>2026-04-26T08:14:54.634Z</time></trkpt><trkpt lat="44.3103833" lon="10.403015"><ele>1525.0</ele><time>2026-04-26T08:15:03.64Z</time></trkpt><trkpt lat="44.3104275" lon="10.4029394"><ele>1526.0</ele><time>2026-04-26T08:15:12.634Z</time></trkpt><trkpt lat="44.3104887" lon="10.4029043"><ele>1527.0</ele><time>2026-04-26T08:15:21.637Z</time></trkpt><trkpt lat="44.3105786" lon="10.4028703"><ele>1528.0</ele><time>2026-04-26T08:15:33.638Z</time></trkpt><trkpt lat="44.3106105" lon="10.4027894"><ele>1529.0</ele><time>2026-04-26T08:15:41.636Z</time></trkpt><trkpt lat="44.3106196" lon="10.402698"><ele>1530.0</ele><time>2026-04-26T08:15:48.639Z</time></trkpt><trkpt lat="44.3106409" lon="10.4026101"><ele>1531.0</ele><time>2026-04-26T08:15:54.656Z</time></trkpt><trkpt lat="44.3106605" lon="10.4025175"><ele>1532.0</ele><time>2026-04-26T08:16:04.637Z</time></trkpt><trkpt lat="44.3106703" lon="10.4024207"><ele>1532.0</ele><time>2026-04-26T08:16:13.639Z</time></trkpt><trkpt lat="44.3106709" lon="10.4023284"><ele>1532.0</ele><time>2026-04-26T08:16:20.648Z</time></trkpt><trkpt lat="44.3107001" lon="10.402245"><ele>1532.0</ele><time>2026-04-26T08:16:27.641Z</time></trkpt><trkpt lat="44.3107372" lon="10.4021647"><ele>1532.0</ele><time>2026-04-26T08:16:35.655Z</time></trkpt><trkpt lat="44.3107649" lon="10.4020776"><ele>1532.0</ele><time>2026-04-26T08:16:42.639Z</time></trkpt><trkpt lat="44.3107881" lon="10.4019873"><ele>1532.0</ele><time>2026-04-26T08:16:48.637Z</time></trkpt><trkpt lat="44.3107981" lon="10.4018901"><ele>1532.0</ele><time>2026-04-26T08:16:54.638Z</time></trkpt><trkpt lat="44.3108067" lon="10.4017956"><ele>1533.142857142857</ele><time>2026-04-26T08:17:02.639Z</time></trkpt><trkpt lat="44.3107879" lon="10.4017093"><ele>1534.2857142857142</ele><time>2026-04-26T08:17:08.649Z</time></trkpt><trkpt lat="44.3107956" lon="10.4016128"><ele>1535.4285714285716</ele><time>2026-04-26T08:17:16.646Z</time></trkpt><trkpt lat="44.3108281" lon="10.4015226"><ele>1536.5714285714284</ele><time>2026-04-26T08:17:23.636Z</time></trkpt><trkpt lat="44.3108495" lon="10.4014331"><ele>1537.7142857142858</ele><time>2026-04-26T08:17:31.638Z</time></trkpt><trkpt lat="44.3108815" lon="10.4013562"><ele>1538.857142857143</ele><time>2026-04-26T08:17:38.638Z</time></trkpt><trkpt lat="44.3109244" lon="10.4012813"><ele>1540.0</ele><time>2026-04-26T08:17:45.638Z</time></trkpt><trkpt lat="44.3109694" lon="10.4012061"><ele>1541.6</ele><time>2026-04-26T08:17:52.663Z</time></trkpt><trkpt lat="44.3110188" lon="10.4011279"><ele>1543.2</ele><time>2026-04-26T08:17:59.641Z</time></trkpt><trkpt lat="44.3110579" lon="10.4010531"><ele>1544.8000000000002</ele><time>2026-04-26T08:18:07.643Z</time></trkpt><trkpt lat="44.3110908" lon="10.400977"><ele>1546.4</ele><time>2026-04-26T08:18:19.638Z</time></trkpt><trkpt lat="44.311131" lon="10.4009006"><ele>1548.0</ele><time>2026-04-26T08:18:27.637Z</time></trkpt><trkpt lat="44.3116573" lon="10.3999745"><ele>1548.0</ele><time>2026-04-26T08:22:30.635Z</time></trkpt><trkpt lat="44.3116629" lon="10.3998825"><ele>1548.0</ele><time>2026-04-26T08:22:40.635Z</time></trkpt><trkpt lat="44.3116405" lon="10.3997851"><ele>1548.0</ele><time>2026-04-26T08:22:50.635Z</time></trkpt><trkpt lat="44.311672" lon="10.3996425"><ele>1548.0</ele><time>2026-04-26T08:23:12.634Z</time></trkpt><trkpt lat="44.3116559" lon="10.399549"><ele>1548.0</ele><time>2026-04-26T08:23:19.638Z</time></trkpt><trkpt lat="44.3116683" lon="10.3994581"><ele>1548.0</ele><time>2026-04-26T08:23:24.639Z</time></trkpt><trkpt lat="44.3116754" lon="10.3993699"><ele>1548.0</ele><time>2026-04-26T08:23:31.639Z</time></trkpt><trkpt lat="44.3117013" lon="10.3992874"><ele>1547.2857142857142</ele><time>2026-04-26T08:23:39.639Z</time></trkpt><trkpt lat="44.3117215" lon="10.3991913"><ele>1546.5714285714287</ele><time>2026-04-26T08:23:47.638Z</time></trkpt><trkpt lat="44.3117286" lon="10.3990966"><ele>1545.8571428571427</ele><time>2026-04-26T08:23:54.639Z</time></trkpt><trkpt lat="44.311715" lon="10.3990009"><ele>1545.142857142857</ele><time>2026-04-26T08:24:00.639Z</time></trkpt><trkpt lat="44.3116855" lon="10.3989127"><ele>1544.4285714285713</ele><time>2026-04-26T08:24:05.638Z</time></trkpt><trkpt lat="44.3116492" lon="10.398829"><ele>1543.7142857142856</ele><time>2026-04-26T08:24:12.637Z</time></trkpt><trkpt lat="44.3116114" lon="10.3987392"><ele>1543.0</ele><time>2026-04-26T08:24:17.638Z</time></trkpt><trkpt lat="44.3115695" lon="10.3986419"><ele>1544.142857142857</ele><time>2026-04-26T08:24:22.645Z</time></trkpt><trkpt lat="44.3115157" lon="10.398592"><ele>1545.2857142857142</ele><time>2026-04-26T08:24:28.645Z</time></trkpt><trkpt lat="44.3114857" lon="10.3984915"><ele>1546.4285714285716</ele><time>2026-04-26T08:24:35.635Z</time></trkpt><trkpt lat="44.3114339" lon="10.398429"><ele>1547.5714285714284</ele><time>2026-04-26T08:24:41.636Z</time></trkpt><trkpt lat="44.3113872" lon="10.3984931"><ele>1548.7142857142858</ele><time>2026-04-26T08:25:05.641Z</time></trkpt><trkpt lat="44.3113204" lon="10.3985103"><ele>1549.857142857143</ele><time>2026-04-26T08:25:13.644Z</time></trkpt><trkpt lat="44.3112747" lon="10.3984484"><ele>1551.0</ele><time>2026-04-26T08:25:21.683Z</time></trkpt><trkpt lat="44.3112118" lon="10.3984297"><ele>1551.0000000000002</ele><time>2026-04-26T08:25:30.717Z</time></trkpt><trkpt lat="44.3111556" lon="10.3983852"><ele>1551.0</ele><time>2026-04-26T08:25:48.639Z</time></trkpt><trkpt lat="44.3111012" lon="10.3983345"><ele>1551.0</ele><time>2026-04-26T08:26:38.639Z</time></trkpt><trkpt lat="44.3111328" lon="10.3982071"><ele>1551.0</ele><time>2026-04-26T08:27:19.64Z</time></trkpt><trkpt lat="44.3111733" lon="10.3981369"><ele>1551.0</ele><time>2026-04-26T08:27:27.639Z</time></trkpt><trkpt lat="44.3112027" lon="10.3980574"><ele>1551.0000000000002</ele><time>2026-04-26T08:27:35.639Z</time></trkpt><trkpt lat="44.3111489" lon="10.3979989"><ele>1551.0</ele><time>2026-04-26T08:27:41.64Z</time></trkpt><trkpt lat="44.3111195" lon="10.3979159"><ele>1551.8</ele><time>2026-04-26T08:27:53.638Z</time></trkpt><trkpt lat="44.3110684" lon="10.3978556"><ele>1552.6</ele><time>2026-04-26T08:28:03.638Z</time></trkpt><trkpt lat="44.3110428" lon="10.3977719"><ele>1553.4</ele><time>2026-04-26T08:28:09.639Z</time></trkpt><trkpt lat="44.3110006" lon="10.3976993"><ele>1554.2</ele><time>2026-04-26T08:28:19.651Z</time></trkpt><trkpt lat="44.3108053" lon="10.3977064"><ele>1555.0</ele><time>2026-04-26T08:30:19.634Z</time></trkpt><trkpt lat="44.310833" lon="10.3975963"><ele>1555.0000000000002</ele><time>2026-04-26T08:30:24.639Z</time></trkpt><trkpt lat="44.3109219" lon="10.397578"><ele>1555.0</ele><time>2026-04-26T08:30:27.634Z</time></trkpt><trkpt lat="44.3108009" lon="10.3974724"><ele>1555.0</ele><time>2026-04-26T08:30:45.637Z</time></trkpt><trkpt lat="44.3107559" lon="10.3974041"><ele>1555.0</ele><time>2026-04-26T08:30:52.639Z</time></trkpt><trkpt lat="44.3107328" lon="10.3973177"><ele>1555.0000000000002</ele><time>2026-04-26T08:30:59.637Z</time></trkpt><trkpt lat="44.3107317" lon="10.3972271"><ele>1555.0</ele><time>2026-04-26T08:31:08.638Z</time></trkpt><trkpt lat="44.3107723" lon="10.3971481"><ele>1556.857142857143</ele><time>2026-04-26T08:31:15.638Z</time></trkpt><trkpt lat="44.310798" lon="10.3970569"><ele>1558.7142857142858</ele><time>2026-04-26T08:31:23.637Z</time></trkpt><trkpt lat="44.3108375" lon="10.3969791"><ele>1560.5714285714284</ele><time>2026-04-26T08:31:31.637Z</time></trkpt><trkpt lat="44.3108812" lon="10.3969038"><ele>1562.4285714285716</ele><time>2026-04-26T08:31:39.637Z</time></trkpt><trkpt lat="44.310929" lon="10.3968465"><ele>1564.2857142857142</ele><time>2026-04-26T08:31:50.639Z</time></trkpt><trkpt lat="44.3109497" lon="10.3967554"><ele>1566.142857142857</ele><time>2026-04-26T08:31:59.638Z</time></trkpt><trkpt lat="44.3109901" lon="10.3966737"><ele>1568.0</ele><time>2026-04-26T08:32:07.64Z</time></trkpt><trkpt lat="44.3110274" lon="10.3965871"><ele>1568.0</ele><time>2026-04-26T08:32:13.637Z</time></trkpt><trkpt lat="44.3110508" lon="10.3965031"><ele>1568.0</ele><time>2026-04-26T08:32:22.639Z</time></trkpt><trkpt lat="44.3110791" lon="10.3964099"><ele>1568.0</ele><time>2026-04-26T08:32:29.65Z</time></trkpt><trkpt lat="44.3111247" lon="10.3963473"><ele>1568.0</ele><time>2026-04-26T08:32:38.639Z</time></trkpt><trkpt lat="44.3111777" lon="10.3962911"><ele>1568.0</ele><time>2026-04-26T08:32:45.665Z</time></trkpt><trkpt lat="44.3112106" lon="10.3962103"><ele>1568.0</ele><time>2026-04-26T08:32:53.639Z</time></trkpt><trkpt lat="44.3112209" lon="10.3961185"><ele>1568.0</ele><time>2026-04-26T08:33:02.64Z</time></trkpt><trkpt lat="44.3112625" lon="10.3960422"><ele>1566.5714285714287</ele><time>2026-04-26T08:33:10.639Z</time></trkpt><trkpt lat="44.3113159" lon="10.3959898"><ele>1565.142857142857</ele><time>2026-04-26T08:33:17.64Z</time></trkpt><trkpt lat="44.3113773" lon="10.3959359"><ele>1563.7142857142858</ele><time>2026-04-26T08:33:23.64Z</time></trkpt><trkpt lat="44.3114245" lon="10.3958608"><ele>1562.2857142857142</ele><time>2026-04-26T08:33:30.677Z</time></trkpt><trkpt lat="44.311453" lon="10.3957674"><ele>1560.857142857143</ele><time>2026-04-26T08:33:39.637Z</time></trkpt><trkpt lat="44.3114845" lon="10.3956893"><ele>1559.4285714285716</ele><time>2026-04-26T08:33:46.65Z</time></trkpt><trkpt lat="44.3114971" lon="10.3956004"><ele>1558.0</ele><time>2026-04-26T08:33:55.654Z</time></trkpt><trkpt lat="44.3115135" lon="10.3955107"><ele>1557.3333333333335</ele><time>2026-04-26T08:34:04.681Z</time></trkpt><trkpt lat="44.3115591" lon="10.3954435"><ele>1556.6666666666667</ele><time>2026-04-26T08:34:12.637Z</time></trkpt><trkpt lat="44.3115808" lon="10.395357"><ele>1556.0</ele><time>2026-04-26T08:34:22.638Z</time></trkpt><trkpt lat="44.3115473" lon="10.3952813"><ele>1555.3333333333335</ele><time>2026-04-26T08:34:31.661Z</time></trkpt><trkpt lat="44.3114863" lon="10.395237"><ele>1554.6666666666667</ele><time>2026-04-26T08:34:39.666Z</time></trkpt><trkpt lat="44.311375" lon="10.39516"><ele>1554.0</ele><time>2026-04-26T08:35:08.637Z</time></trkpt><trkpt lat="44.3113252" lon="10.3950891"><ele>1555.857142857143</ele><time>2026-04-26T08:35:14.654Z</time></trkpt><trkpt lat="44.3112823" lon="10.3950143"><ele>1557.7142857142858</ele><time>2026-04-26T08:35:18.659Z</time></trkpt><trkpt lat="44.3112269" lon="10.394954"><ele>1559.5714285714284</ele><time>2026-04-26T08:35:23.638Z</time></trkpt><trkpt lat="44.3111647" lon="10.3949218"><ele>1561.4285714285716</ele><time>2026-04-26T08:35:29.658Z</time></trkpt><trkpt lat="44.3110955" lon="10.3948931"><ele>1563.2857142857142</ele><time>2026-04-26T08:35:35.638Z</time></trkpt><trkpt lat="44.3110332" lon="10.3948715"><ele>1565.142857142857</ele><time>2026-04-26T08:35:41.637Z</time></trkpt><trkpt lat="44.3109734" lon="10.394899"><ele>1567.0</ele><time>2026-04-26T08:35:49.637Z</time></trkpt><trkpt lat="44.3109028" lon="10.3949139"><ele>1567.0</ele><time>2026-04-26T08:35:56.638Z</time></trkpt><trkpt lat="44.3108356" lon="10.394934"><ele>1567.0</ele><time>2026-04-26T08:36:04.651Z</time></trkpt><trkpt lat="44.3107701" lon="10.3949103"><ele>1567.0</ele><time>2026-04-26T08:36:11.636Z</time></trkpt><trkpt lat="44.3107103" lon="10.3948778"><ele>1567.0</ele><time>2026-04-26T08:36:18.638Z</time></trkpt><trkpt lat="44.310641" lon="10.3948622"><ele>1567.0</ele><time>2026-04-26T08:36:28.638Z</time></trkpt><trkpt lat="44.31057" lon="10.3948667"><ele>1567.0</ele><time>2026-04-26T08:36:35.639Z</time></trkpt><trkpt lat="44.3105294" lon="10.3947957"><ele>1567.0</ele><time>2026-04-26T08:36:45.661Z</time></trkpt><trkpt lat="44.3104593" lon="10.3948254"><ele>1568.7142857142858</ele><time>2026-04-26T08:37:14.638Z</time></trkpt><trkpt lat="44.3103587" lon="10.3947835"><ele>1570.4285714285713</ele><time>2026-04-26T08:37:26.648Z</time></trkpt><trkpt lat="44.3102966" lon="10.3947671"><ele>1572.1428571428573</ele><time>2026-04-26T08:37:32.638Z</time></trkpt><trkpt lat="44.3102283" lon="10.3947522"><ele>1573.857142857143</ele><time>2026-04-26T08:37:38.638Z</time></trkpt><trkpt lat="44.3101675" lon="10.3947046"><ele>1575.5714285714287</ele><time>2026-04-26T08:37:44.64Z</time></trkpt><trkpt lat="44.3101081" lon="10.3946688"><ele>1577.2857142857144</ele><time>2026-04-26T08:37:50.654Z</time></trkpt><trkpt lat="44.3100398" lon="10.3946366"><ele>1579.0</ele><time>2026-04-26T08:37:57.637Z</time></trkpt><trkpt lat="44.3099702" lon="10.3946545"><ele>1575.1428571428573</ele><time>2026-04-26T08:38:04.639Z</time></trkpt><trkpt lat="44.3099896" lon="10.3945696"><ele>1571.2857142857142</ele><time>2026-04-26T08:38:20.639Z</time></trkpt><trkpt lat="44.310003" lon="10.3944744"><ele>1567.4285714285716</ele><time>2026-04-26T08:38:27.639Z</time></trkpt><trkpt lat="44.3099696" lon="10.3943989"><ele>1563.5714285714287</ele><time>2026-04-26T08:38:33.639Z</time></trkpt><trkpt lat="44.3099225" lon="10.3943238"><ele>1559.7142857142858</ele><time>2026-04-26T08:38:39.675Z</time></trkpt><trkpt lat="44.3098591" lon="10.3942807"><ele>1555.857142857143</ele><time>2026-04-26T08:38:46.637Z</time></trkpt><trkpt lat="44.3098094" lon="10.3942191"><ele>1552.0</ele><time>2026-04-26T08:38:51.667Z</time></trkpt><trkpt lat="44.309778" lon="10.3941316"><ele>1552.0</ele><time>2026-04-26T08:38:59.647Z</time></trkpt><trkpt lat="44.309757" lon="10.3940444"><ele>1552.0</ele><time>2026-04-26T08:39:03.654Z</time></trkpt><trkpt lat="44.3097085" lon="10.3939872"><ele>1552.0</ele><time>2026-04-26T08:39:13.687Z</time></trkpt><trkpt lat="44.3096409" lon="10.3940082"><ele>1552.0</ele><time>2026-04-26T08:39:51.641Z</time></trkpt><trkpt lat="44.3096063" lon="10.3938838"><ele>1552.0</ele><time>2026-04-26T08:40:38.649Z</time></trkpt><trkpt lat="44.309619" lon="10.3937894"><ele>1552.0</ele><time>2026-04-26T08:40:43.638Z</time></trkpt><trkpt lat="44.3095792" lon="10.3937065"><ele>1552.0</ele><time>2026-04-26T08:41:39.637Z</time></trkpt><trkpt lat="44.3095221" lon="10.3937511"><ele>1552.0</ele><time>2026-04-26T08:42:02.635Z</time></trkpt><trkpt lat="44.3095076" lon="10.3938517"><ele>1552.0</ele><time>2026-04-26T08:42:52.638Z</time></trkpt><trkpt lat="44.3095081" lon="10.3939512"><ele>1552.0</ele><time>2026-04-26T08:42:57.672Z</time></trkpt><trkpt lat="44.3096059" lon="10.3939654"><ele>1552.0</ele><time>2026-04-26T08:43:21.639Z</time></trkpt><trkpt lat="44.3096522" lon="10.3938884"><ele>1552.0</ele><time>2026-04-26T08:43:27.662Z</time></trkpt><trkpt lat="44.309713" lon="10.393847"><ele>1552.0</ele><time>2026-04-26T08:43:33.647Z</time></trkpt><trkpt lat="44.3097567" lon="10.3937819"><ele>1552.0</ele><time>2026-04-26T08:43:45.661Z</time></trkpt><trkpt lat="44.3098133" lon="10.3937203"><ele>1552.0</ele><time>2026-04-26T08:44:05.638Z</time></trkpt><trkpt lat="44.3098559" lon="10.3936448"><ele>1552.0</ele><time>2026-04-26T08:44:13.637Z</time></trkpt><trkpt lat="44.3098911" lon="10.3935558"><ele>1552.0</ele><time>2026-04-26T08:44:20.639Z</time></trkpt><trkpt lat="44.3099338" lon="10.3934894"><ele>1552.0</ele><time>2026-04-26T08:44:25.649Z</time></trkpt><trkpt lat="44.3099872" lon="10.3934365"><ele>1552.0</ele><time>2026-04-26T08:44:33.636Z</time></trkpt><trkpt lat="44.3100494" lon="10.3933793"><ele>1552.0</ele><time>2026-04-26T08:44:39.641Z</time></trkpt><trkpt lat="44.3101017" lon="10.3933086"><ele>1552.0</ele><time>2026-04-26T08:44:45.637Z</time></trkpt><trkpt lat="44.3101484" lon="10.3932472"><ele>1552.0</ele><time>2026-04-26T08:44:50.639Z</time></trkpt><trkpt lat="44.3102114" lon="10.3932121"><ele>1552.0</ele><time>2026-04-26T08:44:55.652Z</time></trkpt><trkpt lat="44.3102653" lon="10.3931466"><ele>1552.0</ele><time>2026-04-26T08:45:03.638Z</time></trkpt><trkpt lat="44.3103199" lon="10.3930817"><ele>1552.0</ele><time>2026-04-26T08:45:10.639Z</time></trkpt><trkpt lat="44.3103564" lon="10.3929966"><ele>1552.0</ele><time>2026-04-26T08:45:15.635Z</time></trkpt><trkpt lat="44.3103905" lon="10.3929021"><ele>1552.0</ele><time>2026-04-26T08:45:19.638Z</time></trkpt><trkpt lat="44.3104116" lon="10.3928077"><ele>1552.0</ele><time>2026-04-26T08:45:25.647Z</time></trkpt><trkpt lat="44.3104374" lon="10.3927103"><ele>1553.0</ele><time>2026-04-26T08:45:31.653Z</time></trkpt><trkpt lat="44.310464" lon="10.3926179"><ele>1554.0</ele><time>2026-04-26T08:45:38.676Z</time></trkpt><trkpt lat="44.3104738" lon="10.3925288"><ele>1555.0</ele><time>2026-04-26T08:45:45.657Z</time></trkpt><trkpt lat="44.3104784" lon="10.3924385"><ele>1556.0</ele><time>2026-04-26T08:45:50.638Z</time></trkpt><trkpt lat="44.3104894" lon="10.3923333"><ele>1557.0</ele><time>2026-04-26T08:45:56.658Z</time></trkpt><trkpt lat="44.3104823" lon="10.392242"><ele>1558.0</ele><time>2026-04-26T08:46:04.642Z</time></trkpt><trkpt lat="44.3104412" lon="10.39217"><ele>1559.0</ele><time>2026-04-26T08:46:11.639Z</time></trkpt><trkpt lat="44.3104011" lon="10.3920902"><ele>1559.0</ele><time>2026-04-26T08:46:19.638Z</time></trkpt><trkpt lat="44.3103683" lon="10.3920019"><ele>1559.0</ele><time>2026-04-26T08:46:27.666Z</time></trkpt><trkpt lat="44.3103268" lon="10.3919297"><ele>1559.0</ele><time>2026-04-26T08:46:33.647Z</time></trkpt><trkpt lat="44.3102625" lon="10.3918883"><ele>1559.0</ele><time>2026-04-26T08:46:42.659Z</time></trkpt><trkpt lat="44.3102288" lon="10.3918057"><ele>1559.0</ele><time>2026-04-26T08:46:49.64Z</time></trkpt><trkpt lat="44.3102085" lon="10.391722"><ele>1559.0</ele><time>2026-04-26T08:46:56.638Z</time></trkpt><trkpt lat="44.3102111" lon="10.391624"><ele>1559.0</ele><time>2026-04-26T08:47:04.644Z</time></trkpt><trkpt lat="44.3102025" lon="10.3915276"><ele>1559.0</ele><time>2026-04-26T08:47:12.639Z</time></trkpt><trkpt lat="44.3101906" lon="10.3914397"><ele>1559.0</ele><time>2026-04-26T08:47:17.642Z</time></trkpt><trkpt lat="44.3102108" lon="10.3913478"><ele>1559.0</ele><time>2026-04-26T08:47:25.638Z</time></trkpt><trkpt lat="44.3102317" lon="10.3912604"><ele>1559.0</ele><time>2026-04-26T08:47:32.639Z</time></trkpt><trkpt lat="44.3102516" lon="10.3911768"><ele>1559.0</ele><time>2026-04-26T08:47:39.642Z</time></trkpt><trkpt lat="44.3102645" lon="10.3910862"><ele>1559.0</ele><time>2026-04-26T08:47:46.639Z</time></trkpt><trkpt lat="44.3102825" lon="10.3909988"><ele>1559.0</ele><time>2026-04-26T08:47:56.641Z</time></trkpt><trkpt lat="44.3102993" lon="10.3909126"><ele>1560.142857142857</ele><time>2026-04-26T08:48:03.663Z</time></trkpt><trkpt lat="44.3103233" lon="10.3908179"><ele>1561.2857142857144</ele><time>2026-04-26T08:48:11.666Z</time></trkpt><trkpt lat="44.3103481" lon="10.3907235"><ele>1562.4285714285716</ele><time>2026-04-26T08:48:20.639Z</time></trkpt><trkpt lat="44.310379" lon="10.3906379"><ele>1563.5714285714284</ele><time>2026-04-26T08:48:26.638Z</time></trkpt><trkpt lat="44.3103831" lon="10.3905364"><ele>1564.7142857142858</ele><time>2026-04-26T08:48:32.638Z</time></trkpt><trkpt lat="44.3104029" lon="10.3904486"><ele>1565.857142857143</ele><time>2026-04-26T08:48:39.659Z</time></trkpt><trkpt lat="44.3104078" lon="10.3903599"><ele>1567.0</ele><time>2026-04-26T08:48:46.638Z</time></trkpt><trkpt lat="44.3104449" lon="10.3902808"><ele>1567.7142857142858</ele><time>2026-04-26T08:48:53.65Z</time></trkpt><trkpt lat="44.3104969" lon="10.3902206"><ele>1568.4285714285713</ele><time>2026-04-26T08:49:00.656Z</time></trkpt><trkpt lat="44.3105287" lon="10.3901436"><ele>1569.1428571428573</ele><time>2026-04-26T08:49:08.637Z</time></trkpt><trkpt lat="44.3105385" lon="10.3900545"><ele>1569.857142857143</ele><time>2026-04-26T08:49:15.647Z</time></trkpt><trkpt lat="44.3105271" lon="10.3899573"><ele>1570.5714285714287</ele><time>2026-04-26T08:49:23.641Z</time></trkpt><trkpt lat="44.3105096" lon="10.3898724"><ele>1571.2857142857144</ele><time>2026-04-26T08:49:29.639Z</time></trkpt><trkpt lat="44.3104862" lon="10.3897845"><ele>1572.0</ele><time>2026-04-26T08:49:35.639Z</time></trkpt><trkpt lat="44.3104518" lon="10.389703"><ele>1571.0000000000002</ele><time>2026-04-26T08:49:40.639Z</time></trkpt><trkpt lat="44.3104221" lon="10.3896229"><ele>1570.0</ele><time>2026-04-26T08:49:51.685Z</time></trkpt><trkpt lat="44.3104205" lon="10.3895264"><ele>1569.0</ele><time>2026-04-26T08:50:01.638Z</time></trkpt><trkpt lat="44.3104023" lon="10.3894365"><ele>1568.0</ele><time>2026-04-26T08:50:04.637Z</time></trkpt><trkpt lat="44.3103671" lon="10.3893452"><ele>1567.0</ele><time>2026-04-26T08:50:10.644Z</time></trkpt><trkpt lat="44.3103189" lon="10.3892482"><ele>1566.0000000000002</ele><time>2026-04-26T08:50:15.638Z</time></trkpt><trkpt lat="44.3102937" lon="10.389159"><ele>1565.0</ele><time>2026-04-26T08:50:21.635Z</time></trkpt><trkpt lat="44.310273" lon="10.3890659"><ele>1565.0</ele><time>2026-04-26T08:50:28.651Z</time></trkpt><trkpt lat="44.3102525" lon="10.3889747"><ele>1565.0</ele><time>2026-04-26T08:50:36.639Z</time></trkpt><trkpt lat="44.3102367" lon="10.388875"><ele>1565.0</ele><time>2026-04-26T08:50:42.639Z</time></trkpt><trkpt lat="44.3102269" lon="10.3887821"><ele>1560.0</ele><time>2026-04-26T08:50:47.64Z</time></trkpt><trkpt lat="44.3102218" lon="10.3886853"><ele>1560.0</ele><time>2026-04-26T08:50:52.65Z</time></trkpt><trkpt lat="44.310227" lon="10.3885968"><ele>1560.0</ele><time>2026-04-26T08:50:55.654Z</time></trkpt></trkseg><trkseg><trkpt lat="44.3088159" lon="10.3782153"><ele>1585.9999999999998</ele><time>2026-04-26T09:07:01.635Z</time></trkpt><trkpt lat="44.3087999" lon="10.3783092"><ele>1586.0</ele><time>2026-04-26T09:07:06.638Z</time></trkpt><trkpt lat="44.3087322" lon="10.3783281"><ele>1586.0</ele><time>2026-04-26T09:07:25.638Z</time></trkpt><trkpt lat="44.308689" lon="10.3784074"><ele>1586.0</ele><time>2026-04-26T09:07:36.644Z</time></trkpt><trkpt lat="44.3086436" lon="10.3785616"><ele>1585.9999999999998</ele><time>2026-04-26T09:08:19.638Z</time></trkpt><trkpt lat="44.3085813" lon="10.3785765"><ele>1586.0</ele><time>2026-04-26T09:08:24.638Z</time></trkpt><trkpt lat="44.3086061" lon="10.3784844"><ele>1585.9999999999998</ele><time>2026-04-26T09:08:30.638Z</time></trkpt><trkpt lat="44.3086272" lon="10.3783959"><ele>1586.0</ele><time>2026-04-26T09:08:39.641Z</time></trkpt><trkpt lat="44.3086143" lon="10.3783073"><ele>1586.0</ele><time>2026-04-26T09:09:07.639Z</time></trkpt><trkpt lat="44.3085972" lon="10.3782155"><ele>1586.0</ele><time>2026-04-26T09:09:14.639Z</time></trkpt><trkpt lat="44.3085427" lon="10.3781552"><ele>1585.9999999999998</ele><time>2026-04-26T09:09:23.661Z</time></trkpt><trkpt lat="44.3084688" lon="10.3780044"><ele>1586.0</ele><time>2026-04-26T09:09:43.639Z</time></trkpt><trkpt lat="44.3084466" lon="10.3779212"><ele>1584.5714285714287</ele><time>2026-04-26T09:09:53.638Z</time></trkpt><trkpt lat="44.3084026" lon="10.3778568"><ele>1583.142857142857</ele><time>2026-04-26T09:10:03.638Z</time></trkpt><trkpt lat="44.308371" lon="10.3777798"><ele>1581.7142857142858</ele><time>2026-04-26T09:10:12.685Z</time></trkpt><trkpt lat="44.3083187" lon="10.3777233"><ele>1580.2857142857142</ele><time>2026-04-26T09:10:22.637Z</time></trkpt><trkpt lat="44.3082903" lon="10.377642"><ele>1578.857142857143</ele><time>2026-04-26T09:10:32.637Z</time></trkpt><trkpt lat="44.3082434" lon="10.3775684"><ele>1577.4285714285716</ele><time>2026-04-26T09:10:42.655Z</time></trkpt><trkpt lat="44.3082145" lon="10.3774816"><ele>1576.0</ele><time>2026-04-26T09:10:52.638Z</time></trkpt><trkpt lat="44.3081612" lon="10.3774221"><ele>1576.0</ele><time>2026-04-26T09:11:00.646Z</time></trkpt><trkpt lat="44.3081058" lon="10.3773738"><ele>1576.0</ele><time>2026-04-26T09:11:07.656Z</time></trkpt><trkpt lat="44.3080432" lon="10.3773526"><ele>1576.0</ele><time>2026-04-26T09:11:15.638Z</time></trkpt><trkpt lat="44.3080062" lon="10.3772768"><ele>1576.0</ele><time>2026-04-26T09:11:26.637Z</time></trkpt><trkpt lat="44.3079544" lon="10.377183"><ele>1576.0</ele><time>2026-04-26T09:11:42.674Z</time></trkpt><trkpt lat="44.3079078" lon="10.3771216"><ele>1576.0</ele><time>2026-04-26T09:11:47.661Z</time></trkpt><trkpt lat="44.3078497" lon="10.3770728"><ele>1576.0</ele><time>2026-04-26T09:11:55.638Z</time></trkpt><trkpt lat="44.307785" lon="10.3770272"><ele>1578.4285714285716</ele><time>2026-04-26T09:12:02.636Z</time></trkpt><trkpt lat="44.3077207" lon="10.3769705"><ele>1580.857142857143</ele><time>2026-04-26T09:12:07.635Z</time></trkpt><trkpt lat="44.3076722" lon="10.3769033"><ele>1583.2857142857142</ele><time>2026-04-26T09:12:11.635Z</time></trkpt><trkpt lat="44.3076241" lon="10.3768417"><ele>1585.7142857142858</ele><time>2026-04-26T09:12:16.637Z</time></trkpt><trkpt lat="44.3075647" lon="10.3768016"><ele>1588.142857142857</ele><time>2026-04-26T09:12:25.635Z</time></trkpt><trkpt lat="44.3075144" lon="10.3767295"><ele>1590.5714285714287</ele><time>2026-04-26T09:12:32.638Z</time></trkpt><trkpt lat="44.3074584" lon="10.3766722"><ele>1593.0</ele><time>2026-04-26T09:12:39.645Z</time></trkpt><trkpt lat="44.307398" lon="10.3766443"><ele>1593.0000000000002</ele><time>2026-04-26T09:12:48.638Z</time></trkpt><trkpt lat="44.3073372" lon="10.3766048"><ele>1593.0</ele><time>2026-04-26T09:12:55.652Z</time></trkpt><trkpt lat="44.3072757" lon="10.3765645"><ele>1593.0</ele><time>2026-04-26T09:13:03.64Z</time></trkpt><trkpt lat="44.3072181" lon="10.3765253"><ele>1593.0</ele><time>2026-04-26T09:13:08.639Z</time></trkpt><trkpt lat="44.3071634" lon="10.3764802"><ele>1593.0</ele><time>2026-04-26T09:13:19.661Z</time></trkpt><trkpt lat="44.3070653" lon="10.3764072"><ele>1593.0000000000002</ele><time>2026-04-26T09:13:28.638Z</time></trkpt><trkpt lat="44.307001" lon="10.3763815"><ele>1593.0</ele><time>2026-04-26T09:13:36.65Z</time></trkpt><trkpt lat="44.3069315" lon="10.3763668"><ele>1593.1428571428573</ele><time>2026-04-26T09:13:44.645Z</time></trkpt><trkpt lat="44.3068578" lon="10.3763527"><ele>1593.2857142857142</ele><time>2026-04-26T09:13:51.637Z</time></trkpt><trkpt lat="44.3067886" lon="10.3763217"><ele>1593.4285714285716</ele><time>2026-04-26T09:13:58.668Z</time></trkpt><trkpt lat="44.306725" lon="10.3762923"><ele>1593.5714285714287</ele><time>2026-04-26T09:14:06.669Z</time></trkpt><trkpt lat="44.3066637" lon="10.3762609"><ele>1593.7142857142858</ele><time>2026-04-26T09:14:14.654Z</time></trkpt><trkpt lat="44.3065984" lon="10.3762439"><ele>1593.857142857143</ele><time>2026-04-26T09:14:24.686Z</time></trkpt><trkpt lat="44.3065401" lon="10.3762075"><ele>1594.0</ele><time>2026-04-26T09:14:32.637Z</time></trkpt><trkpt lat="44.3064785" lon="10.3761702"><ele>1594.0</ele><time>2026-04-26T09:14:38.638Z</time></trkpt><trkpt lat="44.3064172" lon="10.3761499"><ele>1594.0</ele><time>2026-04-26T09:14:44.637Z</time></trkpt><trkpt lat="44.3063511" lon="10.3761306"><ele>1594.0</ele><time>2026-04-26T09:14:52.638Z</time></trkpt><trkpt lat="44.3062773" lon="10.3761278"><ele>1594.0</ele><time>2026-04-26T09:15:01.639Z</time></trkpt><trkpt lat="44.3062142" lon="10.3761538"><ele>1594.0</ele><time>2026-04-26T09:15:07.639Z</time></trkpt><trkpt lat="44.306152" lon="10.376196"><ele>1594.0</ele><time>2026-04-26T09:15:13.637Z</time></trkpt><trkpt lat="44.306084" lon="10.376201"><ele>1594.0</ele><time>2026-04-26T09:15:22.64Z</time></trkpt><trkpt lat="44.3060148" lon="10.3762207"><ele>1596.857142857143</ele><time>2026-04-26T09:15:30.668Z</time></trkpt><trkpt lat="44.3059543" lon="10.3762524"><ele>1599.7142857142858</ele><time>2026-04-26T09:15:38.639Z</time></trkpt><trkpt lat="44.3058835" lon="10.3762403"><ele>1602.5714285714287</ele><time>2026-04-26T09:15:47.639Z</time></trkpt><trkpt lat="44.3058184" lon="10.3762468"><ele>1605.4285714285716</ele><time>2026-04-26T09:15:53.642Z</time></trkpt><trkpt lat="44.3057445" lon="10.3762478"><ele>1608.2857142857142</ele><time>2026-04-26T09:15:59.639Z</time></trkpt><trkpt lat="44.3056799" lon="10.376235"><ele>1611.1428571428573</ele><time>2026-04-26T09:16:05.638Z</time></trkpt><trkpt lat="44.3056112" lon="10.3762324"><ele>1614.0</ele><time>2026-04-26T09:16:14.65Z</time></trkpt><trkpt lat="44.3055394" lon="10.3762198"><ele>1616.5714285714287</ele><time>2026-04-26T09:16:22.648Z</time></trkpt><trkpt lat="44.3054771" lon="10.3761994"><ele>1619.142857142857</ele><time>2026-04-26T09:16:29.647Z</time></trkpt><trkpt lat="44.3054142" lon="10.3761906"><ele>1621.7142857142858</ele><time>2026-04-26T09:16:38.639Z</time></trkpt><trkpt lat="44.3053564" lon="10.3762276"><ele>1624.2857142857142</ele><time>2026-04-26T09:16:44.638Z</time></trkpt><trkpt lat="44.3053006" lon="10.3761868"><ele>1626.857142857143</ele><time>2026-04-26T09:16:50.636Z</time></trkpt><trkpt lat="44.3052355" lon="10.3761434"><ele>1629.4285714285716</ele><time>2026-04-26T09:16:56.638Z</time></trkpt><trkpt lat="44.3051666" lon="10.3761262"><ele>1632.0</ele><time>2026-04-26T09:17:02.638Z</time></trkpt><trkpt lat="44.3051028" lon="10.3761302"><ele>1632.0</ele><time>2026-04-26T09:17:10.639Z</time></trkpt><trkpt lat="44.3050413" lon="10.3761615"><ele>1632.0</ele><time>2026-04-26T09:17:17.639Z</time></trkpt><trkpt lat="44.3049711" lon="10.376173"><ele>1632.0</ele><time>2026-04-26T09:17:24.638Z</time></trkpt><trkpt lat="44.3049082" lon="10.3761264"><ele>1632.0</ele><time>2026-04-26T09:17:30.647Z</time></trkpt><trkpt lat="44.3048434" lon="10.3760812"><ele>1632.0</ele><time>2026-04-26T09:17:36.637Z</time></trkpt><trkpt lat="44.3047774" lon="10.37612"><ele>1632.0</ele><time>2026-04-26T09:17:45.64Z</time></trkpt><trkpt lat="44.3047061" lon="10.3761261"><ele>1632.0</ele><time>2026-04-26T09:17:53.639Z</time></trkpt><trkpt lat="44.3046491" lon="10.37606"><ele>1633.857142857143</ele><time>2026-04-26T09:17:59.657Z</time></trkpt><trkpt lat="44.3045899" lon="10.3760267"><ele>1635.7142857142858</ele><time>2026-04-26T09:18:04.638Z</time></trkpt><trkpt lat="44.3045251" lon="10.3759851"><ele>1637.5714285714284</ele><time>2026-04-26T09:18:10.658Z</time></trkpt><trkpt lat="44.304453" lon="10.3759771"><ele>1639.4285714285716</ele><time>2026-04-26T09:18:16.638Z</time></trkpt><trkpt lat="44.3043826" lon="10.3759478"><ele>1641.2857142857142</ele><time>2026-04-26T09:18:24.636Z</time></trkpt><trkpt lat="44.304334" lon="10.3758818"><ele>1643.142857142857</ele><time>2026-04-26T09:18:30.634Z</time></trkpt><trkpt lat="44.3042702" lon="10.3758273"><ele>1645.0</ele><time>2026-04-26T09:18:35.636Z</time></trkpt><trkpt lat="44.3042072" lon="10.3757827"><ele>1645.0</ele><time>2026-04-26T09:18:40.634Z</time></trkpt><trkpt lat="44.3041609" lon="10.3757122"><ele>1645.0</ele><time>2026-04-26T09:18:44.635Z</time></trkpt><trkpt lat="44.3041132" lon="10.3756543"><ele>1645.0</ele><time>2026-04-26T09:18:47.636Z</time></trkpt><trkpt lat="44.3040539" lon="10.3755935"><ele>1645.0</ele><time>2026-04-26T09:18:52.635Z</time></trkpt><trkpt lat="44.3039944" lon="10.37555"><ele>1645.0</ele><time>2026-04-26T09:18:56.635Z</time></trkpt><trkpt lat="44.303956" lon="10.375458"><ele>1645.0</ele><time>2026-04-26T09:19:01.635Z</time></trkpt><trkpt lat="44.30392" lon="10.3753839"><ele>1645.0</ele><time>2026-04-26T09:19:05.635Z</time></trkpt><trkpt lat="44.3038674" lon="10.37531"><ele>1642.5714285714287</ele><time>2026-04-26T09:19:09.635Z</time></trkpt><trkpt lat="44.3038065" lon="10.3752457"><ele>1640.142857142857</ele><time>2026-04-26T09:19:13.636Z</time></trkpt><trkpt lat="44.303749" lon="10.3751901"><ele>1637.7142857142858</ele><time>2026-04-26T09:19:19.635Z</time></trkpt><trkpt lat="44.3036814" lon="10.3751873"><ele>1635.2857142857142</ele><time>2026-04-26T09:19:24.639Z</time></trkpt><trkpt lat="44.3036237" lon="10.3751303"><ele>1632.857142857143</ele><time>2026-04-26T09:19:31.635Z</time></trkpt><trkpt lat="44.3035588" lon="10.3750769"><ele>1630.4285714285716</ele><time>2026-04-26T09:20:42.635Z</time></trkpt><trkpt lat="44.3034893" lon="10.3750606"><ele>1628.0</ele><time>2026-04-26T09:20:50.656Z</time></trkpt><trkpt lat="44.3034243" lon="10.3750722"><ele>1628.0000000000002</ele><time>2026-04-26T09:21:00.652Z</time></trkpt><trkpt lat="44.3034409" lon="10.3749755"><ele>1628.0</ele><time>2026-04-26T09:21:27.635Z</time></trkpt><trkpt lat="44.3034011" lon="10.3750595"><ele>1628.0</ele><time>2026-04-26T09:21:50.639Z</time></trkpt><trkpt lat="44.3033464" lon="10.3751102"><ele>1628.0</ele><time>2026-04-26T09:21:55.639Z</time></trkpt><trkpt lat="44.3032916" lon="10.3751587"><ele>1628.0</ele><time>2026-04-26T09:22:00.645Z</time></trkpt><trkpt lat="44.3032369" lon="10.3752031"><ele>1628.0000000000002</ele><time>2026-04-26T09:22:06.64Z</time></trkpt><trkpt lat="44.3031895" lon="10.3752657"><ele>1628.0</ele><time>2026-04-26T09:22:13.637Z</time></trkpt><trkpt lat="44.3031329" lon="10.3753249"><ele>1618.0</ele><time>2026-04-26T09:22:18.637Z</time></trkpt><trkpt lat="44.3023027" lon="10.3738571"><ele>1618.0000000000002</ele><time>2026-04-26T09:28:47.152Z</time></trkpt><trkpt lat="44.3023193" lon="10.3739758"><ele>1618.0</ele><time>2026-04-26T09:29:00.636Z</time></trkpt><trkpt lat="44.3023106" lon="10.3738759"><ele>1618.0</ele><time>2026-04-26T09:29:04.635Z</time></trkpt><trkpt lat="44.3023168" lon="10.3737754"><ele>1618.0</ele><time>2026-04-26T09:29:09.635Z</time></trkpt><trkpt lat="44.302323" lon="10.3736754"><ele>1618.0000000000002</ele><time>2026-04-26T09:29:15.635Z</time></trkpt><trkpt lat="44.3023276" lon="10.3734903"><ele>1618.0</ele><time>2026-04-26T09:29:28.635Z</time></trkpt><trkpt lat="44.3023265" lon="10.373395"><ele>1617.2</ele><time>2026-04-26T09:29:35.635Z</time></trkpt><trkpt lat="44.3023203" lon="10.3732965"><ele>1616.4</ele><time>2026-04-26T09:29:43.636Z</time></trkpt><trkpt lat="44.3023187" lon="10.3731056"><ele>1615.6000000000001</ele><time>2026-04-26T09:29:58.636Z</time></trkpt><trkpt lat="44.3023245" lon="10.3730062"><ele>1614.8000000000002</ele><time>2026-04-26T09:30:05.636Z</time></trkpt><trkpt lat="44.3022791" lon="10.3728431"><ele>1614.0</ele><time>2026-04-26T09:30:18.635Z</time></trkpt><trkpt lat="44.3022081" lon="10.3727899"><ele>1608.0</ele><time>2026-04-26T09:32:54.643Z</time></trkpt></trkseg><trkseg><trkpt lat="44.3021372" lon="10.3727719"><ele>1608.0</ele><time>2026-04-26T10:28:08.666Z</time></trkpt><trkpt lat="44.3020568" lon="10.3727275"><ele>1608.0</ele><time>2026-04-26T10:28:25.646Z</time></trkpt><trkpt lat="44.3020047" lon="10.3727779"><ele>1608.0</ele><time>2026-04-26T10:28:30.641Z</time></trkpt><trkpt lat="44.301969" lon="10.372855"><ele>1608.0</ele><time>2026-04-26T10:28:41.641Z</time></trkpt><trkpt lat="44.3019138" lon="10.3729106"><ele>1608.0</ele><time>2026-04-26T10:28:48.638Z</time></trkpt><trkpt lat="44.3018615" lon="10.3729741"><ele>1608.0</ele><time>2026-04-26T10:28:56.639Z</time></trkpt><trkpt lat="44.3018054" lon="10.3730171"><ele>1608.0</ele><time>2026-04-26T10:29:03.639Z</time></trkpt><trkpt lat="44.3017359" lon="10.3730183"><ele>1608.142857142857</ele><time>2026-04-26T10:29:10.639Z</time></trkpt><trkpt lat="44.3016736" lon="10.3730427"><ele>1608.2857142857144</ele><time>2026-04-26T10:29:18.64Z</time></trkpt><trkpt lat="44.3016695" lon="10.3731657"><ele>1608.4285714285716</ele><time>2026-04-26T10:29:37.641Z</time></trkpt><trkpt lat="44.3016587" lon="10.3732569"><ele>1608.5714285714284</ele><time>2026-04-26T10:29:44.641Z</time></trkpt><trkpt lat="44.3016363" lon="10.3733448"><ele>1608.7142857142858</ele><time>2026-04-26T10:29:52.641Z</time></trkpt><trkpt lat="44.3016105" lon="10.3734338"><ele>1608.857142857143</ele><time>2026-04-26T10:30:00.645Z</time></trkpt><trkpt lat="44.3015796" lon="10.3735284"><ele>1609.0</ele><time>2026-04-26T10:30:08.643Z</time></trkpt><trkpt lat="44.3015608" lon="10.3736163"><ele>1609.0</ele><time>2026-04-26T10:30:15.642Z</time></trkpt><trkpt lat="44.3015064" lon="10.3736644"><ele>1609.0</ele><time>2026-04-26T10:30:27.663Z</time></trkpt><trkpt lat="44.3014567" lon="10.3737216"><ele>1609.0</ele><time>2026-04-26T10:30:33.64Z</time></trkpt><trkpt lat="44.3014017" lon="10.3737866"><ele>1609.0</ele><time>2026-04-26T10:30:40.657Z</time></trkpt><trkpt lat="44.3013456" lon="10.3738321"><ele>1609.0</ele><time>2026-04-26T10:30:48.663Z</time></trkpt><trkpt lat="44.3012877" lon="10.373867"><ele>1609.0</ele><time>2026-04-26T10:30:56.641Z</time></trkpt><trkpt lat="44.3012291" lon="10.3739026"><ele>1609.0</ele><time>2026-04-26T10:31:03.658Z</time></trkpt><trkpt lat="44.3011811" lon="10.3739658"><ele>1608.142857142857</ele><time>2026-04-26T10:31:10.65Z</time></trkpt><trkpt lat="44.3011409" lon="10.3740389"><ele>1607.2857142857142</ele><time>2026-04-26T10:31:17.64Z</time></trkpt><trkpt lat="44.3010975" lon="10.3741073"><ele>1606.4285714285716</ele><time>2026-04-26T10:31:26.636Z</time></trkpt><trkpt lat="44.3010333" lon="10.3741334"><ele>1605.5714285714284</ele><time>2026-04-26T10:31:33.636Z</time></trkpt><trkpt lat="44.300971" lon="10.3741725"><ele>1604.7142857142858</ele><time>2026-04-26T10:31:44.636Z</time></trkpt><trkpt lat="44.300919" lon="10.3742368"><ele>1603.857142857143</ele><time>2026-04-26T10:31:54.636Z</time></trkpt><trkpt lat="44.3008807" lon="10.3743085"><ele>1603.0</ele><time>2026-04-26T10:32:00.636Z</time></trkpt><trkpt lat="44.3008573" lon="10.374395"><ele>1603.0000000000002</ele><time>2026-04-26T10:32:05.637Z</time></trkpt><trkpt lat="44.3008342" lon="10.3744791"><ele>1603.0</ele><time>2026-04-26T10:32:13.639Z</time></trkpt><trkpt lat="44.3008235" lon="10.3745727"><ele>1603.0</ele><time>2026-04-26T10:32:22.637Z</time></trkpt><trkpt lat="44.3007369" lon="10.3747109"><ele>1603.0</ele><time>2026-04-26T10:33:05.642Z</time></trkpt><trkpt lat="44.3006678" lon="10.3747508"><ele>1603.0000000000002</ele><time>2026-04-26T10:33:10.638Z</time></trkpt><trkpt lat="44.3006122" lon="10.3748117"><ele>1603.0</ele><time>2026-04-26T10:33:19.64Z</time></trkpt><trkpt lat="44.3005581" lon="10.3748715"><ele>1601.142857142857</ele><time>2026-04-26T10:33:26.639Z</time></trkpt><trkpt lat="44.3005028" lon="10.3749187"><ele>1599.2857142857142</ele><time>2026-04-26T10:33:33.638Z</time></trkpt><trkpt lat="44.3004655" lon="10.3750017"><ele>1597.4285714285716</ele><time>2026-04-26T10:33:40.64Z</time></trkpt><trkpt lat="44.3004068" lon="10.3750572"><ele>1595.5714285714284</ele><time>2026-04-26T10:33:47.645Z</time></trkpt><trkpt lat="44.3003537" lon="10.3751133"><ele>1593.7142857142858</ele><time>2026-04-26T10:33:57.658Z</time></trkpt><trkpt lat="44.3003028" lon="10.3751674"><ele>1591.857142857143</ele><time>2026-04-26T10:34:04.657Z</time></trkpt><trkpt lat="44.300255" lon="10.3752313"><ele>1590.0</ele><time>2026-04-26T10:34:11.641Z</time></trkpt><trkpt lat="44.3002026" lon="10.3752954"><ele>1590.0</ele><time>2026-04-26T10:34:19.65Z</time></trkpt><trkpt lat="44.3001589" lon="10.3753734"><ele>1590.0</ele><time>2026-04-26T10:34:26.64Z</time></trkpt><trkpt lat="44.3001735" lon="10.3754617"><ele>1590.0</ele><time>2026-04-26T10:34:32.64Z</time></trkpt><trkpt lat="44.300147" lon="10.3755475"><ele>1590.0</ele><time>2026-04-26T10:34:38.657Z</time></trkpt><trkpt lat="44.3001378" lon="10.3756359"><ele>1590.0</ele><time>2026-04-26T10:34:45.657Z</time></trkpt><trkpt lat="44.3001204" lon="10.3757303"><ele>1590.0</ele><time>2026-04-26T10:34:52.646Z</time></trkpt><trkpt lat="44.3000998" lon="10.3758214"><ele>1590.0</ele><time>2026-04-26T10:34:59.64Z</time></trkpt><trkpt lat="44.3001021" lon="10.3759197"><ele>1591.142857142857</ele><time>2026-04-26T10:35:06.658Z</time></trkpt><trkpt lat="44.3000774" lon="10.376011"><ele>1592.2857142857142</ele><time>2026-04-26T10:35:12.641Z</time></trkpt><trkpt lat="44.300046" lon="10.3760923"><ele>1593.4285714285716</ele><time>2026-04-26T10:35:21.647Z</time></trkpt><trkpt lat="44.3000788" lon="10.3761697"><ele>1594.5714285714284</ele><time>2026-04-26T10:35:30.64Z</time></trkpt><trkpt lat="44.3000688" lon="10.3762651"><ele>1595.7142857142856</ele><time>2026-04-26T10:35:40.649Z</time></trkpt><trkpt lat="44.3000505" lon="10.3763571"><ele>1596.857142857143</ele><time>2026-04-26T10:35:46.64Z</time></trkpt><trkpt lat="44.3000184" lon="10.3764407"><ele>1598.0</ele><time>2026-04-26T10:35:53.643Z</time></trkpt><trkpt lat="44.3000105" lon="10.3765321"><ele>1598.2857142857144</ele><time>2026-04-26T10:36:00.641Z</time></trkpt><trkpt lat="44.2999987" lon="10.3766214"><ele>1598.5714285714284</ele><time>2026-04-26T10:36:06.641Z</time></trkpt><trkpt lat="44.299998" lon="10.3767235"><ele>1598.857142857143</ele><time>2026-04-26T10:36:13.641Z</time></trkpt><trkpt lat="44.2999951" lon="10.3768237"><ele>1599.1428571428573</ele><time>2026-04-26T10:36:19.658Z</time></trkpt><trkpt lat="44.3000461" lon="10.3769196"><ele>1599.4285714285716</ele><time>2026-04-26T10:36:27.636Z</time></trkpt><trkpt lat="44.3000326" lon="10.3770079"><ele>1599.7142857142858</ele><time>2026-04-26T10:36:40.637Z</time></trkpt><trkpt lat="44.2999643" lon="10.3770267"><ele>1600.0</ele><time>2026-04-26T10:36:45.639Z</time></trkpt><trkpt lat="44.299895" lon="10.377025"><ele>1600.0000000000002</ele><time>2026-04-26T10:36:50.647Z</time></trkpt><trkpt lat="44.2998219" lon="10.3770141"><ele>1600.0</ele><time>2026-04-26T10:36:55.641Z</time></trkpt><trkpt lat="44.2997671" lon="10.3770607"><ele>1600.0</ele><time>2026-04-26T10:37:01.64Z</time></trkpt><trkpt lat="44.2997114" lon="10.3771282"><ele>1600.0</ele><time>2026-04-26T10:37:07.639Z</time></trkpt><trkpt lat="44.2996593" lon="10.377189"><ele>1600.0</ele><time>2026-04-26T10:37:15.639Z</time></trkpt><trkpt lat="44.2996444" lon="10.3772811"><ele>1600.0000000000002</ele><time>2026-04-26T10:37:22.638Z</time></trkpt><trkpt lat="44.2996156" lon="10.3773651"><ele>1600.0</ele><time>2026-04-26T10:37:28.646Z</time></trkpt><trkpt lat="44.2995567" lon="10.3774212"><ele>1599.857142857143</ele><time>2026-04-26T10:37:35.641Z</time></trkpt><trkpt lat="44.2995558" lon="10.3775116"><ele>1599.7142857142858</ele><time>2026-04-26T10:37:43.644Z</time></trkpt><trkpt lat="44.2995637" lon="10.3776009"><ele>1599.5714285714284</ele><time>2026-04-26T10:37:51.64Z</time></trkpt><trkpt lat="44.2995811" lon="10.3776904"><ele>1599.4285714285716</ele><time>2026-04-26T10:37:57.64Z</time></trkpt><trkpt lat="44.299565" lon="10.3777835"><ele>1599.2857142857142</ele><time>2026-04-26T10:38:04.64Z</time></trkpt><trkpt lat="44.2995295" lon="10.377873"><ele>1599.142857142857</ele><time>2026-04-26T10:38:12.658Z</time></trkpt><trkpt lat="44.2994933" lon="10.3779474"><ele>1599.0</ele><time>2026-04-26T10:38:21.64Z</time></trkpt><trkpt lat="44.2995169" lon="10.3780461"><ele>1598.9999999999998</ele><time>2026-04-26T10:38:31.639Z</time></trkpt><trkpt lat="44.2994646" lon="10.3781137"><ele>1599.0</ele><time>2026-04-26T10:38:38.641Z</time></trkpt><trkpt lat="44.2994058" lon="10.3781456"><ele>1599.0</ele><time>2026-04-26T10:38:43.642Z</time></trkpt><trkpt lat="44.2993775" lon="10.3782277"><ele>1599.0</ele><time>2026-04-26T10:38:51.639Z</time></trkpt><trkpt lat="44.299315" lon="10.3782545"><ele>1599.0</ele><time>2026-04-26T10:39:00.655Z</time></trkpt><trkpt lat="44.2992539" lon="10.3782268"><ele>1598.9999999999998</ele><time>2026-04-26T10:39:08.642Z</time></trkpt><trkpt lat="44.299198" lon="10.3782717"><ele>1599.0</ele><time>2026-04-26T10:39:14.641Z</time></trkpt><trkpt lat="44.2991341" lon="10.3782835"><ele>1598.9999999999998</ele><time>2026-04-26T10:39:24.657Z</time></trkpt><trkpt lat="44.2990978" lon="10.3783699"><ele>1599.0</ele><time>2026-04-26T10:39:58.637Z</time></trkpt><trkpt lat="44.2990277" lon="10.3783548"><ele>1599.0</ele><time>2026-04-26T10:40:03.636Z</time></trkpt><trkpt lat="44.2990399" lon="10.3782622"><ele>1599.0</ele><time>2026-04-26T10:40:18.635Z</time></trkpt><trkpt lat="44.2990597" lon="10.3781738"><ele>1599.0</ele><time>2026-04-26T10:40:28.636Z</time></trkpt><trkpt lat="44.299094" lon="10.3780324"><ele>1598.9999999999998</ele><time>2026-04-26T10:40:46.642Z</time></trkpt><trkpt lat="44.299102" lon="10.37812"><ele>1599.0</ele><time>2026-04-26T10:41:01.636Z</time></trkpt><trkpt lat="44.2990431" lon="10.3781572"><ele>1598.9999999999998</ele><time>2026-04-26T10:41:35.639Z</time></trkpt><trkpt lat="44.2990592" lon="10.3780663"><ele>1599.0</ele><time>2026-04-26T10:42:02.635Z</time></trkpt><trkpt lat="44.2990826" lon="10.3779755"><ele>1599.0</ele><time>2026-04-26T10:42:13.636Z</time></trkpt><trkpt lat="44.299128" lon="10.3779009"><ele>1599.0</ele><time>2026-04-26T10:42:26.635Z</time></trkpt><trkpt lat="44.2991126" lon="10.3778143"><ele>1599.0</ele><time>2026-04-26T10:42:42.635Z</time></trkpt><trkpt lat="44.2991188" lon="10.3777259"><ele>1598.9999999999998</ele><time>2026-04-26T10:42:56.634Z</time></trkpt><trkpt lat="44.2990731" lon="10.3776507"><ele>1599.0</ele><time>2026-04-26T10:43:15.635Z</time></trkpt><trkpt lat="44.2989784" lon="10.3775619"><ele>1598.142857142857</ele><time>2026-04-26T10:43:44.636Z</time></trkpt><trkpt lat="44.2989217" lon="10.3775156"><ele>1597.2857142857142</ele><time>2026-04-26T10:43:54.634Z</time></trkpt><trkpt lat="44.2988662" lon="10.3774565"><ele>1596.4285714285716</ele><time>2026-04-26T10:44:03.634Z</time></trkpt><trkpt lat="44.2988113" lon="10.377394"><ele>1595.5714285714284</ele><time>2026-04-26T10:44:13.636Z</time></trkpt><trkpt lat="44.2987806" lon="10.3773035"><ele>1594.7142857142858</ele><time>2026-04-26T10:44:21.634Z</time></trkpt><trkpt lat="44.2987329" lon="10.3772345"><ele>1593.857142857143</ele><time>2026-04-26T10:44:31.635Z</time></trkpt><trkpt lat="44.2986573" lon="10.3772162"><ele>1593.0</ele><time>2026-04-26T10:44:53.636Z</time></trkpt><trkpt lat="44.2985955" lon="10.3771928"><ele>1595.0000000000002</ele><time>2026-04-26T10:45:01.637Z</time></trkpt><trkpt lat="44.2985686" lon="10.3771129"><ele>1597.0</ele><time>2026-04-26T10:45:11.636Z</time></trkpt><trkpt lat="44.2985024" lon="10.3771111"><ele>1599.0</ele><time>2026-04-26T10:45:56.635Z</time></trkpt><trkpt lat="44.298471" lon="10.3771976"><ele>1601.0</ele><time>2026-04-26T10:46:07.634Z</time></trkpt><trkpt lat="44.2984379" lon="10.3772727"><ele>1603.0</ele><time>2026-04-26T10:46:15.634Z</time></trkpt><trkpt lat="44.298392" lon="10.3773574"><ele>1605.0000000000002</ele><time>2026-04-26T10:46:27.635Z</time></trkpt><trkpt lat="44.2984274" lon="10.3774383"><ele>1607.0</ele><time>2026-04-26T10:46:36.638Z</time></trkpt><trkpt lat="44.2984377" lon="10.3775318"><ele>1608.6666666666665</ele><time>2026-04-26T10:46:43.635Z</time></trkpt><trkpt lat="44.2984663" lon="10.3776126"><ele>1610.3333333333333</ele><time>2026-04-26T10:46:52.635Z</time></trkpt><trkpt lat="44.2984545" lon="10.3777473"><ele>1612.0</ele><time>2026-04-26T10:47:08.636Z</time></trkpt><trkpt lat="44.2985037" lon="10.3778121"><ele>1613.6666666666665</ele><time>2026-04-26T10:47:20.635Z</time></trkpt><trkpt lat="44.2984433" lon="10.3779063"><ele>1615.3333333333333</ele><time>2026-04-26T10:47:30.634Z</time></trkpt><trkpt lat="44.2984039" lon="10.3779848"><ele>1617.0</ele><time>2026-04-26T10:47:41.635Z</time></trkpt><trkpt lat="44.2983456" lon="10.3780472"><ele>1617.7142857142858</ele><time>2026-04-26T10:47:50.637Z</time></trkpt><trkpt lat="44.2983023" lon="10.378113"><ele>1618.4285714285716</ele><time>2026-04-26T10:47:59.637Z</time></trkpt><trkpt lat="44.2982646" lon="10.3782116"><ele>1619.142857142857</ele><time>2026-04-26T10:48:12.639Z</time></trkpt><trkpt lat="44.2982044" lon="10.378239"><ele>1619.857142857143</ele><time>2026-04-26T10:48:15.644Z</time></trkpt><trkpt lat="44.2981404" lon="10.378266"><ele>1620.5714285714287</ele><time>2026-04-26T10:48:24.641Z</time></trkpt><trkpt lat="44.2980937" lon="10.3783462"><ele>1621.2857142857142</ele><time>2026-04-26T10:48:44.64Z</time></trkpt><trkpt lat="44.2980363" lon="10.3784007"><ele>1622.0</ele><time>2026-04-26T10:48:55.64Z</time></trkpt><trkpt lat="44.2979814" lon="10.3784637"><ele>1622.1666666666665</ele><time>2026-04-26T10:49:03.641Z</time></trkpt><trkpt lat="44.29796" lon="10.3785559"><ele>1622.3333333333333</ele><time>2026-04-26T10:49:16.657Z</time></trkpt><trkpt lat="44.2979347" lon="10.3786405"><ele>1622.5</ele><time>2026-04-26T10:49:26.639Z</time></trkpt><trkpt lat="44.2978841" lon="10.3786991"><ele>1622.6666666666665</ele><time>2026-04-26T10:49:33.64Z</time></trkpt><trkpt lat="44.2978214" lon="10.3787421"><ele>1622.8333333333333</ele><time>2026-04-26T10:49:44.639Z</time></trkpt><trkpt lat="44.2977717" lon="10.378798"><ele>1623.0</ele><time>2026-04-26T10:49:53.64Z</time></trkpt><trkpt lat="44.2976617" lon="10.3788864"><ele>1625.5714285714284</ele><time>2026-04-26T10:50:14.641Z</time></trkpt><trkpt lat="44.2976071" lon="10.3789309"><ele>1628.142857142857</ele><time>2026-04-26T10:50:20.642Z</time></trkpt><trkpt lat="44.2975585" lon="10.3789971"><ele>1630.7142857142858</ele><time>2026-04-26T10:50:28.64Z</time></trkpt><trkpt lat="44.297512" lon="10.3790575"><ele>1633.2857142857142</ele><time>2026-04-26T10:50:37.646Z</time></trkpt><trkpt lat="44.2974713" lon="10.37914"><ele>1635.857142857143</ele><time>2026-04-26T10:50:47.634Z</time></trkpt><trkpt lat="44.2974526" lon="10.3792312"><ele>1638.4285714285713</ele><time>2026-04-26T10:50:57.635Z</time></trkpt><trkpt lat="44.2974153" lon="10.3793141"><ele>1641.0</ele><time>2026-04-26T10:51:04.638Z</time></trkpt><trkpt lat="44.2973612" lon="10.3793727"><ele>1640.9999999999998</ele><time>2026-04-26T10:51:13.639Z</time></trkpt><trkpt lat="44.2973763" lon="10.379459"><ele>1641.0</ele><time>2026-04-26T10:51:20.639Z</time></trkpt><trkpt lat="44.2973964" lon="10.3795425"><ele>1641.0</ele><time>2026-04-26T10:51:28.637Z</time></trkpt><trkpt lat="44.2973794" lon="10.3796387"><ele>1641.0</ele><time>2026-04-26T10:51:35.638Z</time></trkpt><trkpt lat="44.2974035" lon="10.3797229"><ele>1641.0</ele><time>2026-04-26T10:51:45.639Z</time></trkpt><trkpt lat="44.29735" lon="10.3797733"><ele>1640.9999999999998</ele><time>2026-04-26T10:51:54.637Z</time></trkpt><trkpt lat="44.2973277" lon="10.3798556"><ele>1641.0</ele><time>2026-04-26T10:52:03.639Z</time></trkpt><trkpt lat="44.2972845" lon="10.3799257"><ele>1642.142857142857</ele><time>2026-04-26T10:52:12.637Z</time></trkpt><trkpt lat="44.2972331" lon="10.3799809"><ele>1643.2857142857142</ele><time>2026-04-26T10:52:20.638Z</time></trkpt><trkpt lat="44.2972014" lon="10.3800669"><ele>1644.4285714285716</ele><time>2026-04-26T10:53:17.64Z</time></trkpt><trkpt lat="44.2971769" lon="10.3801496"><ele>1645.5714285714284</ele><time>2026-04-26T10:53:27.638Z</time></trkpt><trkpt lat="44.2971668" lon="10.3802392"><ele>1646.7142857142858</ele><time>2026-04-26T10:53:36.646Z</time></trkpt><trkpt lat="44.2971508" lon="10.3803356"><ele>1647.857142857143</ele><time>2026-04-26T10:53:45.639Z</time></trkpt><trkpt lat="44.2971395" lon="10.3804284"><ele>1649.0</ele><time>2026-04-26T10:53:53.642Z</time></trkpt><trkpt lat="44.2970994" lon="10.3805086"><ele>1652.2857142857144</ele><time>2026-04-26T10:54:02.639Z</time></trkpt><trkpt lat="44.2970646" lon="10.3805819"><ele>1655.5714285714287</ele><time>2026-04-26T10:54:14.638Z</time></trkpt><trkpt lat="44.297014" lon="10.3806477"><ele>1658.857142857143</ele><time>2026-04-26T10:54:26.636Z</time></trkpt><trkpt lat="44.2969712" lon="10.3807224"><ele>1662.1428571428573</ele><time>2026-04-26T10:54:35.636Z</time></trkpt><trkpt lat="44.2969257" lon="10.3807958"><ele>1665.4285714285713</ele><time>2026-04-26T10:54:43.635Z</time></trkpt><trkpt lat="44.2968825" lon="10.3808613"><ele>1668.7142857142858</ele><time>2026-04-26T10:54:53.638Z</time></trkpt><trkpt lat="44.2968108" lon="10.3808389"><ele>1672.0</ele><time>2026-04-26T10:54:59.646Z</time></trkpt><trkpt lat="44.2967237" lon="10.3809218"><ele>1672.0</ele><time>2026-04-26T10:55:22.645Z</time></trkpt><trkpt lat="44.2966645" lon="10.3809608"><ele>1672.0</ele><time>2026-04-26T10:55:32.639Z</time></trkpt><trkpt lat="44.2966027" lon="10.3809907"><ele>1672.0</ele><time>2026-04-26T10:55:44.639Z</time></trkpt><trkpt lat="44.2965443" lon="10.3810282"><ele>1672.0</ele><time>2026-04-26T10:55:53.638Z</time></trkpt><trkpt lat="44.2964772" lon="10.3810484"><ele>1672.0</ele><time>2026-04-26T10:56:06.638Z</time></trkpt><trkpt lat="44.2964172" lon="10.3810817"><ele>1672.0</ele><time>2026-04-26T10:56:15.639Z</time></trkpt><trkpt lat="44.2963536" lon="10.3811077"><ele>1672.0</ele><time>2026-04-26T10:56:25.642Z</time></trkpt><trkpt lat="44.2962908" lon="10.3810889"><ele>1670.4285714285713</ele><time>2026-04-26T10:56:35.644Z</time></trkpt><trkpt lat="44.2962435" lon="10.3811484"><ele>1668.8571428571427</ele><time>2026-04-26T10:58:59.636Z</time></trkpt><trkpt lat="44.2962099" lon="10.3812242"><ele>1667.2857142857142</ele><time>2026-04-26T10:59:07.638Z</time></trkpt><trkpt lat="44.2962159" lon="10.3813203"><ele>1665.7142857142858</ele><time>2026-04-26T10:59:20.639Z</time></trkpt><trkpt lat="44.2961826" lon="10.3814016"><ele>1664.142857142857</ele><time>2026-04-26T10:59:31.636Z</time></trkpt><trkpt lat="44.2961711" lon="10.3815033"><ele>1662.5714285714287</ele><time>2026-04-26T10:59:40.638Z</time></trkpt><trkpt lat="44.2961376" lon="10.3815834"><ele>1661.0</ele><time>2026-04-26T10:59:45.638Z</time></trkpt><trkpt lat="44.296119" lon="10.3816676"><ele>1664.7142857142858</ele><time>2026-04-26T10:59:54.638Z</time></trkpt><trkpt lat="44.2960912" lon="10.3817544"><ele>1668.4285714285713</ele><time>2026-04-26T11:00:04.638Z</time></trkpt><trkpt lat="44.2960584" lon="10.381835"><ele>1672.142857142857</ele><time>2026-04-26T11:00:12.636Z</time></trkpt><trkpt lat="44.2960882" lon="10.3819132"><ele>1675.857142857143</ele><time>2026-04-26T11:00:24.639Z</time></trkpt><trkpt lat="44.2961632" lon="10.3819561"><ele>1679.5714285714284</ele><time>2026-04-26T11:00:44.641Z</time></trkpt><trkpt lat="44.2962071" lon="10.3820424"><ele>1683.2857142857142</ele><time>2026-04-26T11:01:56.637Z</time></trkpt><trkpt lat="44.2962089" lon="10.3821328"><ele>1687.0</ele><time>2026-04-26T11:02:07.638Z</time></trkpt><trkpt lat="44.2961827" lon="10.382215"><ele>1690.857142857143</ele><time>2026-04-26T11:02:17.658Z</time></trkpt><trkpt lat="44.2961433" lon="10.3822917"><ele>1694.7142857142858</ele><time>2026-04-26T11:02:29.637Z</time></trkpt><trkpt lat="44.296075" lon="10.3823233"><ele>1698.5714285714284</ele><time>2026-04-26T11:02:47.638Z</time></trkpt><trkpt lat="44.2960583" lon="10.3824167"><ele>1702.4285714285716</ele><time>2026-04-26T11:02:58.638Z</time></trkpt><trkpt lat="44.2960117" lon="10.3824817"><ele>1706.2857142857142</ele><time>2026-04-26T11:03:08.64Z</time></trkpt><trkpt lat="44.2959483" lon="10.3825117"><ele>1710.142857142857</ele><time>2026-04-26T11:03:17.638Z</time></trkpt><trkpt lat="44.2959017" lon="10.3825817"><ele>1714.0</ele><time>2026-04-26T11:03:27.638Z</time></trkpt><trkpt lat="44.295845" lon="10.3826233"><ele>1714.0</ele><time>2026-04-26T11:03:36.636Z</time></trkpt><trkpt lat="44.295795" lon="10.38269"><ele>1714.0</ele><time>2026-04-26T11:03:45.634Z</time></trkpt><trkpt lat="44.295755" lon="10.3827633"><ele>1714.0</ele><time>2026-04-26T11:03:55.636Z</time></trkpt><trkpt lat="44.2957137" lon="10.382836"><ele>1714.0</ele><time>2026-04-26T11:04:05.636Z</time></trkpt><trkpt lat="44.2956529" lon="10.3828621"><ele>1714.0</ele><time>2026-04-26T11:04:13.636Z</time></trkpt><trkpt lat="44.2955966" lon="10.3829106"><ele>1714.0</ele><time>2026-04-26T11:04:21.634Z</time></trkpt><trkpt lat="44.2955539" lon="10.3829788"><ele>1714.0</ele><time>2026-04-26T11:04:31.636Z</time></trkpt><trkpt lat="44.2955023" lon="10.3830437"><ele>1713.5714285714284</ele><time>2026-04-26T11:05:12.636Z</time></trkpt><trkpt lat="44.2954597" lon="10.3831133"><ele>1713.142857142857</ele><time>2026-04-26T11:05:19.639Z</time></trkpt><trkpt lat="44.2954488" lon="10.3832018"><ele>1712.7142857142858</ele><time>2026-04-26T11:05:31.635Z</time></trkpt><trkpt lat="44.2955107" lon="10.3832699"><ele>1712.2857142857142</ele><time>2026-04-26T11:05:58.636Z</time></trkpt><trkpt lat="44.2955724" lon="10.3833118"><ele>1711.857142857143</ele><time>2026-04-26T11:06:06.634Z</time></trkpt><trkpt lat="44.2956323" lon="10.3833545"><ele>1711.4285714285713</ele><time>2026-04-26T11:06:18.634Z</time></trkpt><trkpt lat="44.2957202" lon="10.3833571"><ele>1711.0</ele><time>2026-04-26T11:07:38.635Z</time></trkpt><trkpt lat="44.2958043" lon="10.3832833"><ele>1713.142857142857</ele><time>2026-04-26T11:08:06.638Z</time></trkpt><trkpt lat="44.2957323" lon="10.3833731"><ele>1715.2857142857142</ele><time>2026-04-26T11:08:43.638Z</time></trkpt><trkpt lat="44.295716" lon="10.3834664"><ele>1717.4285714285716</ele><time>2026-04-26T11:08:47.657Z</time></trkpt><trkpt lat="44.2957166" lon="10.3835583"><ele>1719.5714285714284</ele><time>2026-04-26T11:08:59.637Z</time></trkpt><trkpt lat="44.2957406" lon="10.3836451"><ele>1721.7142857142858</ele><time>2026-04-26T11:09:10.637Z</time></trkpt><trkpt lat="44.2958009" lon="10.383698"><ele>1723.857142857143</ele><time>2026-04-26T11:10:22.637Z</time></trkpt><trkpt lat="44.2958585" lon="10.3837385"><ele>1726.0</ele><time>2026-04-26T11:10:28.634Z</time></trkpt><trkpt lat="44.2959144" lon="10.3837798"><ele>1728.2857142857144</ele><time>2026-04-26T11:10:36.634Z</time></trkpt><trkpt lat="44.2959124" lon="10.3838712"><ele>1730.5714285714287</ele><time>2026-04-26T11:11:09.639Z</time></trkpt><trkpt lat="44.2959566" lon="10.3839582"><ele>1732.857142857143</ele><time>2026-04-26T11:11:13.633Z</time></trkpt><trkpt lat="44.2960204" lon="10.3839454"><ele>1735.1428571428573</ele><time>2026-04-26T11:11:19.635Z</time></trkpt><trkpt lat="44.2960853" lon="10.3839935"><ele>1737.4285714285713</ele><time>2026-04-26T11:11:25.634Z</time></trkpt><trkpt lat="44.2961449" lon="10.3840409"><ele>1739.7142857142858</ele><time>2026-04-26T11:11:32.634Z</time></trkpt><trkpt lat="44.2962014" lon="10.3840805"><ele>1742.0</ele><time>2026-04-26T11:11:40.635Z</time></trkpt><trkpt lat="44.2962621" lon="10.3841104"><ele>1742.0</ele><time>2026-04-26T11:11:46.638Z</time></trkpt><trkpt lat="44.2962995" lon="10.3841932"><ele>1742.0</ele><time>2026-04-26T11:11:54.64Z</time></trkpt><trkpt lat="44.2963374" lon="10.3842671"><ele>1742.0</ele><time>2026-04-26T11:12:00.635Z</time></trkpt><trkpt lat="44.2963916" lon="10.3843322"><ele>1742.0</ele><time>2026-04-26T11:12:08.64Z</time></trkpt><trkpt lat="44.2964444" lon="10.384384"><ele>1742.0</ele><time>2026-04-26T11:12:14.639Z</time></trkpt><trkpt lat="44.2964911" lon="10.3844552"><ele>1742.0</ele><time>2026-04-26T11:12:21.636Z</time></trkpt><trkpt lat="44.2965661" lon="10.3844501"><ele>1742.0</ele><time>2026-04-26T11:12:48.638Z</time></trkpt><trkpt lat="44.2966234" lon="10.3844965"><ele>1740.4285714285713</ele><time>2026-04-26T11:12:53.637Z</time></trkpt><trkpt lat="44.2966386" lon="10.3845914"><ele>1738.8571428571427</ele><time>2026-04-26T11:12:58.635Z</time></trkpt><trkpt lat="44.2966168" lon="10.3846766"><ele>1737.2857142857142</ele><time>2026-04-26T11:13:07.637Z</time></trkpt><trkpt lat="44.2966288" lon="10.3847775"><ele>1735.7142857142858</ele><time>2026-04-26T11:13:34.637Z</time></trkpt><trkpt lat="44.2965803" lon="10.3848377"><ele>1734.142857142857</ele><time>2026-04-26T11:13:44.638Z</time></trkpt><trkpt lat="44.2965249" lon="10.3848927"><ele>1732.5714285714287</ele><time>2026-04-26T11:13:56.639Z</time></trkpt><trkpt lat="44.2964775" lon="10.3849624"><ele>1731.0</ele><time>2026-04-26T11:14:06.639Z</time></trkpt><trkpt lat="44.2964599" lon="10.3850499"><ele>1731.0</ele><time>2026-04-26T11:14:14.639Z</time></trkpt><trkpt lat="44.2964699" lon="10.3851455"><ele>1731.0</ele><time>2026-04-26T11:14:23.638Z</time></trkpt><trkpt lat="44.2964438" lon="10.3852279"><ele>1731.0</ele><time>2026-04-26T11:14:30.639Z</time></trkpt><trkpt lat="44.2964364" lon="10.3853228"><ele>1731.0</ele><time>2026-04-26T11:14:39.637Z</time></trkpt><trkpt lat="44.2964316" lon="10.3854133"><ele>1731.0</ele><time>2026-04-26T11:14:47.658Z</time></trkpt><trkpt lat="44.2964316" lon="10.3855125"><ele>1731.0</ele><time>2026-04-26T11:14:56.645Z</time></trkpt><trkpt lat="44.2964318" lon="10.3856053"><ele>1731.0</ele><time>2026-04-26T11:15:04.638Z</time></trkpt><trkpt lat="44.2964421" lon="10.3856946"><ele>1732.1666666666667</ele><time>2026-04-26T11:15:11.645Z</time></trkpt><trkpt lat="44.2964573" lon="10.3857817"><ele>1733.3333333333335</ele><time>2026-04-26T11:15:22.641Z</time></trkpt><trkpt lat="44.2964904" lon="10.3859668"><ele>1734.5</ele><time>2026-04-26T11:15:55.658Z</time></trkpt><trkpt lat="44.2965239" lon="10.3860433"><ele>1735.6666666666667</ele><time>2026-04-26T11:16:06.637Z</time></trkpt><trkpt lat="44.296577" lon="10.3860997"><ele>1736.8333333333335</ele><time>2026-04-26T11:16:17.637Z</time></trkpt><trkpt lat="44.2966321" lon="10.3861502"><ele>1738.0</ele><time>2026-04-26T11:17:05.638Z</time></trkpt><trkpt lat="44.2966792" lon="10.3860798"><ele>1738.0</ele><time>2026-04-26T11:17:23.638Z</time></trkpt><trkpt lat="44.2967239" lon="10.3860022"><ele>1738.0</ele><time>2026-04-26T11:17:33.642Z</time></trkpt><trkpt lat="44.2967856" lon="10.3859679"><ele>1738.0</ele><time>2026-04-26T11:17:39.657Z</time></trkpt><trkpt lat="44.2968439" lon="10.3859166"><ele>1738.0</ele><time>2026-04-26T11:17:49.642Z</time></trkpt><trkpt lat="44.296888" lon="10.3859819"><ele>1738.0</ele><time>2026-04-26T11:18:36.636Z</time></trkpt><trkpt lat="44.2968873" lon="10.3860819"><ele>1738.0</ele><time>2026-04-26T11:20:53.635Z</time></trkpt><trkpt lat="44.2969278" lon="10.3861623"><ele>1738.0</ele><time>2026-04-26T11:20:58.639Z</time></trkpt><trkpt lat="44.2969615" lon="10.3862502"><ele>1738.0</ele><time>2026-04-26T11:21:03.638Z</time></trkpt><trkpt lat="44.2970048" lon="10.3863263"><ele>1738.0</ele><time>2026-04-26T11:21:09.637Z</time></trkpt><trkpt lat="44.2970475" lon="10.3864104"><ele>1738.0</ele><time>2026-04-26T11:21:17.638Z</time></trkpt><trkpt lat="44.2970842" lon="10.3864971"><ele>1738.0</ele><time>2026-04-26T11:21:27.643Z</time></trkpt><trkpt lat="44.2970996" lon="10.3865938"><ele>1738.0</ele><time>2026-04-26T11:21:36.639Z</time></trkpt><trkpt lat="44.2971262" lon="10.3866755"><ele>1738.0</ele><time>2026-04-26T11:21:43.639Z</time></trkpt><trkpt lat="44.2971396" lon="10.3867761"><ele>1738.0</ele><time>2026-04-26T11:21:50.637Z</time></trkpt><trkpt lat="44.2971784" lon="10.386858"><ele>1738.5714285714287</ele><time>2026-04-26T11:21:58.637Z</time></trkpt><trkpt lat="44.2972024" lon="10.3869485"><ele>1739.142857142857</ele><time>2026-04-26T11:22:04.638Z</time></trkpt><trkpt lat="44.2972167" lon="10.3870367"><ele>1739.7142857142858</ele><time>2026-04-26T11:22:22.645Z</time></trkpt><trkpt lat="44.2972765" lon="10.3870999"><ele>1740.2857142857142</ele><time>2026-04-26T11:22:59.637Z</time></trkpt><trkpt lat="44.2973366" lon="10.3871376"><ele>1740.8571428571427</ele><time>2026-04-26T11:23:06.639Z</time></trkpt><trkpt lat="44.2973672" lon="10.3872192"><ele>1741.4285714285713</ele><time>2026-04-26T11:23:16.658Z</time></trkpt><trkpt lat="44.2973445" lon="10.3873121"><ele>1742.0</ele><time>2026-04-26T11:23:26.645Z</time></trkpt><trkpt lat="44.2973174" lon="10.3873939"><ele>1742.0</ele><time>2026-04-26T11:23:35.636Z</time></trkpt><trkpt lat="44.29738" lon="10.3874298"><ele>1742.0</ele><time>2026-04-26T11:23:48.655Z</time></trkpt><trkpt lat="44.2974459" lon="10.387466"><ele>1742.0</ele><time>2026-04-26T11:23:57.639Z</time></trkpt><trkpt lat="44.2975078" lon="10.3874991"><ele>1742.0</ele><time>2026-04-26T11:24:04.638Z</time></trkpt><trkpt lat="44.2975655" lon="10.3875654"><ele>1742.0</ele><time>2026-04-26T11:24:12.639Z</time></trkpt><trkpt lat="44.2976264" lon="10.3876078"><ele>1742.0</ele><time>2026-04-26T11:24:20.64Z</time></trkpt><trkpt lat="44.2976948" lon="10.3876247"><ele>1742.0</ele><time>2026-04-26T11:24:26.64Z</time></trkpt><trkpt lat="44.2977641" lon="10.3876461"><ele>1742.0</ele><time>2026-04-26T11:24:35.639Z</time></trkpt><trkpt lat="44.29782" lon="10.3876884"><ele>1742.0</ele><time>2026-04-26T11:24:41.643Z</time></trkpt><trkpt lat="44.2978633" lon="10.3877539"><ele>1742.0</ele><time>2026-04-26T11:24:47.657Z</time></trkpt><trkpt lat="44.2979046" lon="10.387823"><ele>1742.0</ele><time>2026-04-26T11:24:56.639Z</time></trkpt><trkpt lat="44.2979145" lon="10.3879169"><ele>1742.0</ele><time>2026-04-26T11:25:03.639Z</time></trkpt><trkpt lat="44.2979121" lon="10.3880083"><ele>1742.0</ele><time>2026-04-26T11:26:21.646Z</time></trkpt><trkpt lat="44.2978583" lon="10.3880609"><ele>1742.0</ele><time>2026-04-26T11:26:37.642Z</time></trkpt><trkpt lat="44.2977961" lon="10.3881206"><ele>1745.7142857142858</ele><time>2026-04-26T11:26:57.639Z</time></trkpt><trkpt lat="44.2977377" lon="10.3881835"><ele>1749.4285714285713</ele><time>2026-04-26T11:28:03.637Z</time></trkpt><trkpt lat="44.2977029" lon="10.3882596"><ele>1753.1428571428573</ele><time>2026-04-26T11:28:12.657Z</time></trkpt><trkpt lat="44.2976726" lon="10.3883879"><ele>1756.857142857143</ele><time>2026-04-26T11:28:36.651Z</time></trkpt><trkpt lat="44.2976452" lon="10.3884683"><ele>1760.5714285714287</ele><time>2026-04-26T11:28:51.639Z</time></trkpt><trkpt lat="44.2976401" lon="10.3885562"><ele>1764.2857142857144</ele><time>2026-04-26T11:29:21.639Z</time></trkpt><trkpt lat="44.2976082" lon="10.3886354"><ele>1768.0</ele><time>2026-04-26T11:29:34.638Z</time></trkpt><trkpt lat="44.2976089" lon="10.3887271"><ele>1768.0000000000002</ele><time>2026-04-26T11:29:41.637Z</time></trkpt><trkpt lat="44.2976507" lon="10.388795"><ele>1768.0</ele><time>2026-04-26T11:29:49.654Z</time></trkpt><trkpt lat="44.2977086" lon="10.3888414"><ele>1768.0</ele><time>2026-04-26T11:30:00.644Z</time></trkpt><trkpt lat="44.2978265" lon="10.3887978"><ele>1768.0</ele><time>2026-04-26T11:30:40.658Z</time></trkpt><trkpt lat="44.2978845" lon="10.3888461"><ele>1768.0</ele><time>2026-04-26T11:30:45.639Z</time></trkpt><trkpt lat="44.297943" lon="10.3888788"><ele>1768.0000000000002</ele><time>2026-04-26T11:30:51.639Z</time></trkpt><trkpt lat="44.2980083" lon="10.3888864"><ele>1768.0</ele><time>2026-04-26T11:31:04.638Z</time></trkpt><trkpt lat="44.2979673" lon="10.3888045"><ele>1768.0000000000002</ele><time>2026-04-26T11:31:34.638Z</time></trkpt><trkpt lat="44.2979317" lon="10.3886284"><ele>1768.0</ele><time>2026-04-26T11:32:20.638Z</time></trkpt><trkpt lat="44.2979211" lon="10.3884989"><ele>1768.0</ele><time>2026-04-26T11:32:41.638Z</time></trkpt><trkpt lat="44.2979562" lon="10.3884248"><ele>1768.0</ele><time>2026-04-26T11:33:05.638Z</time></trkpt><trkpt lat="44.2979655" lon="10.3883125"><ele>1768.0000000000002</ele><time>2026-04-26T11:34:24.647Z</time></trkpt><trkpt lat="44.2979637" lon="10.3882243"><ele>1768.0</ele><time>2026-04-26T11:34:35.639Z</time></trkpt><trkpt lat="44.2979992" lon="10.3882984"><ele>1768.0000000000002</ele><time>2026-04-26T11:35:53.635Z</time></trkpt><trkpt lat="44.2980538" lon="10.3883577"><ele>1768.0</ele><time>2026-04-26T11:35:56.636Z</time></trkpt><trkpt lat="44.298126" lon="10.3883493"><ele>1768.0</ele><time>2026-04-26T11:36:05.639Z</time></trkpt><trkpt lat="44.2981942" lon="10.3883527"><ele>1768.0</ele><time>2026-04-26T11:36:15.637Z</time></trkpt><trkpt lat="44.2982274" lon="10.3884463"><ele>1768.0</ele><time>2026-04-26T11:36:30.636Z</time></trkpt><trkpt lat="44.2982606" lon="10.3885237"><ele>1768.0000000000002</ele><time>2026-04-26T11:36:36.637Z</time></trkpt><trkpt lat="44.2982856" lon="10.3886087"><ele>1768.0</ele><time>2026-04-26T11:36:44.638Z</time></trkpt><trkpt lat="44.2982788" lon="10.3886971"><ele>1767.2857142857144</ele><time>2026-04-26T11:36:54.637Z</time></trkpt><trkpt lat="44.2982655" lon="10.38879"><ele>1766.5714285714287</ele><time>2026-04-26T11:37:03.637Z</time></trkpt><trkpt lat="44.2982997" lon="10.3889091"><ele>1765.857142857143</ele><time>2026-04-26T11:37:31.639Z</time></trkpt><trkpt lat="44.2983226" lon="10.3890024"><ele>1765.1428571428573</ele><time>2026-04-26T11:37:37.64Z</time></trkpt><trkpt lat="44.2983632" lon="10.3890779"><ele>1764.4285714285713</ele><time>2026-04-26T11:37:44.641Z</time></trkpt><trkpt lat="44.298432" lon="10.3891117"><ele>1763.7142857142858</ele><time>2026-04-26T11:37:53.639Z</time></trkpt><trkpt lat="44.2984908" lon="10.3891717"><ele>1763.0</ele><time>2026-04-26T11:38:07.64Z</time></trkpt><trkpt lat="44.298486" lon="10.38927"><ele>1762.9999999999998</ele><time>2026-04-26T11:38:16.641Z</time></trkpt><trkpt lat="44.2985036" lon="10.38936"><ele>1763.0</ele><time>2026-04-26T11:38:24.638Z</time></trkpt><trkpt lat="44.2985095" lon="10.3894491"><ele>1763.0</ele><time>2026-04-26T11:38:30.64Z</time></trkpt><trkpt lat="44.2985098" lon="10.3895452"><ele>1763.0</ele><time>2026-04-26T11:38:37.639Z</time></trkpt><trkpt lat="44.2986296" lon="10.3895875"><ele>1762.9999999999998</ele><time>2026-04-26T11:39:27.654Z</time></trkpt><trkpt lat="44.2986933" lon="10.3895979"><ele>1763.0</ele><time>2026-04-26T11:39:31.638Z</time></trkpt><trkpt lat="44.2987687" lon="10.3895975"><ele>1763.0</ele><time>2026-04-26T11:39:38.641Z</time></trkpt><trkpt lat="44.2988316" lon="10.389613"><ele>1763.0</ele><time>2026-04-26T11:39:45.669Z</time></trkpt><trkpt lat="44.2989029" lon="10.3896231"><ele>1763.0</ele><time>2026-04-26T11:39:52.641Z</time></trkpt><trkpt lat="44.2989748" lon="10.3896354"><ele>1763.0</ele><time>2026-04-26T11:39:59.644Z</time></trkpt><trkpt lat="44.299037" lon="10.3896566"><ele>1763.0</ele><time>2026-04-26T11:40:04.654Z</time></trkpt><trkpt lat="44.2991029" lon="10.3896702"><ele>1763.0</ele><time>2026-04-26T11:40:11.637Z</time></trkpt><trkpt lat="44.2991642" lon="10.3896453"><ele>1763.0</ele><time>2026-04-26T11:40:16.637Z</time></trkpt><trkpt lat="44.2992236" lon="10.3896063"><ele>1761.5714285714284</ele><time>2026-04-26T11:40:23.64Z</time></trkpt><trkpt lat="44.2992941" lon="10.3895856"><ele>1760.142857142857</ele><time>2026-04-26T11:40:31.638Z</time></trkpt><trkpt lat="44.2993665" lon="10.389572"><ele>1758.7142857142858</ele><time>2026-04-26T11:40:37.639Z</time></trkpt><trkpt lat="44.2994296" lon="10.3895425"><ele>1757.2857142857142</ele><time>2026-04-26T11:40:43.657Z</time></trkpt><trkpt lat="44.2994925" lon="10.3895359"><ele>1755.857142857143</ele><time>2026-04-26T11:40:50.639Z</time></trkpt><trkpt lat="44.2995523" lon="10.3895801"><ele>1754.4285714285713</ele><time>2026-04-26T11:40:59.652Z</time></trkpt><trkpt lat="44.2996179" lon="10.3895781"><ele>1753.0</ele><time>2026-04-26T11:41:14.64Z</time></trkpt><trkpt lat="44.2996929" lon="10.3895948"><ele>1752.9999999999998</ele><time>2026-04-26T11:41:25.638Z</time></trkpt><trkpt lat="44.2997703" lon="10.3895875"><ele>1753.0</ele><time>2026-04-26T11:41:41.635Z</time></trkpt><trkpt lat="44.29983" lon="10.3895433"><ele>1753.0</ele><time>2026-04-26T11:41:49.636Z</time></trkpt><trkpt lat="44.2998555" lon="10.3894509"><ele>1753.0</ele><time>2026-04-26T11:41:56.636Z</time></trkpt><trkpt lat="44.2999011" lon="10.3893803"><ele>1753.0</ele><time>2026-04-26T11:42:06.638Z</time></trkpt><trkpt lat="44.2999675" lon="10.3893351"><ele>1752.9999999999998</ele><time>2026-04-26T11:42:11.639Z</time></trkpt><trkpt lat="44.3000388" lon="10.3893046"><ele>1753.0</ele><time>2026-04-26T11:42:17.644Z</time></trkpt><trkpt lat="44.3001095" lon="10.3892897"><ele>1752.9999999999998</ele><time>2026-04-26T11:42:24.644Z</time></trkpt><trkpt lat="44.3001911" lon="10.3893061"><ele>1753.0</ele><time>2026-04-26T11:42:59.638Z</time></trkpt><trkpt lat="44.300261" lon="10.3893239"><ele>1753.0</ele><time>2026-04-26T11:43:04.639Z</time></trkpt><trkpt lat="44.3003262" lon="10.389325"><ele>1753.0</ele><time>2026-04-26T11:43:10.639Z</time></trkpt><trkpt lat="44.3003874" lon="10.3892908"><ele>1753.0</ele><time>2026-04-26T11:43:16.637Z</time></trkpt><trkpt lat="44.3004439" lon="10.3892432"><ele>1752.9999999999998</ele><time>2026-04-26T11:43:21.639Z</time></trkpt><trkpt lat="44.3005139" lon="10.3891973"><ele>1753.0</ele><time>2026-04-26T11:43:27.639Z</time></trkpt><trkpt lat="44.3005686" lon="10.389147"><ele>1752.5714285714284</ele><time>2026-04-26T11:43:32.651Z</time></trkpt><trkpt lat="44.3006237" lon="10.3890821"><ele>1752.142857142857</ele><time>2026-04-26T11:43:38.66Z</time></trkpt><trkpt lat="44.3006732" lon="10.3890108"><ele>1751.7142857142858</ele><time>2026-04-26T11:43:44.656Z</time></trkpt><trkpt lat="44.3006862" lon="10.3889154"><ele>1751.2857142857142</ele><time>2026-04-26T11:43:50.679Z</time></trkpt><trkpt lat="44.3007252" lon="10.3888429"><ele>1750.857142857143</ele><time>2026-04-26T11:44:22.638Z</time></trkpt><trkpt lat="44.3007666" lon="10.3887522"><ele>1750.4285714285713</ele><time>2026-04-26T11:44:29.645Z</time></trkpt><trkpt lat="44.3008169" lon="10.3886889"><ele>1750.0</ele><time>2026-04-26T11:44:34.638Z</time></trkpt><trkpt lat="44.3008671" lon="10.3886178"><ele>1750.0</ele><time>2026-04-26T11:44:40.638Z</time></trkpt><trkpt lat="44.3009201" lon="10.3885617"><ele>1750.0</ele><time>2026-04-26T11:44:46.639Z</time></trkpt><trkpt lat="44.3009763" lon="10.3885014"><ele>1750.0</ele><time>2026-04-26T11:44:53.638Z</time></trkpt><trkpt lat="44.3010411" lon="10.3884466"><ele>1750.0</ele><time>2026-04-26T11:44:59.646Z</time></trkpt><trkpt lat="44.301088" lon="10.3883744"><ele>1750.0</ele><time>2026-04-26T11:45:05.639Z</time></trkpt><trkpt lat="44.3011278" lon="10.3882962"><ele>1750.0</ele><time>2026-04-26T11:45:11.649Z</time></trkpt><trkpt lat="44.301171" lon="10.3882202"><ele>1750.0</ele><time>2026-04-26T11:45:17.638Z</time></trkpt><trkpt lat="44.3012068" lon="10.3881467"><ele>1750.0</ele><time>2026-04-26T11:45:23.64Z</time></trkpt><trkpt lat="44.3012343" lon="10.388067"><ele>1750.0</ele><time>2026-04-26T11:45:29.639Z</time></trkpt><trkpt lat="44.3012132" lon="10.3879748"><ele>1750.0</ele><time>2026-04-26T11:45:39.679Z</time></trkpt><trkpt lat="44.3012498" lon="10.3879025"><ele>1750.0</ele><time>2026-04-26T11:45:46.64Z</time></trkpt><trkpt lat="44.3012845" lon="10.3878104"><ele>1750.0</ele><time>2026-04-26T11:46:10.641Z</time></trkpt><trkpt lat="44.3012521" lon="10.3877249"><ele>1750.0</ele><time>2026-04-26T11:46:16.642Z</time></trkpt><trkpt lat="44.3012725" lon="10.3876264"><ele>1750.0</ele><time>2026-04-26T11:46:24.645Z</time></trkpt><trkpt lat="44.3013148" lon="10.3875515"><ele>1749.142857142857</ele><time>2026-04-26T11:46:29.652Z</time></trkpt><trkpt lat="44.3013898" lon="10.3874743"><ele>1748.2857142857142</ele><time>2026-04-26T11:47:04.637Z</time></trkpt><trkpt lat="44.3014651" lon="10.3874516"><ele>1747.4285714285716</ele><time>2026-04-26T11:47:13.636Z</time></trkpt><trkpt lat="44.3015288" lon="10.3874372"><ele>1746.5714285714284</ele><time>2026-04-26T11:47:20.639Z</time></trkpt><trkpt lat="44.3015696" lon="10.3873611"><ele>1745.7142857142858</ele><time>2026-04-26T11:47:28.646Z</time></trkpt><trkpt lat="44.301628" lon="10.3873175"><ele>1744.857142857143</ele><time>2026-04-26T11:47:37.658Z</time></trkpt><trkpt lat="44.3016682" lon="10.3872496"><ele>1744.0</ele><time>2026-04-26T11:47:45.644Z</time></trkpt><trkpt lat="44.3017059" lon="10.3871727"><ele>1746.142857142857</ele><time>2026-04-26T11:47:55.638Z</time></trkpt><trkpt lat="44.3017367" lon="10.3870868"><ele>1748.2857142857142</ele><time>2026-04-26T11:48:04.638Z</time></trkpt><trkpt lat="44.3018053" lon="10.3871402"><ele>1750.4285714285716</ele><time>2026-04-26T11:48:36.635Z</time></trkpt><trkpt lat="44.3018712" lon="10.387139"><ele>1752.5714285714284</ele><time>2026-04-26T11:48:43.635Z</time></trkpt><trkpt lat="44.3019419" lon="10.3871076"><ele>1754.7142857142856</ele><time>2026-04-26T11:48:52.636Z</time></trkpt><trkpt lat="44.3020089" lon="10.3870635"><ele>1756.857142857143</ele><time>2026-04-26T11:48:58.635Z</time></trkpt><trkpt lat="44.3020706" lon="10.3870219"><ele>1759.0</ele><time>2026-04-26T11:49:03.635Z</time></trkpt><trkpt lat="44.3021371" lon="10.3869832"><ele>1759.0</ele><time>2026-04-26T11:49:12.638Z</time></trkpt><trkpt lat="44.3021944" lon="10.3869237"><ele>1759.0</ele><time>2026-04-26T11:49:20.669Z</time></trkpt><trkpt lat="44.3022565" lon="10.3868814"><ele>1759.0</ele><time>2026-04-26T11:49:25.639Z</time></trkpt><trkpt lat="44.3023218" lon="10.3868536"><ele>1759.0</ele><time>2026-04-26T11:49:33.637Z</time></trkpt><trkpt lat="44.3023793" lon="10.386806"><ele>1759.0</ele><time>2026-04-26T11:49:38.639Z</time></trkpt><trkpt lat="44.3024507" lon="10.3867812"><ele>1759.0</ele><time>2026-04-26T11:49:45.637Z</time></trkpt><trkpt lat="44.3025362" lon="10.3867524"><ele>1759.0</ele><time>2026-04-26T11:50:29.634Z</time></trkpt><trkpt lat="44.3026137" lon="10.3867549"><ele>1758.857142857143</ele><time>2026-04-26T11:50:44.634Z</time></trkpt><trkpt lat="44.3026808" lon="10.3867817"><ele>1758.7142857142856</ele><time>2026-04-26T11:50:51.634Z</time></trkpt><trkpt lat="44.3027513" lon="10.3867822"><ele>1758.5714285714284</ele><time>2026-04-26T11:50:58.659Z</time></trkpt><trkpt lat="44.3028108" lon="10.3868244"><ele>1758.4285714285716</ele><time>2026-04-26T11:51:05.638Z</time></trkpt><trkpt lat="44.3028077" lon="10.3869179"><ele>1758.2857142857142</ele><time>2026-04-26T11:51:17.637Z</time></trkpt><trkpt lat="44.3028667" lon="10.3869713"><ele>1758.142857142857</ele><time>2026-04-26T11:51:25.681Z</time></trkpt><trkpt lat="44.302931" lon="10.3869926"><ele>1758.0</ele><time>2026-04-26T11:51:33.637Z</time></trkpt><trkpt lat="44.3029873" lon="10.3870464"><ele>1758.0</ele><time>2026-04-26T11:51:56.649Z</time></trkpt><trkpt lat="44.303041" lon="10.3871019"><ele>1758.0</ele><time>2026-04-26T11:52:03.639Z</time></trkpt><trkpt lat="44.3031053" lon="10.3871339"><ele>1758.0</ele><time>2026-04-26T11:52:08.64Z</time></trkpt><trkpt lat="44.303175" lon="10.387157"><ele>1758.0</ele><time>2026-04-26T11:52:13.64Z</time></trkpt><trkpt lat="44.3032389" lon="10.3872085"><ele>1758.0</ele><time>2026-04-26T11:52:22.639Z</time></trkpt><trkpt lat="44.3033006" lon="10.3872357"><ele>1758.0</ele><time>2026-04-26T11:52:27.64Z</time></trkpt><trkpt lat="44.3033723" lon="10.3872239"><ele>1758.0</ele><time>2026-04-26T11:52:33.636Z</time></trkpt><trkpt lat="44.3034386" lon="10.3872205"><ele>1757.4285714285716</ele><time>2026-04-26T11:52:40.637Z</time></trkpt><trkpt lat="44.3034935" lon="10.3872748"><ele>1756.857142857143</ele><time>2026-04-26T11:52:46.641Z</time></trkpt><trkpt lat="44.3035619" lon="10.3872969"><ele>1756.2857142857142</ele><time>2026-04-26T11:52:52.638Z</time></trkpt><trkpt lat="44.3036036" lon="10.3873638"><ele>1755.7142857142858</ele><time>2026-04-26T11:53:00.637Z</time></trkpt><trkpt lat="44.3036299" lon="10.3874438"><ele>1755.142857142857</ele><time>2026-04-26T11:53:06.662Z</time></trkpt><trkpt lat="44.3036728" lon="10.3875218"><ele>1754.5714285714287</ele><time>2026-04-26T11:53:13.649Z</time></trkpt><trkpt lat="44.3037193" lon="10.3875916"><ele>1754.0</ele><time>2026-04-26T11:53:19.666Z</time></trkpt><trkpt lat="44.3037232" lon="10.3876902"><ele>1754.0000000000002</ele><time>2026-04-26T11:53:25.639Z</time></trkpt><trkpt lat="44.3037498" lon="10.3877727"><ele>1754.0</ele><time>2026-04-26T11:53:31.652Z</time></trkpt><trkpt lat="44.3037762" lon="10.3878599"><ele>1754.0</ele><time>2026-04-26T11:53:37.639Z</time></trkpt><trkpt lat="44.303808" lon="10.387948"><ele>1754.0</ele><time>2026-04-26T11:53:45.638Z</time></trkpt><trkpt lat="44.3038237" lon="10.3880339"><ele>1754.0</ele><time>2026-04-26T11:53:50.638Z</time></trkpt><trkpt lat="44.3038558" lon="10.3881139"><ele>1754.0000000000002</ele><time>2026-04-26T11:53:57.639Z</time></trkpt><trkpt lat="44.3038688" lon="10.3882063"><ele>1754.0</ele><time>2026-04-26T11:54:03.638Z</time></trkpt><trkpt lat="44.3038624" lon="10.3882992"><ele>1753.857142857143</ele><time>2026-04-26T11:54:09.656Z</time></trkpt><trkpt lat="44.3038612" lon="10.3883908"><ele>1753.7142857142858</ele><time>2026-04-26T11:54:16.637Z</time></trkpt><trkpt lat="44.3038678" lon="10.3884808"><ele>1753.5714285714284</ele><time>2026-04-26T11:54:22.639Z</time></trkpt><trkpt lat="44.3038731" lon="10.3885886"><ele>1753.4285714285716</ele><time>2026-04-26T11:54:29.639Z</time></trkpt><trkpt lat="44.3038655" lon="10.3886782"><ele>1753.2857142857142</ele><time>2026-04-26T11:54:35.676Z</time></trkpt><trkpt lat="44.3038615" lon="10.388769"><ele>1753.142857142857</ele><time>2026-04-26T11:54:41.638Z</time></trkpt><trkpt lat="44.3038648" lon="10.3888674"><ele>1753.0</ele><time>2026-04-26T11:54:47.638Z</time></trkpt><trkpt lat="44.3038588" lon="10.3889636"><ele>1752.9999999999998</ele><time>2026-04-26T11:54:53.637Z</time></trkpt><trkpt lat="44.3038331" lon="10.3890452"><ele>1753.0</ele><time>2026-04-26T11:54:59.639Z</time></trkpt><trkpt lat="44.3038134" lon="10.3891353"><ele>1753.0</ele><time>2026-04-26T11:55:05.658Z</time></trkpt><trkpt lat="44.303797" lon="10.3892215"><ele>1753.0</ele><time>2026-04-26T11:55:10.637Z</time></trkpt><trkpt lat="44.3037769" lon="10.3893191"><ele>1753.0</ele><time>2026-04-26T11:55:16.639Z</time></trkpt><trkpt lat="44.3037718" lon="10.3894113"><ele>1752.9999999999998</ele><time>2026-04-26T11:55:22.637Z</time></trkpt><trkpt lat="44.3037601" lon="10.3895099"><ele>1753.0</ele><time>2026-04-26T11:55:28.637Z</time></trkpt><trkpt lat="44.3037551" lon="10.3896027"><ele>1751.4285714285713</ele><time>2026-04-26T11:55:34.639Z</time></trkpt><trkpt lat="44.3037418" lon="10.389694"><ele>1749.857142857143</ele><time>2026-04-26T11:55:40.638Z</time></trkpt><trkpt lat="44.3037355" lon="10.3897885"><ele>1748.2857142857142</ele><time>2026-04-26T11:55:47.65Z</time></trkpt><trkpt lat="44.3037073" lon="10.3898769"><ele>1746.7142857142858</ele><time>2026-04-26T11:55:53.638Z</time></trkpt><trkpt lat="44.3036532" lon="10.3899354"><ele>1745.142857142857</ele><time>2026-04-26T11:55:59.636Z</time></trkpt><trkpt lat="44.3036067" lon="10.3900076"><ele>1743.5714285714284</ele><time>2026-04-26T11:56:06.646Z</time></trkpt><trkpt lat="44.3035515" lon="10.3900636"><ele>1742.0</ele><time>2026-04-26T11:56:13.642Z</time></trkpt><trkpt lat="44.3035031" lon="10.3901287"><ele>1742.0</ele><time>2026-04-26T11:56:19.643Z</time></trkpt><trkpt lat="44.3034624" lon="10.3902161"><ele>1742.0</ele><time>2026-04-26T11:56:26.684Z</time></trkpt><trkpt lat="44.3034198" lon="10.3902898"><ele>1742.0</ele><time>2026-04-26T11:56:33.659Z</time></trkpt><trkpt lat="44.3033808" lon="10.390367"><ele>1742.0</ele><time>2026-04-26T11:56:41.685Z</time></trkpt><trkpt lat="44.3033369" lon="10.3904386"><ele>1742.0</ele><time>2026-04-26T11:56:50.637Z</time></trkpt><trkpt lat="44.3032944" lon="10.3905195"><ele>1742.0</ele><time>2026-04-26T11:56:58.637Z</time></trkpt><trkpt lat="44.3032535" lon="10.3905872"><ele>1742.0</ele><time>2026-04-26T11:57:04.7Z</time></trkpt><trkpt lat="44.3032172" lon="10.3906677"><ele>1740.2857142857142</ele><time>2026-04-26T11:57:13.647Z</time></trkpt><trkpt lat="44.3031798" lon="10.3907429"><ele>1738.5714285714284</ele><time>2026-04-26T11:57:20.65Z</time></trkpt><trkpt lat="44.3031354" lon="10.3908229"><ele>1736.857142857143</ele><time>2026-04-26T11:57:28.641Z</time></trkpt><trkpt lat="44.3030901" lon="10.3908933"><ele>1735.142857142857</ele><time>2026-04-26T11:57:34.637Z</time></trkpt><trkpt lat="44.3030387" lon="10.3909646"><ele>1733.4285714285716</ele><time>2026-04-26T11:57:42.639Z</time></trkpt><trkpt lat="44.3029884" lon="10.3910284"><ele>1731.7142857142858</ele><time>2026-04-26T11:57:51.637Z</time></trkpt><trkpt lat="44.302931" lon="10.3910827"><ele>1730.0</ele><time>2026-04-26T11:57:57.639Z</time></trkpt><trkpt lat="44.3028749" lon="10.3911437"><ele>1728.7142857142858</ele><time>2026-04-26T11:58:04.639Z</time></trkpt><trkpt lat="44.3028187" lon="10.3911958"><ele>1727.4285714285716</ele><time>2026-04-26T11:58:11.648Z</time></trkpt><trkpt lat="44.3027648" lon="10.3912455"><ele>1726.142857142857</ele><time>2026-04-26T11:58:17.671Z</time></trkpt><trkpt lat="44.3027114" lon="10.3913"><ele>1724.857142857143</ele><time>2026-04-26T11:58:24.656Z</time></trkpt><trkpt lat="44.302646" lon="10.3913496"><ele>1723.5714285714284</ele><time>2026-04-26T11:58:31.655Z</time></trkpt><trkpt lat="44.3026009" lon="10.391412"><ele>1722.2857142857142</ele><time>2026-04-26T11:58:37.689Z</time></trkpt><trkpt lat="44.3025574" lon="10.3914883"><ele>1721.0</ele><time>2026-04-26T11:58:43.64Z</time></trkpt><trkpt lat="44.3025153" lon="10.3915591"><ele>1719.7142857142858</ele><time>2026-04-26T11:58:50.639Z</time></trkpt><trkpt lat="44.3024558" lon="10.3916074"><ele>1718.4285714285713</ele><time>2026-04-26T11:58:58.641Z</time></trkpt><trkpt lat="44.3023936" lon="10.3915906"><ele>1717.1428571428573</ele><time>2026-04-26T11:59:09.638Z</time></trkpt><trkpt lat="44.3023271" lon="10.3915807"><ele>1715.857142857143</ele><time>2026-04-26T11:59:21.639Z</time></trkpt><trkpt lat="44.3022678" lon="10.3916719"><ele>1714.5714285714287</ele><time>2026-04-26T11:59:52.656Z</time></trkpt><trkpt lat="44.3022655" lon="10.3917691"><ele>1713.2857142857144</ele><time>2026-04-26T11:59:58.641Z</time></trkpt><trkpt lat="44.3022789" lon="10.3918667"><ele>1712.0</ele><time>2026-04-26T12:00:04.636Z</time></trkpt><trkpt lat="44.302313" lon="10.3919548"><ele>1712.0000000000002</ele><time>2026-04-26T12:00:12.637Z</time></trkpt><trkpt lat="44.3023707" lon="10.3920092"><ele>1712.0</ele><time>2026-04-26T12:00:19.636Z</time></trkpt><trkpt lat="44.3024216" lon="10.3920724"><ele>1712.0</ele><time>2026-04-26T12:00:25.639Z</time></trkpt><trkpt lat="44.3024542" lon="10.3921601"><ele>1712.0</ele><time>2026-04-26T12:00:30.663Z</time></trkpt><trkpt lat="44.302495" lon="10.3922369"><ele>1712.0</ele><time>2026-04-26T12:00:37.639Z</time></trkpt><trkpt lat="44.3025346" lon="10.3923225"><ele>1712.0000000000002</ele><time>2026-04-26T12:00:44.677Z</time></trkpt><trkpt lat="44.3025757" lon="10.3924053"><ele>1712.0</ele><time>2026-04-26T12:00:51.638Z</time></trkpt><trkpt lat="44.3026262" lon="10.3924631"><ele>1711.2857142857144</ele><time>2026-04-26T12:00:56.661Z</time></trkpt><trkpt lat="44.3026916" lon="10.3925147"><ele>1710.5714285714287</ele><time>2026-04-26T12:01:04.638Z</time></trkpt><trkpt lat="44.3027445" lon="10.392572"><ele>1709.857142857143</ele><time>2026-04-26T12:01:12.639Z</time></trkpt><trkpt lat="44.3028023" lon="10.3926241"><ele>1709.1428571428573</ele><time>2026-04-26T12:01:20.639Z</time></trkpt><trkpt lat="44.3028232" lon="10.3927158"><ele>1708.4285714285713</ele><time>2026-04-26T12:01:25.637Z</time></trkpt><trkpt lat="44.3028312" lon="10.3928122"><ele>1707.7142857142858</ele><time>2026-04-26T12:01:31.641Z</time></trkpt><trkpt lat="44.3028421" lon="10.392901"><ele>1707.0</ele><time>2026-04-26T12:01:36.675Z</time></trkpt><trkpt lat="44.3028412" lon="10.3930031"><ele>1706.2857142857142</ele><time>2026-04-26T12:01:43.638Z</time></trkpt><trkpt lat="44.302849" lon="10.3930968"><ele>1705.5714285714284</ele><time>2026-04-26T12:01:49.646Z</time></trkpt><trkpt lat="44.3028445" lon="10.3931996"><ele>1704.857142857143</ele><time>2026-04-26T12:01:56.641Z</time></trkpt><trkpt lat="44.3028307" lon="10.3932864"><ele>1704.142857142857</ele><time>2026-04-26T12:02:03.637Z</time></trkpt><trkpt lat="44.302847" lon="10.3933847"><ele>1703.4285714285716</ele><time>2026-04-26T12:02:13.638Z</time></trkpt><trkpt lat="44.302855" lon="10.3934882"><ele>1702.7142857142858</ele><time>2026-04-26T12:02:19.682Z</time></trkpt><trkpt lat="44.3028668" lon="10.3935748"><ele>1702.0</ele><time>2026-04-26T12:02:24.656Z</time></trkpt><trkpt lat="44.3028961" lon="10.3936557"><ele>1702.0</ele><time>2026-04-26T12:02:30.639Z</time></trkpt><trkpt lat="44.3029051" lon="10.3937488"><ele>1702.0</ele><time>2026-04-26T12:02:37.646Z</time></trkpt><trkpt lat="44.302941" lon="10.3938298"><ele>1702.0</ele><time>2026-04-26T12:02:44.638Z</time></trkpt><trkpt lat="44.3029663" lon="10.3939181"><ele>1702.0</ele><time>2026-04-26T12:02:54.635Z</time></trkpt><trkpt lat="44.3029734" lon="10.3940061"><ele>1702.0</ele><time>2026-04-26T12:03:02.635Z</time></trkpt><trkpt lat="44.3029979" lon="10.3941101"><ele>1702.0</ele><time>2026-04-26T12:03:08.642Z</time></trkpt><trkpt lat="44.3030102" lon="10.3942034"><ele>1702.0</ele><time>2026-04-26T12:03:15.637Z</time></trkpt><trkpt lat="44.303051" lon="10.3942786"><ele>1701.4285714285716</ele><time>2026-04-26T12:03:23.66Z</time></trkpt><trkpt lat="44.3030472" lon="10.3943726"><ele>1700.857142857143</ele><time>2026-04-26T12:03:29.642Z</time></trkpt><trkpt lat="44.3030399" lon="10.3944645"><ele>1700.2857142857142</ele><time>2026-04-26T12:03:36.638Z</time></trkpt><trkpt lat="44.3030246" lon="10.3945506"><ele>1699.7142857142858</ele><time>2026-04-26T12:03:41.637Z</time></trkpt><trkpt lat="44.303023" lon="10.3946507"><ele>1699.142857142857</ele><time>2026-04-26T12:03:49.692Z</time></trkpt><trkpt lat="44.3030722" lon="10.3947393"><ele>1698.5714285714287</ele><time>2026-04-26T12:04:00.635Z</time></trkpt><trkpt lat="44.3031183" lon="10.3948182"><ele>1698.0</ele><time>2026-04-26T12:04:08.637Z</time></trkpt><trkpt lat="44.3031646" lon="10.394896"><ele>1696.1428571428573</ele><time>2026-04-26T12:04:15.639Z</time></trkpt><trkpt lat="44.3032191" lon="10.3948412"><ele>1694.2857142857142</ele><time>2026-04-26T12:04:28.636Z</time></trkpt><trkpt lat="44.3032184" lon="10.3949382"><ele>1692.4285714285716</ele><time>2026-04-26T12:05:15.648Z</time></trkpt><trkpt lat="44.3032516" lon="10.3950254"><ele>1690.5714285714287</ele><time>2026-04-26T12:05:20.64Z</time></trkpt><trkpt lat="44.3032826" lon="10.3951054"><ele>1688.7142857142858</ele><time>2026-04-26T12:05:26.64Z</time></trkpt><trkpt lat="44.3033036" lon="10.3951903"><ele>1686.857142857143</ele><time>2026-04-26T12:05:32.642Z</time></trkpt><trkpt lat="44.3033194" lon="10.3952853"><ele>1685.0</ele><time>2026-04-26T12:05:38.65Z</time></trkpt><trkpt lat="44.3033629" lon="10.3953521"><ele>1685.0</ele><time>2026-04-26T12:05:44.65Z</time></trkpt><trkpt lat="44.3034184" lon="10.3954006"><ele>1685.0</ele><time>2026-04-26T12:05:49.64Z</time></trkpt><trkpt lat="44.3034772" lon="10.3954336"><ele>1685.0</ele><time>2026-04-26T12:05:54.659Z</time></trkpt><trkpt lat="44.3035383" lon="10.39548"><ele>1685.0</ele><time>2026-04-26T12:06:01.638Z</time></trkpt><trkpt lat="44.3036057" lon="10.3954871"><ele>1685.0</ele><time>2026-04-26T12:06:08.633Z</time></trkpt><trkpt lat="44.3036641" lon="10.3955489"><ele>1685.0</ele><time>2026-04-26T12:06:15.634Z</time></trkpt><trkpt lat="44.3037155" lon="10.3956026"><ele>1685.0</ele><time>2026-04-26T12:06:21.635Z</time></trkpt><trkpt lat="44.3037805" lon="10.3956612"><ele>1683.8333333333333</ele><time>2026-04-26T12:06:30.637Z</time></trkpt><trkpt lat="44.3038272" lon="10.395742"><ele>1682.6666666666665</ele><time>2026-04-26T12:06:34.637Z</time></trkpt><trkpt lat="44.3038709" lon="10.3958169"><ele>1681.5</ele><time>2026-04-26T12:06:38.639Z</time></trkpt><trkpt lat="44.3039213" lon="10.3958789"><ele>1680.3333333333335</ele><time>2026-04-26T12:06:43.638Z</time></trkpt><trkpt lat="44.3039706" lon="10.3959444"><ele>1679.1666666666667</ele><time>2026-04-26T12:06:51.665Z</time></trkpt><trkpt lat="44.3040338" lon="10.3960669"><ele>1678.0</ele><time>2026-04-26T12:07:11.648Z</time></trkpt><trkpt lat="44.3040651" lon="10.396149"><ele>1677.5714285714284</ele><time>2026-04-26T12:07:18.638Z</time></trkpt><trkpt lat="44.3040974" lon="10.3962399"><ele>1677.1428571428573</ele><time>2026-04-26T12:07:25.658Z</time></trkpt><trkpt lat="44.3040923" lon="10.396332"><ele>1676.7142857142858</ele><time>2026-04-26T12:07:32.64Z</time></trkpt><trkpt lat="44.3040843" lon="10.3964205"><ele>1676.2857142857142</ele><time>2026-04-26T12:07:38.641Z</time></trkpt><trkpt lat="44.3040658" lon="10.396517"><ele>1675.8571428571427</ele><time>2026-04-26T12:07:47.638Z</time></trkpt><trkpt lat="44.3040449" lon="10.3966156"><ele>1675.4285714285716</ele><time>2026-04-26T12:07:54.634Z</time></trkpt><trkpt lat="44.304011" lon="10.3967146"><ele>1675.0</ele><time>2026-04-26T12:08:04.634Z</time></trkpt><trkpt lat="44.3039906" lon="10.3968026"><ele>1674.0000000000002</ele><time>2026-04-26T12:08:11.634Z</time></trkpt><trkpt lat="44.303992" lon="10.396903"><ele>1673.0</ele><time>2026-04-26T12:08:18.634Z</time></trkpt><trkpt lat="44.3039853" lon="10.3969938"><ele>1672.0</ele><time>2026-04-26T12:08:26.634Z</time></trkpt><trkpt lat="44.3039504" lon="10.397138"><ele>1671.0</ele><time>2026-04-26T12:09:10.635Z</time></trkpt><trkpt lat="44.3039503" lon="10.3972358"><ele>1670.0000000000002</ele><time>2026-04-26T12:09:17.633Z</time></trkpt><trkpt lat="44.3039495" lon="10.3973411"><ele>1669.0</ele><time>2026-04-26T12:09:25.635Z</time></trkpt><trkpt lat="44.3039823" lon="10.3974662"><ele>1668.2857142857142</ele><time>2026-04-26T12:09:58.634Z</time></trkpt><trkpt lat="44.3039722" lon="10.3975646"><ele>1667.5714285714284</ele><time>2026-04-26T12:10:05.634Z</time></trkpt><trkpt lat="44.3039716" lon="10.3976541"><ele>1666.8571428571427</ele><time>2026-04-26T12:10:11.634Z</time></trkpt><trkpt lat="44.3039741" lon="10.3977443"><ele>1666.142857142857</ele><time>2026-04-26T12:10:17.645Z</time></trkpt><trkpt lat="44.303976" lon="10.3978426"><ele>1665.4285714285716</ele><time>2026-04-26T12:10:23.638Z</time></trkpt><trkpt lat="44.3039983" lon="10.3979278"><ele>1664.7142857142856</ele><time>2026-04-26T12:10:30.638Z</time></trkpt><trkpt lat="44.3040298" lon="10.3980044"><ele>1664.0</ele><time>2026-04-26T12:10:35.638Z</time></trkpt><trkpt lat="44.3040651" lon="10.398088"><ele>1663.0</ele><time>2026-04-26T12:10:41.637Z</time></trkpt><trkpt lat="44.304096" lon="10.3981655"><ele>1662.0</ele><time>2026-04-26T12:10:47.638Z</time></trkpt><trkpt lat="44.304132" lon="10.3982415"><ele>1661.0</ele><time>2026-04-26T12:10:54.638Z</time></trkpt><trkpt lat="44.304157" lon="10.3983383"><ele>1660.0</ele><time>2026-04-26T12:11:01.648Z</time></trkpt><trkpt lat="44.3041928" lon="10.3984213"><ele>1659.0</ele><time>2026-04-26T12:11:06.638Z</time></trkpt><trkpt lat="44.3042207" lon="10.3985037"><ele>1658.0</ele><time>2026-04-26T12:11:11.64Z</time></trkpt><trkpt lat="44.304255" lon="10.398584"><ele>1657.0</ele><time>2026-04-26T12:11:16.638Z</time></trkpt><trkpt lat="44.3042863" lon="10.3986779"><ele>1657.0</ele><time>2026-04-26T12:11:23.635Z</time></trkpt><trkpt lat="44.3043329" lon="10.3987525"><ele>1657.0</ele><time>2026-04-26T12:11:29.634Z</time></trkpt><trkpt lat="44.3043806" lon="10.3988204"><ele>1657.0</ele><time>2026-04-26T12:11:35.634Z</time></trkpt><trkpt lat="44.3044127" lon="10.3988974"><ele>1657.0</ele><time>2026-04-26T12:11:48.635Z</time></trkpt><trkpt lat="44.3044011" lon="10.3989901"><ele>1657.0</ele><time>2026-04-26T12:12:02.634Z</time></trkpt><trkpt lat="44.3044652" lon="10.3990508"><ele>1657.0</ele><time>2026-04-26T12:12:09.637Z</time></trkpt><trkpt lat="44.3045374" lon="10.399094"><ele>1657.0</ele><time>2026-04-26T12:12:16.637Z</time></trkpt><trkpt lat="44.304593" lon="10.3991362"><ele>1656.7142857142856</ele><time>2026-04-26T12:12:22.638Z</time></trkpt><trkpt lat="44.3046591" lon="10.3991712"><ele>1656.4285714285716</ele><time>2026-04-26T12:12:27.637Z</time></trkpt><trkpt lat="44.3047183" lon="10.3992034"><ele>1656.142857142857</ele><time>2026-04-26T12:12:33.64Z</time></trkpt><trkpt lat="44.3047878" lon="10.3992523"><ele>1655.8571428571427</ele><time>2026-04-26T12:12:38.659Z</time></trkpt><trkpt lat="44.3048484" lon="10.3992964"><ele>1655.5714285714284</ele><time>2026-04-26T12:12:43.653Z</time></trkpt><trkpt lat="44.3049008" lon="10.3993472"><ele>1655.2857142857142</ele><time>2026-04-26T12:12:48.648Z</time></trkpt><trkpt lat="44.3049711" lon="10.3993946"><ele>1655.0</ele><time>2026-04-26T12:12:54.689Z</time></trkpt><trkpt lat="44.3050309" lon="10.3994234"><ele>1654.9999999999998</ele><time>2026-04-26T12:12:59.638Z</time></trkpt><trkpt lat="44.3050828" lon="10.3994886"><ele>1655.0</ele><time>2026-04-26T12:13:08.636Z</time></trkpt><trkpt lat="44.3051272" lon="10.3995561"><ele>1655.0</ele><time>2026-04-26T12:13:13.636Z</time></trkpt><trkpt lat="44.3051703" lon="10.3996244"><ele>1655.0</ele><time>2026-04-26T12:13:19.64Z</time></trkpt><trkpt lat="44.3052179" lon="10.3996856"><ele>1655.0</ele><time>2026-04-26T12:13:26.639Z</time></trkpt><trkpt lat="44.3052753" lon="10.3997423"><ele>1654.9999999999998</ele><time>2026-04-26T12:13:32.635Z</time></trkpt><trkpt lat="44.3053296" lon="10.399787"><ele>1655.0</ele><time>2026-04-26T12:13:39.634Z</time></trkpt><trkpt lat="44.3053958" lon="10.3997907"><ele>1654.4285714285713</ele><time>2026-04-26T12:13:45.635Z</time></trkpt><trkpt lat="44.3054618" lon="10.3997653"><ele>1653.857142857143</ele><time>2026-04-26T12:13:52.635Z</time></trkpt><trkpt lat="44.3055218" lon="10.3997363"><ele>1653.2857142857142</ele><time>2026-04-26T12:13:58.635Z</time></trkpt><trkpt lat="44.3055799" lon="10.3996777"><ele>1652.7142857142858</ele><time>2026-04-26T12:14:04.635Z</time></trkpt><trkpt lat="44.3056325" lon="10.3996106"><ele>1652.142857142857</ele><time>2026-04-26T12:14:09.635Z</time></trkpt><trkpt lat="44.3056914" lon="10.3995586"><ele>1651.5714285714284</ele><time>2026-04-26T12:14:15.635Z</time></trkpt><trkpt lat="44.3057458" lon="10.3995108"><ele>1651.0</ele><time>2026-04-26T12:14:21.638Z</time></trkpt><trkpt lat="44.3058166" lon="10.3995271"><ele>1651.0000000000002</ele><time>2026-04-26T12:14:27.637Z</time></trkpt><trkpt lat="44.3058792" lon="10.3995135"><ele>1651.0</ele><time>2026-04-26T12:14:32.64Z</time></trkpt><trkpt lat="44.3059366" lon="10.3995531"><ele>1651.0</ele><time>2026-04-26T12:14:39.638Z</time></trkpt><trkpt lat="44.3060058" lon="10.3995795"><ele>1651.0</ele><time>2026-04-26T12:14:45.639Z</time></trkpt><trkpt lat="44.3061131" lon="10.3995568"><ele>1651.0000000000002</ele><time>2026-04-26T12:16:39.635Z</time></trkpt><trkpt lat="44.3061853" lon="10.3995393"><ele>1651.0</ele><time>2026-04-26T12:16:45.634Z</time></trkpt><trkpt lat="44.3062576" lon="10.3995313"><ele>1651.0</ele><time>2026-04-26T12:16:50.637Z</time></trkpt><trkpt lat="44.3063159" lon="10.3994848"><ele>1651.0</ele><time>2026-04-26T12:16:55.637Z</time></trkpt><trkpt lat="44.3063761" lon="10.3994234"><ele>1651.0</ele><time>2026-04-26T12:17:01.637Z</time></trkpt><trkpt lat="44.3064248" lon="10.39936"><ele>1651.0</ele><time>2026-04-26T12:17:06.636Z</time></trkpt><trkpt lat="44.3064873" lon="10.3993098"><ele>1651.0</ele><time>2026-04-26T12:17:12.636Z</time></trkpt><trkpt lat="44.3065417" lon="10.3992456"><ele>1651.0</ele><time>2026-04-26T12:17:18.636Z</time></trkpt><trkpt lat="44.3065888" lon="10.3991784"><ele>1651.0</ele><time>2026-04-26T12:17:24.636Z</time></trkpt><trkpt lat="44.3066357" lon="10.3991124"><ele>1648.857142857143</ele><time>2026-04-26T12:17:31.635Z</time></trkpt><trkpt lat="44.30668" lon="10.3990469"><ele>1646.7142857142858</ele><time>2026-04-26T12:17:37.636Z</time></trkpt><trkpt lat="44.3067349" lon="10.3989998"><ele>1644.5714285714284</ele><time>2026-04-26T12:17:42.635Z</time></trkpt><trkpt lat="44.3068056" lon="10.3989899"><ele>1642.4285714285716</ele><time>2026-04-26T12:17:49.636Z</time></trkpt><trkpt lat="44.3068748" lon="10.3990067"><ele>1640.2857142857144</ele><time>2026-04-26T12:17:54.635Z</time></trkpt><trkpt lat="44.3069398" lon="10.3990143"><ele>1638.142857142857</ele><time>2026-04-26T12:18:00.637Z</time></trkpt><trkpt lat="44.3070142" lon="10.399007"><ele>1636.0</ele><time>2026-04-26T12:18:07.635Z</time></trkpt><trkpt lat="44.3070852" lon="10.3989868"><ele>1636.0</ele><time>2026-04-26T12:18:13.637Z</time></trkpt><trkpt lat="44.3071537" lon="10.3989829"><ele>1636.0</ele><time>2026-04-26T12:18:18.635Z</time></trkpt><trkpt lat="44.3072192" lon="10.3989881"><ele>1636.0</ele><time>2026-04-26T12:18:25.637Z</time></trkpt><trkpt lat="44.3072836" lon="10.3990352"><ele>1636.0</ele><time>2026-04-26T12:18:28.637Z</time></trkpt><trkpt lat="44.3073344" lon="10.3991027"><ele>1636.0</ele><time>2026-04-26T12:18:33.637Z</time></trkpt><trkpt lat="44.3073842" lon="10.3991717"><ele>1636.0</ele><time>2026-04-26T12:18:40.638Z</time></trkpt><trkpt lat="44.3074368" lon="10.3992355"><ele>1636.0</ele><time>2026-04-26T12:18:45.644Z</time></trkpt><trkpt lat="44.3074965" lon="10.3992877"><ele>1633.857142857143</ele><time>2026-04-26T12:18:51.645Z</time></trkpt><trkpt lat="44.3075481" lon="10.3993428"><ele>1631.7142857142858</ele><time>2026-04-26T12:18:58.638Z</time></trkpt><trkpt lat="44.3075839" lon="10.3994225"><ele>1629.5714285714287</ele><time>2026-04-26T12:19:05.637Z</time></trkpt><trkpt lat="44.307572" lon="10.3995227"><ele>1627.4285714285716</ele><time>2026-04-26T12:19:13.658Z</time></trkpt><trkpt lat="44.3075771" lon="10.3996146"><ele>1625.2857142857142</ele><time>2026-04-26T12:19:20.637Z</time></trkpt><trkpt lat="44.3076357" lon="10.3996569"><ele>1623.1428571428573</ele><time>2026-04-26T12:19:25.679Z</time></trkpt><trkpt lat="44.307693" lon="10.3996944"><ele>1621.0</ele><time>2026-04-26T12:19:33.64Z</time></trkpt><trkpt lat="44.3077283" lon="10.3997728"><ele>1619.4285714285716</ele><time>2026-04-26T12:19:40.637Z</time></trkpt><trkpt lat="44.3077646" lon="10.3998474"><ele>1617.857142857143</ele><time>2026-04-26T12:19:50.639Z</time></trkpt><trkpt lat="44.3077644" lon="10.3999392"><ele>1616.2857142857142</ele><time>2026-04-26T12:19:57.641Z</time></trkpt><trkpt lat="44.3077686" lon="10.4000398"><ele>1614.7142857142858</ele><time>2026-04-26T12:20:03.637Z</time></trkpt><trkpt lat="44.3077428" lon="10.4001273"><ele>1613.142857142857</ele><time>2026-04-26T12:20:12.634Z</time></trkpt><trkpt lat="44.3077947" lon="10.4001813"><ele>1611.5714285714287</ele><time>2026-04-26T12:20:21.634Z</time></trkpt><trkpt lat="44.3078618" lon="10.4001965"><ele>1610.0</ele><time>2026-04-26T12:20:39.636Z</time></trkpt><trkpt lat="44.3079154" lon="10.4002737"><ele>1610.0</ele><time>2026-04-26T12:20:43.642Z</time></trkpt><trkpt lat="44.3079446" lon="10.4003591"><ele>1610.0</ele><time>2026-04-26T12:20:51.681Z</time></trkpt><trkpt lat="44.308001" lon="10.4004393"><ele>1610.0</ele><time>2026-04-26T12:21:11.639Z</time></trkpt><trkpt lat="44.3080245" lon="10.400521"><ele>1610.0</ele><time>2026-04-26T12:21:20.638Z</time></trkpt><trkpt lat="44.3080403" lon="10.4006137"><ele>1610.0</ele><time>2026-04-26T12:21:27.66Z</time></trkpt><trkpt lat="44.3081058" lon="10.4006429"><ele>1610.0</ele><time>2026-04-26T12:21:32.639Z</time></trkpt><trkpt lat="44.3081617" lon="10.4007017"><ele>1610.0</ele><time>2026-04-26T12:21:40.64Z</time></trkpt><trkpt lat="44.3081847" lon="10.4007893"><ele>1605.7142857142858</ele><time>2026-04-26T12:21:48.664Z</time></trkpt><trkpt lat="44.3082494" lon="10.4008117"><ele>1601.4285714285716</ele><time>2026-04-26T12:21:54.649Z</time></trkpt><trkpt lat="44.3082928" lon="10.4008807"><ele>1597.142857142857</ele><time>2026-04-26T12:22:07.644Z</time></trkpt><trkpt lat="44.3083295" lon="10.4009611"><ele>1592.857142857143</ele><time>2026-04-26T12:22:17.639Z</time></trkpt><trkpt lat="44.3083731" lon="10.4010341"><ele>1588.5714285714287</ele><time>2026-04-26T12:22:23.645Z</time></trkpt><trkpt lat="44.3084334" lon="10.4010642"><ele>1584.2857142857142</ele><time>2026-04-26T12:22:29.667Z</time></trkpt><trkpt lat="44.3084828" lon="10.4011306"><ele>1580.0</ele><time>2026-04-26T12:22:46.645Z</time></trkpt><trkpt lat="44.3084997" lon="10.4012191"><ele>1580.0</ele><time>2026-04-26T12:22:54.694Z</time></trkpt><trkpt lat="44.3084951" lon="10.4013163"><ele>1580.0</ele><time>2026-04-26T12:23:01.638Z</time></trkpt><trkpt lat="44.30854" lon="10.4013987"><ele>1580.0</ele><time>2026-04-26T12:23:08.638Z</time></trkpt><trkpt lat="44.3085502" lon="10.4015008"><ele>1580.0</ele><time>2026-04-26T12:23:15.673Z</time></trkpt><trkpt lat="44.3085483" lon="10.4016"><ele>1580.0</ele><time>2026-04-26T12:23:21.651Z</time></trkpt><trkpt lat="44.3085581" lon="10.4016967"><ele>1580.0</ele><time>2026-04-26T12:23:27.639Z</time></trkpt><trkpt lat="44.3086076" lon="10.4017687"><ele>1580.0</ele><time>2026-04-26T12:23:33.659Z</time></trkpt><trkpt lat="44.3086608" lon="10.4018208"><ele>1578.5714285714284</ele><time>2026-04-26T12:23:39.638Z</time></trkpt><trkpt lat="44.3087126" lon="10.4018858"><ele>1577.1428571428573</ele><time>2026-04-26T12:23:47.639Z</time></trkpt><trkpt lat="44.3087623" lon="10.4019486"><ele>1575.7142857142858</ele><time>2026-04-26T12:23:54.658Z</time></trkpt><trkpt lat="44.3088164" lon="10.4020131"><ele>1574.2857142857142</ele><time>2026-04-26T12:24:00.712Z</time></trkpt><trkpt lat="44.3088617" lon="10.4020821"><ele>1572.8571428571427</ele><time>2026-04-26T12:24:06.689Z</time></trkpt><trkpt lat="44.3088927" lon="10.4021643"><ele>1571.4285714285716</ele><time>2026-04-26T12:24:14.637Z</time></trkpt><trkpt lat="44.3088985" lon="10.4022593"><ele>1570.0</ele><time>2026-04-26T12:24:23.639Z</time></trkpt><trkpt lat="44.3089539" lon="10.4023289"><ele>1566.857142857143</ele><time>2026-04-26T12:24:28.657Z</time></trkpt><trkpt lat="44.3089875" lon="10.4024061"><ele>1563.7142857142856</ele><time>2026-04-26T12:24:35.639Z</time></trkpt><trkpt lat="44.3090496" lon="10.4024371"><ele>1560.5714285714284</ele><time>2026-04-26T12:24:41.636Z</time></trkpt><trkpt lat="44.3091074" lon="10.4024848"><ele>1557.4285714285716</ele><time>2026-04-26T12:24:52.637Z</time></trkpt><trkpt lat="44.3091181" lon="10.402579"><ele>1554.2857142857142</ele><time>2026-04-26T12:24:59.652Z</time></trkpt><trkpt lat="44.3091514" lon="10.4026689"><ele>1551.142857142857</ele><time>2026-04-26T12:25:05.637Z</time></trkpt><trkpt lat="44.3091984" lon="10.4027419"><ele>1548.0</ele><time>2026-04-26T12:25:12.638Z</time></trkpt><trkpt lat="44.3092511" lon="10.4028107"><ele>1548.0</ele><time>2026-04-26T12:25:19.637Z</time></trkpt><trkpt lat="44.3093113" lon="10.4028724"><ele>1548.0</ele><time>2026-04-26T12:25:26.656Z</time></trkpt><trkpt lat="44.3093734" lon="10.4029172"><ele>1548.0</ele><time>2026-04-26T12:25:34.654Z</time></trkpt><trkpt lat="44.3094385" lon="10.402931"><ele>1548.0</ele><time>2026-04-26T12:25:40.637Z</time></trkpt><trkpt lat="44.309498" lon="10.4029788"><ele>1548.0</ele><time>2026-04-26T12:25:46.657Z</time></trkpt><trkpt lat="44.3095609" lon="10.4030233"><ele>1548.0</ele><time>2026-04-26T12:25:54.637Z</time></trkpt><trkpt lat="44.3096258" lon="10.4030547"><ele>1548.0</ele><time>2026-04-26T12:26:03.646Z</time></trkpt><trkpt lat="44.309687" lon="10.4030767"><ele>1544.7142857142858</ele><time>2026-04-26T12:26:11.639Z</time></trkpt><trkpt lat="44.3097488" lon="10.4031324"><ele>1541.4285714285716</ele><time>2026-04-26T12:26:16.639Z</time></trkpt><trkpt lat="44.3097849" lon="10.403209"><ele>1538.142857142857</ele><time>2026-04-26T12:26:22.64Z</time></trkpt><trkpt lat="44.3098325" lon="10.4032708"><ele>1534.857142857143</ele><time>2026-04-26T12:26:29.639Z</time></trkpt><trkpt lat="44.3098686" lon="10.4033478"><ele>1531.5714285714284</ele><time>2026-04-26T12:26:39.674Z</time></trkpt><trkpt lat="44.3098955" lon="10.4034444"><ele>1528.2857142857142</ele><time>2026-04-26T12:26:47.678Z</time></trkpt><trkpt lat="44.309935" lon="10.4035352"><ele>1525.0</ele><time>2026-04-26T12:26:53.639Z</time></trkpt><trkpt lat="44.3099838" lon="10.4036141"><ele>1525.0</ele><time>2026-04-26T12:26:58.637Z</time></trkpt><trkpt lat="44.3100303" lon="10.4036871"><ele>1525.0</ele><time>2026-04-26T12:27:03.644Z</time></trkpt><trkpt lat="44.3100981" lon="10.4037072"><ele>1525.0</ele><time>2026-04-26T12:27:10.684Z</time></trkpt><trkpt lat="44.3101341" lon="10.4037903"><ele>1525.0</ele><time>2026-04-26T12:27:23.636Z</time></trkpt><trkpt lat="44.3102111" lon="10.403796"><ele>1525.0</ele><time>2026-04-26T12:27:58.639Z</time></trkpt><trkpt lat="44.3102544" lon="10.4038659"><ele>1525.0</ele><time>2026-04-26T12:28:06.639Z</time></trkpt><trkpt lat="44.310292" lon="10.4039497"><ele>1525.0</ele><time>2026-04-26T12:28:11.638Z</time></trkpt><trkpt lat="44.3103459" lon="10.4040179"><ele>1524.2857142857142</ele><time>2026-04-26T12:28:18.649Z</time></trkpt><trkpt lat="44.3103982" lon="10.4040683"><ele>1523.5714285714284</ele><time>2026-04-26T12:28:24.637Z</time></trkpt><trkpt lat="44.3104554" lon="10.4041118"><ele>1522.857142857143</ele><time>2026-04-26T12:28:30.636Z</time></trkpt><trkpt lat="44.310522" lon="10.4041567"><ele>1522.142857142857</ele><time>2026-04-26T12:28:38.638Z</time></trkpt><trkpt lat="44.3105808" lon="10.4042078"><ele>1521.4285714285716</ele><time>2026-04-26T12:28:44.637Z</time></trkpt><trkpt lat="44.3106387" lon="10.4042621"><ele>1520.7142857142858</ele><time>2026-04-26T12:28:51.638Z</time></trkpt><trkpt lat="44.3106841" lon="10.4043233"><ele>1520.0</ele><time>2026-04-26T12:28:58.639Z</time></trkpt><trkpt lat="44.310733" lon="10.4043831"><ele>1517.4285714285716</ele><time>2026-04-26T12:29:08.639Z</time></trkpt><trkpt lat="44.3107692" lon="10.4044583"><ele>1514.857142857143</ele><time>2026-04-26T12:29:17.651Z</time></trkpt><trkpt lat="44.310829" lon="10.4044932"><ele>1512.2857142857142</ele><time>2026-04-26T12:29:31.64Z</time></trkpt><trkpt lat="44.3108401" lon="10.4045813"><ele>1509.7142857142858</ele><time>2026-04-26T12:29:38.641Z</time></trkpt><trkpt lat="44.3108742" lon="10.4046623"><ele>1507.142857142857</ele><time>2026-04-26T12:29:46.639Z</time></trkpt><trkpt lat="44.3109214" lon="10.4047295"><ele>1504.5714285714287</ele><time>2026-04-26T12:29:55.639Z</time></trkpt><trkpt lat="44.3109823" lon="10.4047893"><ele>1502.0</ele><time>2026-04-26T12:30:03.64Z</time></trkpt><trkpt lat="44.3110533" lon="10.4048082"><ele>1501.2857142857144</ele><time>2026-04-26T12:30:11.645Z</time></trkpt><trkpt lat="44.3111112" lon="10.4048639"><ele>1500.5714285714287</ele><time>2026-04-26T12:30:18.643Z</time></trkpt><trkpt lat="44.3111588" lon="10.4049404"><ele>1499.857142857143</ele><time>2026-04-26T12:30:26.64Z</time></trkpt><trkpt lat="44.3111942" lon="10.4050141"><ele>1499.1428571428573</ele><time>2026-04-26T12:30:34.639Z</time></trkpt><trkpt lat="44.3112488" lon="10.405064"><ele>1498.4285714285713</ele><time>2026-04-26T12:30:46.661Z</time></trkpt><trkpt lat="44.3113152" lon="10.4050698"><ele>1497.7142857142858</ele><time>2026-04-26T12:30:51.638Z</time></trkpt><trkpt lat="44.3113529" lon="10.4051424"><ele>1497.0</ele><time>2026-04-26T12:30:58.64Z</time></trkpt><trkpt lat="44.3114194" lon="10.4051804"><ele>1493.4285714285713</ele><time>2026-04-26T12:31:11.688Z</time></trkpt><trkpt lat="44.3114776" lon="10.4051415"><ele>1489.8571428571427</ele><time>2026-04-26T12:31:16.667Z</time></trkpt><trkpt lat="44.3115323" lon="10.4050898"><ele>1486.2857142857142</ele><time>2026-04-26T12:31:27.639Z</time></trkpt><trkpt lat="44.3115651" lon="10.4050031"><ele>1482.7142857142858</ele><time>2026-04-26T12:31:33.639Z</time></trkpt><trkpt lat="44.3115623" lon="10.4049078"><ele>1479.142857142857</ele><time>2026-04-26T12:31:39.639Z</time></trkpt><trkpt lat="44.3115723" lon="10.4048148"><ele>1475.5714285714287</ele><time>2026-04-26T12:31:45.641Z</time></trkpt><trkpt lat="44.3115345" lon="10.4047419"><ele>1472.0</ele><time>2026-04-26T12:31:58.64Z</time></trkpt><trkpt lat="44.3115542" lon="10.404826"><ele>1472.0</ele><time>2026-04-26T12:32:49.641Z</time></trkpt><trkpt lat="44.3116229" lon="10.4048474"><ele>1472.0</ele><time>2026-04-26T12:33:11.64Z</time></trkpt><trkpt lat="44.3116655" lon="10.4049354"><ele>1472.0</ele><time>2026-04-26T12:33:29.637Z</time></trkpt><trkpt lat="44.31174" lon="10.4049137"><ele>1472.0</ele><time>2026-04-26T12:33:35.638Z</time></trkpt><trkpt lat="44.3117953" lon="10.4048684"><ele>1472.0</ele><time>2026-04-26T12:33:40.644Z</time></trkpt><trkpt lat="44.3118371" lon="10.4049364"><ele>1472.0</ele><time>2026-04-26T12:33:53.639Z</time></trkpt><trkpt lat="44.3118193" lon="10.4050237"><ele>1472.0</ele><time>2026-04-26T12:34:23.64Z</time></trkpt><trkpt lat="44.3118729" lon="10.4050968"><ele>1472.0</ele><time>2026-04-26T12:34:58.638Z</time></trkpt><trkpt lat="44.311904" lon="10.4051822"><ele>1472.0</ele><time>2026-04-26T12:35:03.639Z</time></trkpt><trkpt lat="44.3119336" lon="10.4052669"><ele>1472.0</ele><time>2026-04-26T12:35:08.639Z</time></trkpt><trkpt lat="44.3119723" lon="10.405355"><ele>1472.0</ele><time>2026-04-26T12:35:14.639Z</time></trkpt><trkpt lat="44.3120389" lon="10.4053777"><ele>1472.0</ele><time>2026-04-26T12:35:24.639Z</time></trkpt><trkpt lat="44.3121053" lon="10.4054004"><ele>1472.0</ele><time>2026-04-26T12:35:33.638Z</time></trkpt><trkpt lat="44.3121382" lon="10.4054785"><ele>1472.0</ele><time>2026-04-26T12:35:39.64Z</time></trkpt><trkpt lat="44.3121614" lon="10.4055639"><ele>1470.0</ele><time>2026-04-26T12:35:47.638Z</time></trkpt><trkpt lat="44.3121759" lon="10.4056601"><ele>1468.0</ele><time>2026-04-26T12:35:54.638Z</time></trkpt><trkpt lat="44.3122064" lon="10.4057511"><ele>1466.0</ele><time>2026-04-26T12:36:00.67Z</time></trkpt><trkpt lat="44.3122432" lon="10.4058286"><ele>1464.0</ele><time>2026-04-26T12:36:09.639Z</time></trkpt><trkpt lat="44.3122528" lon="10.4059279"><ele>1462.0</ele><time>2026-04-26T12:36:18.639Z</time></trkpt><trkpt lat="44.3122633" lon="10.4060177"><ele>1460.0</ele><time>2026-04-26T12:36:25.638Z</time></trkpt><trkpt lat="44.3123195" lon="10.4060597"><ele>1458.0</ele><time>2026-04-26T12:36:35.639Z</time></trkpt><trkpt lat="44.3123505" lon="10.4061421"><ele>1457.0</ele><time>2026-04-26T12:36:45.639Z</time></trkpt><trkpt lat="44.3124235" lon="10.4061718"><ele>1456.0</ele><time>2026-04-26T12:37:05.639Z</time></trkpt><trkpt lat="44.3124793" lon="10.4062225"><ele>1455.0</ele><time>2026-04-26T12:37:19.638Z</time></trkpt><trkpt lat="44.3125122" lon="10.4063075"><ele>1454.0</ele><time>2026-04-26T12:37:27.637Z</time></trkpt><trkpt lat="44.3125414" lon="10.4064033"><ele>1453.0</ele><time>2026-04-26T12:37:35.639Z</time></trkpt><trkpt lat="44.312525" lon="10.4064944"><ele>1452.0</ele><time>2026-04-26T12:37:40.638Z</time></trkpt><trkpt lat="44.3125044" lon="10.4065805"><ele>1451.0</ele><time>2026-04-26T12:37:45.638Z</time></trkpt><trkpt lat="44.3124715" lon="10.406666"><ele>1448.4285714285716</ele><time>2026-04-26T12:37:50.64Z</time></trkpt><trkpt lat="44.312448" lon="10.406749"><ele>1445.8571428571427</ele><time>2026-04-26T12:37:57.638Z</time></trkpt><trkpt lat="44.3124312" lon="10.4068419"><ele>1443.2857142857142</ele><time>2026-04-26T12:38:08.647Z</time></trkpt><trkpt lat="44.3124156" lon="10.406934"><ele>1440.7142857142858</ele><time>2026-04-26T12:38:15.671Z</time></trkpt><trkpt lat="44.3124363" lon="10.4070252"><ele>1438.1428571428573</ele><time>2026-04-26T12:38:23.639Z</time></trkpt><trkpt lat="44.3124356" lon="10.407182"><ele>1435.5714285714284</ele><time>2026-04-26T12:38:43.639Z</time></trkpt><trkpt lat="44.3124692" lon="10.4072649"><ele>1433.0</ele><time>2026-04-26T12:38:50.641Z</time></trkpt><trkpt lat="44.3124749" lon="10.4073593"><ele>1430.3333333333335</ele><time>2026-04-26T12:39:00.641Z</time></trkpt><trkpt lat="44.3124652" lon="10.4074481"><ele>1427.6666666666667</ele><time>2026-04-26T12:39:10.656Z</time></trkpt><trkpt lat="44.312496" lon="10.4075348"><ele>1425.0</ele><time>2026-04-26T12:39:37.666Z</time></trkpt><trkpt lat="44.3125561" lon="10.4076605"><ele>1422.3333333333333</ele><time>2026-04-26T12:39:52.639Z</time></trkpt><trkpt lat="44.3125671" lon="10.4077481"><ele>1419.6666666666665</ele><time>2026-04-26T12:39:59.638Z</time></trkpt><trkpt lat="44.3125812" lon="10.407848"><ele>1417.0</ele><time>2026-04-26T12:40:04.637Z</time></trkpt><trkpt lat="44.3125945" lon="10.4079488"><ele>1414.9999999999998</ele><time>2026-04-26T12:40:11.658Z</time></trkpt><trkpt lat="44.3126131" lon="10.408042"><ele>1413.0</ele><time>2026-04-26T12:40:17.639Z</time></trkpt><trkpt lat="44.312598" lon="10.4081319"><ele>1411.0</ele><time>2026-04-26T12:40:23.655Z</time></trkpt><trkpt lat="44.3125648" lon="10.4082168"><ele>1409.0</ele><time>2026-04-26T12:40:28.653Z</time></trkpt><trkpt lat="44.3125513" lon="10.4083069"><ele>1407.0</ele><time>2026-04-26T12:40:35.649Z</time></trkpt><trkpt lat="44.3125504" lon="10.4084074"><ele>1404.9999999999998</ele><time>2026-04-26T12:40:42.644Z</time></trkpt><trkpt lat="44.3124983" lon="10.40849"><ele>1403.0</ele><time>2026-04-26T12:40:48.639Z</time></trkpt><trkpt lat="44.3124698" lon="10.4085849"><ele>1402.9999999999998</ele><time>2026-04-26T12:40:55.639Z</time></trkpt><trkpt lat="44.312453" lon="10.4086699"><ele>1403.0</ele><time>2026-04-26T12:41:00.665Z</time></trkpt><trkpt lat="44.3124705" lon="10.4087655"><ele>1403.0</ele><time>2026-04-26T12:41:06.638Z</time></trkpt><trkpt lat="44.3124833" lon="10.408866"><ele>1403.0</ele><time>2026-04-26T12:41:14.641Z</time></trkpt><trkpt lat="44.312501" lon="10.4089617"><ele>1403.0</ele><time>2026-04-26T12:41:20.641Z</time></trkpt><trkpt lat="44.3125441" lon="10.4090292"><ele>1402.9999999999998</ele><time>2026-04-26T12:41:27.647Z</time></trkpt><trkpt lat="44.312589" lon="10.4091046"><ele>1403.0</ele><time>2026-04-26T12:41:34.656Z</time></trkpt><trkpt lat="44.3126344" lon="10.4091713"><ele>1401.7142857142856</ele><time>2026-04-26T12:41:39.664Z</time></trkpt><trkpt lat="44.3126926" lon="10.4092217"><ele>1400.4285714285713</ele><time>2026-04-26T12:41:45.64Z</time></trkpt><trkpt lat="44.312753" lon="10.409272"><ele>1399.142857142857</ele><time>2026-04-26T12:41:53.64Z</time></trkpt><trkpt lat="44.3128056" lon="10.4093236"><ele>1397.8571428571427</ele><time>2026-04-26T12:41:58.64Z</time></trkpt><trkpt lat="44.3128534" lon="10.4093922"><ele>1396.5714285714284</ele><time>2026-04-26T12:42:03.639Z</time></trkpt><trkpt lat="44.3129153" lon="10.4094462"><ele>1395.2857142857142</ele><time>2026-04-26T12:42:11.657Z</time></trkpt><trkpt lat="44.3129816" lon="10.409484"><ele>1394.0</ele><time>2026-04-26T12:42:18.638Z</time></trkpt><trkpt lat="44.3130483" lon="10.4095146"><ele>1392.3333333333335</ele><time>2026-04-26T12:42:25.638Z</time></trkpt><trkpt lat="44.313119" lon="10.4095362"><ele>1390.6666666666667</ele><time>2026-04-26T12:42:31.648Z</time></trkpt><trkpt lat="44.3131735" lon="10.4095906"><ele>1389.0</ele><time>2026-04-26T12:42:37.637Z</time></trkpt><trkpt lat="44.3132342" lon="10.4096386"><ele>1387.3333333333333</ele><time>2026-04-26T12:42:43.639Z</time></trkpt><trkpt lat="44.3133509" lon="10.4096711"><ele>1385.6666666666665</ele><time>2026-04-26T12:43:29.639Z</time></trkpt><trkpt lat="44.3134119" lon="10.4097108"><ele>1384.0</ele><time>2026-04-26T12:43:35.66Z</time></trkpt><trkpt lat="44.3134867" lon="10.4097378"><ele>1384.0</ele><time>2026-04-26T12:43:42.64Z</time></trkpt><trkpt lat="44.3135463" lon="10.4097666"><ele>1384.0</ele><time>2026-04-26T12:43:48.638Z</time></trkpt><trkpt lat="44.3136117" lon="10.4097727"><ele>1384.0</ele><time>2026-04-26T12:43:54.639Z</time></trkpt><trkpt lat="44.313673" lon="10.4098299"><ele>1384.0</ele><time>2026-04-26T12:43:59.639Z</time></trkpt><trkpt lat="44.3137207" lon="10.4099087"><ele>1384.0</ele><time>2026-04-26T12:44:05.639Z</time></trkpt><trkpt lat="44.3137791" lon="10.4099612"><ele>1384.0</ele><time>2026-04-26T12:44:13.64Z</time></trkpt><trkpt lat="44.3138242" lon="10.4100303"><ele>1384.0</ele><time>2026-04-26T12:44:20.637Z</time></trkpt><trkpt lat="44.3138753" lon="10.4100865"><ele>1384.0</ele><time>2026-04-26T12:44:27.637Z</time></trkpt><trkpt lat="44.3139049" lon="10.4101718"><ele>1384.0</ele><time>2026-04-26T12:44:34.639Z</time></trkpt><trkpt lat="44.3139297" lon="10.4102739"><ele>1384.0</ele><time>2026-04-26T12:44:39.638Z</time></trkpt><trkpt lat="44.313961" lon="10.4103609"><ele>1384.0</ele><time>2026-04-26T12:44:43.64Z</time></trkpt><trkpt lat="44.3139967" lon="10.410447"><ele>1384.0</ele><time>2026-04-26T12:44:48.656Z</time></trkpt><trkpt lat="44.3140255" lon="10.4105376"><ele>1384.0</ele><time>2026-04-26T12:44:53.639Z</time></trkpt><trkpt lat="44.3140363" lon="10.4106329"><ele>1384.0</ele><time>2026-04-26T12:44:59.653Z</time></trkpt><trkpt lat="44.3140535" lon="10.4107354"><ele>1384.0</ele><time>2026-04-26T12:45:04.639Z</time></trkpt><trkpt lat="44.314059" lon="10.4108342"><ele>1384.0</ele><time>2026-04-26T12:45:11.652Z</time></trkpt><trkpt lat="44.3140765" lon="10.4109232"><ele>1384.0</ele><time>2026-04-26T12:45:15.639Z</time></trkpt><trkpt lat="44.3140965" lon="10.4110196"><ele>1384.0</ele><time>2026-04-26T12:45:21.637Z</time></trkpt><trkpt lat="44.3141105" lon="10.4111193"><ele>1384.0</ele><time>2026-04-26T12:45:27.642Z</time></trkpt><trkpt lat="44.314126" lon="10.4112168"><ele>1384.0</ele><time>2026-04-26T12:45:33.644Z</time></trkpt><trkpt lat="44.314152" lon="10.4113013"><ele>1384.0</ele><time>2026-04-26T12:45:38.639Z</time></trkpt><trkpt lat="44.314173" lon="10.4113917"><ele>1381.4285714285713</ele><time>2026-04-26T12:45:45.639Z</time></trkpt><trkpt lat="44.3142016" lon="10.4114821"><ele>1378.857142857143</ele><time>2026-04-26T12:45:49.654Z</time></trkpt><trkpt lat="44.3142384" lon="10.4115541"><ele>1376.2857142857142</ele><time>2026-04-26T12:45:55.673Z</time></trkpt><trkpt lat="44.3142851" lon="10.4116408"><ele>1373.7142857142858</ele><time>2026-04-26T12:46:00.638Z</time></trkpt><trkpt lat="44.3143356" lon="10.4117067"><ele>1371.142857142857</ele><time>2026-04-26T12:46:06.656Z</time></trkpt><trkpt lat="44.3143943" lon="10.4117722"><ele>1368.5714285714287</ele><time>2026-04-26T12:46:12.658Z</time></trkpt><trkpt lat="44.3144438" lon="10.4118295"><ele>1366.0</ele><time>2026-04-26T12:46:18.638Z</time></trkpt><trkpt lat="44.3144748" lon="10.4119225"><ele>1366.0</ele><time>2026-04-26T12:46:23.639Z</time></trkpt><trkpt lat="44.314484" lon="10.4120137"><ele>1366.0</ele><time>2026-04-26T12:46:28.639Z</time></trkpt><trkpt lat="44.3144784" lon="10.4121104"><ele>1366.0</ele><time>2026-04-26T12:46:33.647Z</time></trkpt><trkpt lat="44.3144662" lon="10.4122026"><ele>1366.0</ele><time>2026-04-26T12:46:38.65Z</time></trkpt><trkpt lat="44.3144415" lon="10.4122949"><ele>1366.0</ele><time>2026-04-26T12:46:44.639Z</time></trkpt><trkpt lat="44.3144273" lon="10.4123902"><ele>1366.0</ele><time>2026-04-26T12:46:49.669Z</time></trkpt><trkpt lat="44.3144329" lon="10.4124877"><ele>1366.0</ele><time>2026-04-26T12:46:55.716Z</time></trkpt><trkpt lat="44.314458" lon="10.4125727"><ele>1364.0</ele><time>2026-04-26T12:47:00.639Z</time></trkpt><trkpt lat="44.3144867" lon="10.4126571"><ele>1362.0</ele><time>2026-04-26T12:47:06.639Z</time></trkpt><trkpt lat="44.3145214" lon="10.4127427"><ele>1360.0</ele><time>2026-04-26T12:47:12.669Z</time></trkpt><trkpt lat="44.3145584" lon="10.4128226"><ele>1358.0</ele><time>2026-04-26T12:47:19.638Z</time></trkpt><trkpt lat="44.3146108" lon="10.412893"><ele>1356.0</ele><time>2026-04-26T12:47:24.639Z</time></trkpt><trkpt lat="44.3146646" lon="10.4129526"><ele>1354.0</ele><time>2026-04-26T12:47:30.658Z</time></trkpt><trkpt lat="44.3147275" lon="10.4130037"><ele>1352.0</ele><time>2026-04-26T12:47:35.65Z</time></trkpt><trkpt lat="44.3147876" lon="10.4130508"><ele>1352.0</ele><time>2026-04-26T12:47:41.639Z</time></trkpt><trkpt lat="44.3148482" lon="10.4131034"><ele>1352.0</ele><time>2026-04-26T12:47:46.658Z</time></trkpt><trkpt lat="44.3149071" lon="10.4131407"><ele>1352.0</ele><time>2026-04-26T12:47:51.638Z</time></trkpt><trkpt lat="44.3149723" lon="10.4131797"><ele>1352.0</ele><time>2026-04-26T12:47:57.673Z</time></trkpt><trkpt lat="44.3150376" lon="10.4132203"><ele>1352.0</ele><time>2026-04-26T12:48:01.639Z</time></trkpt><trkpt lat="44.315098" lon="10.4132681"><ele>1352.0</ele><time>2026-04-26T12:48:08.639Z</time></trkpt><trkpt lat="44.3151713" lon="10.413297"><ele>1352.0</ele><time>2026-04-26T12:48:15.651Z</time></trkpt><trkpt lat="44.3152122" lon="10.4133788"><ele>1352.0</ele><time>2026-04-26T12:48:20.641Z</time></trkpt><trkpt lat="44.3152664" lon="10.4134416"><ele>1352.0</ele><time>2026-04-26T12:48:25.647Z</time></trkpt><trkpt lat="44.3153241" lon="10.4134979"><ele>1352.0</ele><time>2026-04-26T12:48:33.686Z</time></trkpt><trkpt lat="44.3153745" lon="10.4135835"><ele>1352.0</ele><time>2026-04-26T12:48:38.659Z</time></trkpt><trkpt lat="44.315424" lon="10.4136428"><ele>1352.0</ele><time>2026-04-26T12:48:43.638Z</time></trkpt><trkpt lat="44.3154922" lon="10.4136908"><ele>1352.0</ele><time>2026-04-26T12:48:49.673Z</time></trkpt><trkpt lat="44.3155286" lon="10.4137655"><ele>1352.0</ele><time>2026-04-26T12:48:55.659Z</time></trkpt><trkpt lat="44.3155653" lon="10.4138434"><ele>1350.0</ele><time>2026-04-26T12:49:00.673Z</time></trkpt><trkpt lat="44.3156102" lon="10.4139207"><ele>1348.0</ele><time>2026-04-26T12:49:07.685Z</time></trkpt><trkpt lat="44.3156435" lon="10.414001"><ele>1346.0</ele><time>2026-04-26T12:49:12.636Z</time></trkpt><trkpt lat="44.3157066" lon="10.4140405"><ele>1344.0</ele><time>2026-04-26T12:49:20.636Z</time></trkpt><trkpt lat="44.3157647" lon="10.4140905"><ele>1342.0</ele><time>2026-04-26T12:49:26.634Z</time></trkpt><trkpt lat="44.3158238" lon="10.4141463"><ele>1340.0</ele><time>2026-04-26T12:49:33.635Z</time></trkpt><trkpt lat="44.3158904" lon="10.4141884"><ele>1338.0</ele><time>2026-04-26T12:49:39.634Z</time></trkpt><trkpt lat="44.3159528" lon="10.4142145"><ele>1338.0</ele><time>2026-04-26T12:49:45.634Z</time></trkpt><trkpt lat="44.3160053" lon="10.4142822"><ele>1338.0</ele><time>2026-04-26T12:49:51.634Z</time></trkpt><trkpt lat="44.3160299" lon="10.4143774"><ele>1338.0</ele><time>2026-04-26T12:49:57.635Z</time></trkpt><trkpt lat="44.3160445" lon="10.4144715"><ele>1338.0</ele><time>2026-04-26T12:50:02.636Z</time></trkpt><trkpt lat="44.3160495" lon="10.4145779"><ele>1338.0</ele><time>2026-04-26T12:50:08.636Z</time></trkpt><trkpt lat="44.3160552" lon="10.414673"><ele>1338.0</ele><time>2026-04-26T12:50:13.635Z</time></trkpt><trkpt lat="44.3160701" lon="10.4147753"><ele>1338.0</ele><time>2026-04-26T12:50:19.634Z</time></trkpt><trkpt lat="44.3160917" lon="10.4148743"><ele>1336.142857142857</ele><time>2026-04-26T12:50:26.656Z</time></trkpt><trkpt lat="44.3160956" lon="10.4149741"><ele>1334.2857142857142</ele><time>2026-04-26T12:50:31.639Z</time></trkpt><trkpt lat="44.3161054" lon="10.4150678"><ele>1332.4285714285716</ele><time>2026-04-26T12:50:37.638Z</time></trkpt><trkpt lat="44.3161218" lon="10.4151628"><ele>1330.5714285714284</ele><time>2026-04-26T12:50:42.639Z</time></trkpt><trkpt lat="44.3161542" lon="10.4152523"><ele>1328.7142857142856</ele><time>2026-04-26T12:50:48.637Z</time></trkpt><trkpt lat="44.3161792" lon="10.4153366"><ele>1326.857142857143</ele><time>2026-04-26T12:50:53.637Z</time></trkpt><trkpt lat="44.31622" lon="10.4154086"><ele>1325.0</ele><time>2026-04-26T12:50:59.64Z</time></trkpt><trkpt lat="44.3162457" lon="10.4154998"><ele>1326.2857142857144</ele><time>2026-04-26T12:51:05.638Z</time></trkpt><trkpt lat="44.3162821" lon="10.415591"><ele>1327.5714285714284</ele><time>2026-04-26T12:51:11.654Z</time></trkpt><trkpt lat="44.3163349" lon="10.415659"><ele>1328.857142857143</ele><time>2026-04-26T12:51:17.639Z</time></trkpt><trkpt lat="44.3163647" lon="10.4157429"><ele>1330.1428571428573</ele><time>2026-04-26T12:51:23.659Z</time></trkpt><trkpt lat="44.3164135" lon="10.4158033"><ele>1331.4285714285716</ele><time>2026-04-26T12:51:28.638Z</time></trkpt><trkpt lat="44.3164701" lon="10.4158597"><ele>1332.7142857142858</ele><time>2026-04-26T12:51:34.638Z</time></trkpt><trkpt lat="44.3165248" lon="10.4159086"><ele>1334.0</ele><time>2026-04-26T12:51:40.644Z</time></trkpt><trkpt lat="44.3165814" lon="10.415976"><ele>1334.0000000000002</ele><time>2026-04-26T12:51:46.647Z</time></trkpt><trkpt lat="44.3166307" lon="10.4160494"><ele>1334.0</ele><time>2026-04-26T12:51:51.643Z</time></trkpt><trkpt lat="44.3166924" lon="10.4161008"><ele>1334.0</ele><time>2026-04-26T12:51:55.639Z</time></trkpt><trkpt lat="44.3167116" lon="10.416194"><ele>1334.0</ele><time>2026-04-26T12:52:02.698Z</time></trkpt><trkpt lat="44.3167085" lon="10.4162883"><ele>1334.0</ele><time>2026-04-26T12:52:09.647Z</time></trkpt><trkpt lat="44.3167202" lon="10.4163862"><ele>1334.0000000000002</ele><time>2026-04-26T12:52:15.639Z</time></trkpt><trkpt lat="44.3167428" lon="10.4164823"><ele>1334.0</ele><time>2026-04-26T12:52:21.643Z</time></trkpt><trkpt lat="44.3167627" lon="10.4165779"><ele>1331.0000000000002</ele><time>2026-04-26T12:52:26.639Z</time></trkpt><trkpt lat="44.3167887" lon="10.4166586"><ele>1328.0</ele><time>2026-04-26T12:52:32.675Z</time></trkpt><trkpt lat="44.3168346" lon="10.4167376"><ele>1325.0</ele><time>2026-04-26T12:52:37.644Z</time></trkpt><trkpt lat="44.3168725" lon="10.4168149"><ele>1322.0</ele><time>2026-04-26T12:52:42.636Z</time></trkpt><trkpt lat="44.3169003" lon="10.4168948"><ele>1319.0</ele><time>2026-04-26T12:52:48.648Z</time></trkpt><trkpt lat="44.3169193" lon="10.4169847"><ele>1316.0000000000002</ele><time>2026-04-26T12:52:53.637Z</time></trkpt><trkpt lat="44.3169088" lon="10.4170824"><ele>1313.0</ele><time>2026-04-26T12:53:00.663Z</time></trkpt><trkpt lat="44.3168815" lon="10.4171658"><ele>1311.7142857142858</ele><time>2026-04-26T12:53:07.663Z</time></trkpt><trkpt lat="44.3168419" lon="10.4172448"><ele>1310.4285714285716</ele><time>2026-04-26T12:53:14.639Z</time></trkpt><trkpt lat="44.316829" lon="10.4173409"><ele>1309.1428571428573</ele><time>2026-04-26T12:53:19.639Z</time></trkpt><trkpt lat="44.3168089" lon="10.4174257"><ele>1307.857142857143</ele><time>2026-04-26T12:53:24.639Z</time></trkpt><trkpt lat="44.3168138" lon="10.4175259"><ele>1306.5714285714284</ele><time>2026-04-26T12:53:31.637Z</time></trkpt><trkpt lat="44.3168149" lon="10.4176225"><ele>1305.2857142857144</ele><time>2026-04-26T12:53:36.638Z</time></trkpt><trkpt lat="44.3168041" lon="10.4177166"><ele>1304.0</ele><time>2026-04-26T12:53:43.637Z</time></trkpt><trkpt lat="44.316809" lon="10.4178128"><ele>1304.0</ele><time>2026-04-26T12:53:49.646Z</time></trkpt><trkpt lat="44.3168083" lon="10.417901"><ele>1304.0</ele><time>2026-04-26T12:53:56.639Z</time></trkpt><trkpt lat="44.3167983" lon="10.4179949"><ele>1304.0</ele><time>2026-04-26T12:54:04.638Z</time></trkpt><trkpt lat="44.3167722" lon="10.4180826"><ele>1304.0</ele><time>2026-04-26T12:54:11.641Z</time></trkpt><trkpt lat="44.3167323" lon="10.4181616"><ele>1304.0</ele><time>2026-04-26T12:54:18.642Z</time></trkpt><trkpt lat="44.3166872" lon="10.4182408"><ele>1304.0</ele><time>2026-04-26T12:54:24.656Z</time></trkpt><trkpt lat="44.3166431" lon="10.4183176"><ele>1304.0</ele><time>2026-04-26T12:54:32.662Z</time></trkpt><trkpt lat="44.3166049" lon="10.4183956"><ele>1296.0</ele><time>2026-04-26T12:54:40.64Z</time></trkpt><trkpt lat="44.3165577" lon="10.4184681"><ele>1296.0</ele><time>2026-04-26T12:54:47.658Z</time></trkpt><trkpt lat="44.3165079" lon="10.4185352"><ele>1296.0</ele><time>2026-04-26T12:54:52.635Z</time></trkpt><trkpt lat="44.3164568" lon="10.4185906"><ele>1296.0</ele><time>2026-04-26T12:54:59.635Z</time></trkpt><trkpt lat="44.3164221" lon="10.4186652"><ele>1296.0</ele><time>2026-04-26T12:55:06.636Z</time></trkpt><trkpt lat="44.3164068" lon="10.4187568"><ele>1296.0</ele><time>2026-04-26T12:55:13.636Z</time></trkpt><trkpt lat="44.3163984" lon="10.4188453"><ele>1273.0</ele><time>2026-04-26T12:55:20.635Z</time></trkpt></trkseg></trk></gpx>